<?xml version="1.0" encoding="UTF-8" standalone="no" ?>
<gpx xmlns="http://www.topografix.com/GPX/1/1" xmlns:xsi="http://www.w3.org/2001/XMLSchema-instance" xsi:schemaLocation="http://www.topografix.com/GPX/1/1 http://www.topografix.com/GPX/1/1/gpx.xsd" version="1.1" creator="VisuGPX - https://www.visugpx.com">
  <metadata>
    <name>Créon Haux</name>
    <desc><![CDATA[Randonnée VTT]]></desc>
  </metadata>
  <trk>
    <name><![CDATA[Colinneau baudin haux creon]]></name>
    <trkseg>
      <trkpt lat="44.75598" lon="-0.31276">
        <ele>102</ele>
        <time>2013-06-02T12:34:01Z</time>
      </trkpt>
      <trkpt lat="44.75618" lon="-0.31285">
        <ele>102</ele>
        <time>2013-06-02T12:34:10Z</time>
      </trkpt>
      <trkpt lat="44.75635" lon="-0.31295">
        <ele>102</ele>
        <time>2013-06-02T12:34:19Z</time>
      </trkpt>
      <trkpt lat="44.75642" lon="-0.31301">
        <ele>102</ele>
        <time>2013-06-02T12:34:28Z</time>
      </trkpt>
      <trkpt lat="44.75644" lon="-0.31305">
        <ele>102</ele>
        <time>2013-06-02T12:34:36Z</time>
      </trkpt>
      <trkpt lat="44.75644" lon="-0.31305">
        <ele>102</ele>
        <time>2013-06-02T12:34:39Z</time>
      </trkpt>
      <trkpt lat="44.75656" lon="-0.31308">
        <ele>102</ele>
        <time>2013-06-02T12:34:45Z</time>
      </trkpt>
      <trkpt lat="44.75677" lon="-0.31306">
        <ele>103</ele>
        <time>2013-06-02T12:34:52Z</time>
      </trkpt>
      <trkpt lat="44.75712" lon="-0.3131">
        <ele>104</ele>
        <time>2013-06-02T12:35:01Z</time>
      </trkpt>
      <trkpt lat="44.75744" lon="-0.31316">
        <ele>105</ele>
        <time>2013-06-02T12:35:10Z</time>
      </trkpt>
      <trkpt lat="44.75765" lon="-0.3132">
        <ele>106</ele>
        <time>2013-06-02T12:35:18Z</time>
      </trkpt>
      <trkpt lat="44.75785" lon="-0.31323">
        <ele>107</ele>
        <time>2013-06-02T12:35:25Z</time>
      </trkpt>
      <trkpt lat="44.75817" lon="-0.3133">
        <ele>108</ele>
        <time>2013-06-02T12:35:35Z</time>
      </trkpt>
      <trkpt lat="44.75854" lon="-0.31337">
        <ele>109</ele>
        <time>2013-06-02T12:35:47Z</time>
      </trkpt>
      <trkpt lat="44.7588" lon="-0.31342">
        <ele>110</ele>
        <time>2013-06-02T12:35:55Z</time>
      </trkpt>
      <trkpt lat="44.75913" lon="-0.31348">
        <ele>110</ele>
        <time>2013-06-02T12:36:04Z</time>
      </trkpt>
      <trkpt lat="44.75959" lon="-0.31358">
        <ele>110</ele>
        <time>2013-06-02T12:36:17Z</time>
      </trkpt>
      <trkpt lat="44.75997" lon="-0.31365">
        <ele>110</ele>
        <time>2013-06-02T12:36:27Z</time>
      </trkpt>
      <trkpt lat="44.76023" lon="-0.3137">
        <ele>110</ele>
        <time>2013-06-02T12:36:35Z</time>
      </trkpt>
      <trkpt lat="44.76026" lon="-0.31389">
        <ele>109</ele>
        <time>2013-06-02T12:36:39Z</time>
      </trkpt>
      <trkpt lat="44.76025" lon="-0.31394">
        <ele>109</ele>
        <time>2013-06-02T12:36:40Z</time>
      </trkpt>
      <trkpt lat="44.76016" lon="-0.31467">
        <ele>107</ele>
        <time>2013-06-02T12:36:51Z</time>
      </trkpt>
      <trkpt lat="44.76007" lon="-0.31534">
        <ele>107</ele>
        <time>2013-06-02T12:37:01Z</time>
      </trkpt>
      <trkpt lat="44.75999" lon="-0.31607">
        <ele>108</ele>
        <time>2013-06-02T12:37:11Z</time>
      </trkpt>
      <trkpt lat="44.75996" lon="-0.3163">
        <ele>108</ele>
        <time>2013-06-02T12:37:14Z</time>
      </trkpt>
      <trkpt lat="44.75995" lon="-0.31637">
        <ele>108</ele>
        <time>2013-06-02T12:37:15Z</time>
      </trkpt>
      <trkpt lat="44.75993" lon="-0.31644">
        <ele>108</ele>
        <time>2013-06-02T12:37:16Z</time>
      </trkpt>
      <trkpt lat="44.75991" lon="-0.31651">
        <ele>108</ele>
        <time>2013-06-02T12:37:17Z</time>
      </trkpt>
      <trkpt lat="44.75988" lon="-0.31658">
        <ele>108</ele>
        <time>2013-06-02T12:37:18Z</time>
      </trkpt>
      <trkpt lat="44.75985" lon="-0.31664">
        <ele>108</ele>
        <time>2013-06-02T12:37:19Z</time>
      </trkpt>
      <trkpt lat="44.75982" lon="-0.3167">
        <ele>108</ele>
        <time>2013-06-02T12:37:20Z</time>
      </trkpt>
      <trkpt lat="44.75978" lon="-0.31675">
        <ele>109</ele>
        <time>2013-06-02T12:37:21Z</time>
      </trkpt>
      <trkpt lat="44.75964" lon="-0.31696">
        <ele>109</ele>
        <time>2013-06-02T12:37:25Z</time>
      </trkpt>
      <trkpt lat="44.75961" lon="-0.31702">
        <ele>109</ele>
        <time>2013-06-02T12:37:26Z</time>
      </trkpt>
      <trkpt lat="44.75958" lon="-0.31709">
        <ele>109</ele>
        <time>2013-06-02T12:37:27Z</time>
      </trkpt>
      <trkpt lat="44.75942" lon="-0.31768">
        <ele>108</ele>
        <time>2013-06-02T12:37:35Z</time>
      </trkpt>
      <trkpt lat="44.75931" lon="-0.31855">
        <ele>107</ele>
        <time>2013-06-02T12:37:46Z</time>
      </trkpt>
      <trkpt lat="44.75934" lon="-0.3194">
        <ele>108</ele>
        <time>2013-06-02T12:37:57Z</time>
      </trkpt>
      <trkpt lat="44.75934" lon="-0.3201">
        <ele>107</ele>
        <time>2013-06-02T12:38:06Z</time>
      </trkpt>
      <trkpt lat="44.7593" lon="-0.32092">
        <ele>107</ele>
        <time>2013-06-02T12:38:17Z</time>
      </trkpt>
      <trkpt lat="44.75923" lon="-0.32166">
        <ele>107</ele>
        <time>2013-06-02T12:38:27Z</time>
      </trkpt>
      <trkpt lat="44.75909" lon="-0.32223">
        <ele>107</ele>
        <time>2013-06-02T12:38:35Z</time>
      </trkpt>
      <trkpt lat="44.75883" lon="-0.32295">
        <ele>106</ele>
        <time>2013-06-02T12:38:45Z</time>
      </trkpt>
      <trkpt lat="44.75868" lon="-0.32367">
        <ele>105</ele>
        <time>2013-06-02T12:38:54Z</time>
      </trkpt>
      <trkpt lat="44.75851" lon="-0.32457">
        <ele>105</ele>
        <time>2013-06-02T12:39:05Z</time>
      </trkpt>
      <trkpt lat="44.75833" lon="-0.32525">
        <ele>104</ele>
        <time>2013-06-02T12:39:14Z</time>
      </trkpt>
      <trkpt lat="44.7581" lon="-0.32593">
        <ele>103</ele>
        <time>2013-06-02T12:39:23Z</time>
      </trkpt>
      <trkpt lat="44.75782" lon="-0.32674">
        <ele>101</ele>
        <time>2013-06-02T12:39:34Z</time>
      </trkpt>
      <trkpt lat="44.75754" lon="-0.32751">
        <ele>102</ele>
        <time>2013-06-02T12:39:45Z</time>
      </trkpt>
      <trkpt lat="44.75732" lon="-0.32785">
        <ele>104</ele>
        <time>2013-06-02T12:39:51Z</time>
      </trkpt>
      <trkpt lat="44.75693" lon="-0.3282">
        <ele>106</ele>
        <time>2013-06-02T12:39:59Z</time>
      </trkpt>
      <trkpt lat="44.7569" lon="-0.32826">
        <ele>106</ele>
        <time>2013-06-02T12:40:00Z</time>
      </trkpt>
      <trkpt lat="44.75689" lon="-0.32834">
        <ele>106</ele>
        <time>2013-06-02T12:40:01Z</time>
      </trkpt>
      <trkpt lat="44.75691" lon="-0.32841">
        <ele>106</ele>
        <time>2013-06-02T12:40:02Z</time>
      </trkpt>
      <trkpt lat="44.75694" lon="-0.32848">
        <ele>107</ele>
        <time>2013-06-02T12:40:03Z</time>
      </trkpt>
      <trkpt lat="44.75698" lon="-0.32853">
        <ele>107</ele>
        <time>2013-06-02T12:40:04Z</time>
      </trkpt>
      <trkpt lat="44.75702" lon="-0.32858">
        <ele>107</ele>
        <time>2013-06-02T12:40:05Z</time>
      </trkpt>
      <trkpt lat="44.75707" lon="-0.32863">
        <ele>107</ele>
        <time>2013-06-02T12:40:06Z</time>
      </trkpt>
      <trkpt lat="44.75755" lon="-0.3291">
        <ele>107</ele>
        <time>2013-06-02T12:40:17Z</time>
      </trkpt>
      <trkpt lat="44.7577" lon="-0.32917">
        <ele>107</ele>
        <time>2013-06-02T12:40:20Z</time>
      </trkpt>
      <trkpt lat="44.7579" lon="-0.32921">
        <ele>107</ele>
        <time>2013-06-02T12:40:24Z</time>
      </trkpt>
      <trkpt lat="44.75814" lon="-0.32923">
        <ele>107</ele>
        <time>2013-06-02T12:40:30Z</time>
      </trkpt>
      <trkpt lat="44.75817" lon="-0.32924">
        <ele>107</ele>
        <time>2013-06-02T12:40:31Z</time>
      </trkpt>
      <trkpt lat="44.75819" lon="-0.32929">
        <ele>107</ele>
        <time>2013-06-02T12:40:32Z</time>
      </trkpt>
      <trkpt lat="44.75818" lon="-0.32934">
        <ele>107</ele>
        <time>2013-06-02T12:40:33Z</time>
      </trkpt>
      <trkpt lat="44.75818" lon="-0.3294">
        <ele>107</ele>
        <time>2013-06-02T12:40:34Z</time>
      </trkpt>
      <trkpt lat="44.75817" lon="-0.32946">
        <ele>107</ele>
        <time>2013-06-02T12:40:35Z</time>
      </trkpt>
      <trkpt lat="44.75818" lon="-0.32952">
        <ele>107</ele>
        <time>2013-06-02T12:40:36Z</time>
      </trkpt>
      <trkpt lat="44.75819" lon="-0.32958">
        <ele>107</ele>
        <time>2013-06-02T12:40:37Z</time>
      </trkpt>
      <trkpt lat="44.75831" lon="-0.33005">
        <ele>107</ele>
        <time>2013-06-02T12:40:45Z</time>
      </trkpt>
      <trkpt lat="44.75835" lon="-0.33023">
        <ele>107</ele>
        <time>2013-06-02T12:40:48Z</time>
      </trkpt>
      <trkpt lat="44.75837" lon="-0.33029">
        <ele>107</ele>
        <time>2013-06-02T12:40:49Z</time>
      </trkpt>
      <trkpt lat="44.7584" lon="-0.33033">
        <ele>107</ele>
        <time>2013-06-02T12:40:50Z</time>
      </trkpt>
      <trkpt lat="44.75845" lon="-0.33036">
        <ele>106</ele>
        <time>2013-06-02T12:40:51Z</time>
      </trkpt>
      <trkpt lat="44.75849" lon="-0.33039">
        <ele>106</ele>
        <time>2013-06-02T12:40:52Z</time>
      </trkpt>
      <trkpt lat="44.75858" lon="-0.33044">
        <ele>106</ele>
        <time>2013-06-02T12:40:54Z</time>
      </trkpt>
      <trkpt lat="44.75862" lon="-0.33048">
        <ele>106</ele>
        <time>2013-06-02T12:40:55Z</time>
      </trkpt>
      <trkpt lat="44.75866" lon="-0.33052">
        <ele>106</ele>
        <time>2013-06-02T12:40:56Z</time>
      </trkpt>
      <trkpt lat="44.7589" lon="-0.33079">
        <ele>106</ele>
        <time>2013-06-02T12:41:02Z</time>
      </trkpt>
      <trkpt lat="44.7591" lon="-0.33109">
        <ele>106</ele>
        <time>2013-06-02T12:41:08Z</time>
      </trkpt>
      <trkpt lat="44.75927" lon="-0.33158">
        <ele>106</ele>
        <time>2013-06-02T12:41:15Z</time>
      </trkpt>
      <trkpt lat="44.75947" lon="-0.33235">
        <ele>105</ele>
        <time>2013-06-02T12:41:26Z</time>
      </trkpt>
      <trkpt lat="44.75951" lon="-0.33248">
        <ele>105</ele>
        <time>2013-06-02T12:41:28Z</time>
      </trkpt>
      <trkpt lat="44.75956" lon="-0.33272">
        <ele>105</ele>
        <time>2013-06-02T12:41:32Z</time>
      </trkpt>
      <trkpt lat="44.75957" lon="-0.33286">
        <ele>105</ele>
        <time>2013-06-02T12:41:34Z</time>
      </trkpt>
      <trkpt lat="44.75957" lon="-0.33294">
        <ele>105</ele>
        <time>2013-06-02T12:41:35Z</time>
      </trkpt>
      <trkpt lat="44.75957" lon="-0.33309">
        <ele>105</ele>
        <time>2013-06-02T12:41:37Z</time>
      </trkpt>
      <trkpt lat="44.75956" lon="-0.33317">
        <ele>105</ele>
        <time>2013-06-02T12:41:38Z</time>
      </trkpt>
      <trkpt lat="44.75956" lon="-0.33324">
        <ele>105</ele>
        <time>2013-06-02T12:41:39Z</time>
      </trkpt>
      <trkpt lat="44.75957" lon="-0.33345">
        <ele>104</ele>
        <time>2013-06-02T12:41:42Z</time>
      </trkpt>
      <trkpt lat="44.75957" lon="-0.33352">
        <ele>104</ele>
        <time>2013-06-02T12:41:43Z</time>
      </trkpt>
      <trkpt lat="44.75956" lon="-0.33358">
        <ele>104</ele>
        <time>2013-06-02T12:41:44Z</time>
      </trkpt>
      <trkpt lat="44.75956" lon="-0.33365">
        <ele>104</ele>
        <time>2013-06-02T12:41:45Z</time>
      </trkpt>
      <trkpt lat="44.75956" lon="-0.33372">
        <ele>104</ele>
        <time>2013-06-02T12:41:46Z</time>
      </trkpt>
      <trkpt lat="44.75956" lon="-0.33379">
        <ele>104</ele>
        <time>2013-06-02T12:41:47Z</time>
      </trkpt>
      <trkpt lat="44.75958" lon="-0.33434">
        <ele>102</ele>
        <time>2013-06-02T12:41:55Z</time>
      </trkpt>
      <trkpt lat="44.75958" lon="-0.33448">
        <ele>102</ele>
        <time>2013-06-02T12:41:57Z</time>
      </trkpt>
      <trkpt lat="44.75957" lon="-0.33455">
        <ele>102</ele>
        <time>2013-06-02T12:41:58Z</time>
      </trkpt>
      <trkpt lat="44.75954" lon="-0.33501">
        <ele>101</ele>
        <time>2013-06-02T12:42:05Z</time>
      </trkpt>
      <trkpt lat="44.75952" lon="-0.33518">
        <ele>101</ele>
        <time>2013-06-02T12:42:08Z</time>
      </trkpt>
      <trkpt lat="44.7595" lon="-0.33537">
        <ele>101</ele>
        <time>2013-06-02T12:42:11Z</time>
      </trkpt>
      <trkpt lat="44.75948" lon="-0.33549">
        <ele>101</ele>
        <time>2013-06-02T12:42:13Z</time>
      </trkpt>
      <trkpt lat="44.75947" lon="-0.33556">
        <ele>101</ele>
        <time>2013-06-02T12:42:14Z</time>
      </trkpt>
      <trkpt lat="44.75946" lon="-0.33562">
        <ele>101</ele>
        <time>2013-06-02T12:42:15Z</time>
      </trkpt>
      <trkpt lat="44.75945" lon="-0.33596">
        <ele>100</ele>
        <time>2013-06-02T12:42:20Z</time>
      </trkpt>
      <trkpt lat="44.75944" lon="-0.33614">
        <ele>100</ele>
        <time>2013-06-02T12:42:23Z</time>
      </trkpt>
      <trkpt lat="44.75944" lon="-0.3362">
        <ele>100</ele>
        <time>2013-06-02T12:42:24Z</time>
      </trkpt>
      <trkpt lat="44.75944" lon="-0.33626">
        <ele>100</ele>
        <time>2013-06-02T12:42:25Z</time>
      </trkpt>
      <trkpt lat="44.7594" lon="-0.33672">
        <ele>99</ele>
        <time>2013-06-02T12:42:33Z</time>
      </trkpt>
      <trkpt lat="44.75939" lon="-0.33716">
        <ele>98</ele>
        <time>2013-06-02T12:42:42Z</time>
      </trkpt>
      <trkpt lat="44.75945" lon="-0.33735">
        <ele>98</ele>
        <time>2013-06-02T12:42:48Z</time>
      </trkpt>
      <trkpt lat="44.75937" lon="-0.3376">
        <ele>97</ele>
        <time>2013-06-02T12:42:56Z</time>
      </trkpt>
      <trkpt lat="44.75935" lon="-0.33764">
        <ele>97</ele>
        <time>2013-06-02T12:43:01Z</time>
      </trkpt>
      <trkpt lat="44.75935" lon="-0.33765">
        <ele>97</ele>
        <time>2013-06-02T12:43:14Z</time>
      </trkpt>
      <trkpt lat="44.75934" lon="-0.33765">
        <ele>97</ele>
        <time>2013-06-02T12:43:24Z</time>
      </trkpt>
      <trkpt lat="44.75922" lon="-0.33765">
        <ele>97</ele>
        <time>2013-06-02T12:43:30Z</time>
      </trkpt>
      <trkpt lat="44.75902" lon="-0.3376">
        <ele>95</ele>
        <time>2013-06-02T12:43:37Z</time>
      </trkpt>
      <trkpt lat="44.75875" lon="-0.33765">
        <ele>90</ele>
        <time>2013-06-02T12:43:45Z</time>
      </trkpt>
      <trkpt lat="44.75855" lon="-0.33775">
        <ele>87</ele>
        <time>2013-06-02T12:43:50Z</time>
      </trkpt>
      <trkpt lat="44.7582" lon="-0.33786">
        <ele>80</ele>
        <time>2013-06-02T12:43:58Z</time>
      </trkpt>
      <trkpt lat="44.75809" lon="-0.33787">
        <ele>79</ele>
        <time>2013-06-02T12:44:01Z</time>
      </trkpt>
      <trkpt lat="44.75801" lon="-0.33809">
        <ele>77</ele>
        <time>2013-06-02T12:44:07Z</time>
      </trkpt>
      <trkpt lat="44.75797" lon="-0.33851">
        <ele>76</ele>
        <time>2013-06-02T12:44:16Z</time>
      </trkpt>
      <trkpt lat="44.75792" lon="-0.33876">
        <ele>75</ele>
        <time>2013-06-02T12:44:24Z</time>
      </trkpt>
      <trkpt lat="44.75785" lon="-0.33896">
        <ele>74</ele>
        <time>2013-06-02T12:44:33Z</time>
      </trkpt>
      <trkpt lat="44.75778" lon="-0.33918">
        <ele>72</ele>
        <time>2013-06-02T12:44:41Z</time>
      </trkpt>
      <trkpt lat="44.75773" lon="-0.33947">
        <ele>71</ele>
        <time>2013-06-02T12:44:50Z</time>
      </trkpt>
      <trkpt lat="44.75767" lon="-0.33972">
        <ele>71</ele>
        <time>2013-06-02T12:44:58Z</time>
      </trkpt>
      <trkpt lat="44.7577" lon="-0.34005">
        <ele>70</ele>
        <time>2013-06-02T12:45:06Z</time>
      </trkpt>
      <trkpt lat="44.75772" lon="-0.34038">
        <ele>70</ele>
        <time>2013-06-02T12:45:14Z</time>
      </trkpt>
      <trkpt lat="44.7577" lon="-0.34071">
        <ele>68</ele>
        <time>2013-06-02T12:45:22Z</time>
      </trkpt>
      <trkpt lat="44.75777" lon="-0.34094">
        <ele>68</ele>
        <time>2013-06-02T12:45:29Z</time>
      </trkpt>
      <trkpt lat="44.75777" lon="-0.34106">
        <ele>68</ele>
        <time>2013-06-02T12:45:33Z</time>
      </trkpt>
      <trkpt lat="44.75784" lon="-0.34133">
        <ele>67</ele>
        <time>2013-06-02T12:45:42Z</time>
      </trkpt>
      <trkpt lat="44.75787" lon="-0.34159">
        <ele>67</ele>
        <time>2013-06-02T12:45:50Z</time>
      </trkpt>
      <trkpt lat="44.75787" lon="-0.34195">
        <ele>65</ele>
        <time>2013-06-02T12:45:59Z</time>
      </trkpt>
      <trkpt lat="44.75789" lon="-0.34218">
        <ele>65</ele>
        <time>2013-06-02T12:46:06Z</time>
      </trkpt>
      <trkpt lat="44.7579" lon="-0.34223">
        <ele>65</ele>
        <time>2013-06-02T12:46:15Z</time>
      </trkpt>
      <trkpt lat="44.75789" lon="-0.34229">
        <ele>65</ele>
        <time>2013-06-02T12:46:27Z</time>
      </trkpt>
      <trkpt lat="44.75793" lon="-0.34249">
        <ele>65</ele>
        <time>2013-06-02T12:46:37Z</time>
      </trkpt>
      <trkpt lat="44.75799" lon="-0.34278">
        <ele>67</ele>
        <time>2013-06-02T12:46:45Z</time>
      </trkpt>
      <trkpt lat="44.75795" lon="-0.34306">
        <ele>67</ele>
        <time>2013-06-02T12:46:55Z</time>
      </trkpt>
      <trkpt lat="44.75792" lon="-0.34337">
        <ele>67</ele>
        <time>2013-06-02T12:47:03Z</time>
      </trkpt>
      <trkpt lat="44.75789" lon="-0.34371">
        <ele>66</ele>
        <time>2013-06-02T12:47:11Z</time>
      </trkpt>
      <trkpt lat="44.75782" lon="-0.34407">
        <ele>64</ele>
        <time>2013-06-02T12:47:20Z</time>
      </trkpt>
      <trkpt lat="44.75784" lon="-0.34433">
        <ele>63</ele>
        <time>2013-06-02T12:47:26Z</time>
      </trkpt>
      <trkpt lat="44.75783" lon="-0.34462">
        <ele>63</ele>
        <time>2013-06-02T12:47:31Z</time>
      </trkpt>
      <trkpt lat="44.75781" lon="-0.34477">
        <ele>62</ele>
        <time>2013-06-02T12:47:33Z</time>
      </trkpt>
      <trkpt lat="44.75785" lon="-0.34537">
        <ele>61</ele>
        <time>2013-06-02T12:47:41Z</time>
      </trkpt>
      <trkpt lat="44.75792" lon="-0.34556">
        <ele>61</ele>
        <time>2013-06-02T12:47:44Z</time>
      </trkpt>
      <trkpt lat="44.75801" lon="-0.34586">
        <ele>60</ele>
        <time>2013-06-02T12:47:50Z</time>
      </trkpt>
      <trkpt lat="44.75798" lon="-0.34597">
        <ele>60</ele>
        <time>2013-06-02T12:47:57Z</time>
      </trkpt>
      <trkpt lat="44.75798" lon="-0.34595">
        <ele>60</ele>
        <time>2013-06-02T12:48:06Z</time>
      </trkpt>
      <trkpt lat="44.75796" lon="-0.34594">
        <ele>60</ele>
        <time>2013-06-02T12:48:27Z</time>
      </trkpt>
      <trkpt lat="44.75797" lon="-0.34593">
        <ele>60</ele>
        <time>2013-06-02T12:48:42Z</time>
      </trkpt>
      <trkpt lat="44.75797" lon="-0.34593">
        <ele>60</ele>
        <time>2013-06-02T12:48:59Z</time>
      </trkpt>
      <trkpt lat="44.75797" lon="-0.34592">
        <ele>60</ele>
        <time>2013-06-02T12:49:20Z</time>
      </trkpt>
      <trkpt lat="44.75796" lon="-0.34593">
        <ele>60</ele>
        <time>2013-06-02T12:49:39Z</time>
      </trkpt>
      <trkpt lat="44.75796" lon="-0.34593">
        <ele>60</ele>
        <time>2013-06-02T12:49:52Z</time>
      </trkpt>
      <trkpt lat="44.75796" lon="-0.34595">
        <ele>60</ele>
        <time>2013-06-02T12:50:02Z</time>
      </trkpt>
      <trkpt lat="44.75796" lon="-0.34595">
        <ele>60</ele>
        <time>2013-06-02T12:50:15Z</time>
      </trkpt>
      <trkpt lat="44.75795" lon="-0.34596">
        <ele>60</ele>
        <time>2013-06-02T12:50:24Z</time>
      </trkpt>
      <trkpt lat="44.75794" lon="-0.34596">
        <ele>60</ele>
        <time>2013-06-02T12:50:31Z</time>
      </trkpt>
      <trkpt lat="44.75791" lon="-0.34603">
        <ele>61</ele>
        <time>2013-06-02T12:50:39Z</time>
      </trkpt>
      <trkpt lat="44.75788" lon="-0.34607">
        <ele>61</ele>
        <time>2013-06-02T12:50:52Z</time>
      </trkpt>
      <trkpt lat="44.75788" lon="-0.34607">
        <ele>61</ele>
        <time>2013-06-02T12:51:05Z</time>
      </trkpt>
      <trkpt lat="44.75788" lon="-0.34608">
        <ele>61</ele>
        <time>2013-06-02T12:51:16Z</time>
      </trkpt>
      <trkpt lat="44.75789" lon="-0.34614">
        <ele>61</ele>
        <time>2013-06-02T12:51:21Z</time>
      </trkpt>
      <trkpt lat="44.75802" lon="-0.34636">
        <ele>60</ele>
        <time>2013-06-02T12:51:30Z</time>
      </trkpt>
      <trkpt lat="44.75818" lon="-0.34673">
        <ele>60</ele>
        <time>2013-06-02T12:51:39Z</time>
      </trkpt>
      <trkpt lat="44.75829" lon="-0.34709">
        <ele>59</ele>
        <time>2013-06-02T12:51:47Z</time>
      </trkpt>
      <trkpt lat="44.75843" lon="-0.34743">
        <ele>59</ele>
        <time>2013-06-02T12:51:55Z</time>
      </trkpt>
      <trkpt lat="44.75861" lon="-0.34785">
        <ele>58</ele>
        <time>2013-06-02T12:52:04Z</time>
      </trkpt>
      <trkpt lat="44.75868" lon="-0.34834">
        <ele>58</ele>
        <time>2013-06-02T12:52:10Z</time>
      </trkpt>
      <trkpt lat="44.75859" lon="-0.34865">
        <ele>57</ele>
        <time>2013-06-02T12:52:17Z</time>
      </trkpt>
      <trkpt lat="44.75843" lon="-0.34887">
        <ele>58</ele>
        <time>2013-06-02T12:52:27Z</time>
      </trkpt>
      <trkpt lat="44.75834" lon="-0.34903">
        <ele>57</ele>
        <time>2013-06-02T12:52:33Z</time>
      </trkpt>
      <trkpt lat="44.75818" lon="-0.34926">
        <ele>57</ele>
        <time>2013-06-02T12:52:41Z</time>
      </trkpt>
      <trkpt lat="44.75813" lon="-0.34954">
        <ele>56</ele>
        <time>2013-06-02T12:52:47Z</time>
      </trkpt>
      <trkpt lat="44.7581" lon="-0.34991">
        <ele>57</ele>
        <time>2013-06-02T12:52:54Z</time>
      </trkpt>
      <trkpt lat="44.75809" lon="-0.35019">
        <ele>58</ele>
        <time>2013-06-02T12:53:00Z</time>
      </trkpt>
      <trkpt lat="44.75814" lon="-0.35064">
        <ele>57</ele>
        <time>2013-06-02T12:53:09Z</time>
      </trkpt>
      <trkpt lat="44.75818" lon="-0.35084">
        <ele>56</ele>
        <time>2013-06-02T12:53:13Z</time>
      </trkpt>
      <trkpt lat="44.75821" lon="-0.35089">
        <ele>55</ele>
        <time>2013-06-02T12:53:14Z</time>
      </trkpt>
      <trkpt lat="44.75824" lon="-0.35095">
        <ele>55</ele>
        <time>2013-06-02T12:53:15Z</time>
      </trkpt>
      <trkpt lat="44.75828" lon="-0.35101">
        <ele>54</ele>
        <time>2013-06-02T12:53:16Z</time>
      </trkpt>
      <trkpt lat="44.75833" lon="-0.35106">
        <ele>53</ele>
        <time>2013-06-02T12:53:17Z</time>
      </trkpt>
      <trkpt lat="44.75842" lon="-0.35117">
        <ele>53</ele>
        <time>2013-06-02T12:53:19Z</time>
      </trkpt>
      <trkpt lat="44.75845" lon="-0.35123">
        <ele>53</ele>
        <time>2013-06-02T12:53:20Z</time>
      </trkpt>
      <trkpt lat="44.75848" lon="-0.3513">
        <ele>52</ele>
        <time>2013-06-02T12:53:21Z</time>
      </trkpt>
      <trkpt lat="44.75851" lon="-0.35135">
        <ele>52</ele>
        <time>2013-06-02T12:53:22Z</time>
      </trkpt>
      <trkpt lat="44.75852" lon="-0.3514">
        <ele>52</ele>
        <time>2013-06-02T12:53:23Z</time>
      </trkpt>
      <trkpt lat="44.75853" lon="-0.35144">
        <ele>52</ele>
        <time>2013-06-02T12:53:24Z</time>
      </trkpt>
      <trkpt lat="44.75854" lon="-0.35148">
        <ele>52</ele>
        <time>2013-06-02T12:53:25Z</time>
      </trkpt>
      <trkpt lat="44.75854" lon="-0.35152">
        <ele>52</ele>
        <time>2013-06-02T12:53:26Z</time>
      </trkpt>
      <trkpt lat="44.75854" lon="-0.35156">
        <ele>52</ele>
        <time>2013-06-02T12:53:27Z</time>
      </trkpt>
      <trkpt lat="44.75853" lon="-0.3516">
        <ele>52</ele>
        <time>2013-06-02T12:53:28Z</time>
      </trkpt>
      <trkpt lat="44.75851" lon="-0.35164">
        <ele>52</ele>
        <time>2013-06-02T12:53:29Z</time>
      </trkpt>
      <trkpt lat="44.7585" lon="-0.35167">
        <ele>52</ele>
        <time>2013-06-02T12:53:30Z</time>
      </trkpt>
      <trkpt lat="44.75836" lon="-0.35197">
        <ele>51</ele>
        <time>2013-06-02T12:53:38Z</time>
      </trkpt>
      <trkpt lat="44.75824" lon="-0.35217">
        <ele>51</ele>
        <time>2013-06-02T12:53:45Z</time>
      </trkpt>
      <trkpt lat="44.75814" lon="-0.35236">
        <ele>52</ele>
        <time>2013-06-02T12:53:53Z</time>
      </trkpt>
      <trkpt lat="44.75801" lon="-0.35242">
        <ele>53</ele>
        <time>2013-06-02T12:54:00Z</time>
      </trkpt>
      <trkpt lat="44.75796" lon="-0.35242">
        <ele>53</ele>
        <time>2013-06-02T12:54:08Z</time>
      </trkpt>
      <trkpt lat="44.7579" lon="-0.35238">
        <ele>54</ele>
        <time>2013-06-02T12:54:16Z</time>
      </trkpt>
      <trkpt lat="44.75787" lon="-0.35239">
        <ele>54</ele>
        <time>2013-06-02T12:54:24Z</time>
      </trkpt>
      <trkpt lat="44.75776" lon="-0.35242">
        <ele>55</ele>
        <time>2013-06-02T12:54:33Z</time>
      </trkpt>
      <trkpt lat="44.75769" lon="-0.35244">
        <ele>56</ele>
        <time>2013-06-02T12:54:41Z</time>
      </trkpt>
      <trkpt lat="44.75758" lon="-0.35252">
        <ele>57</ele>
        <time>2013-06-02T12:54:48Z</time>
      </trkpt>
      <trkpt lat="44.7574" lon="-0.35257">
        <ele>59</ele>
        <time>2013-06-02T12:54:56Z</time>
      </trkpt>
      <trkpt lat="44.75723" lon="-0.35272">
        <ele>60</ele>
        <time>2013-06-02T12:55:04Z</time>
      </trkpt>
      <trkpt lat="44.75714" lon="-0.35269">
        <ele>61</ele>
        <time>2013-06-02T12:55:09Z</time>
      </trkpt>
      <trkpt lat="44.75694" lon="-0.35259">
        <ele>65</ele>
        <time>2013-06-02T12:55:19Z</time>
      </trkpt>
      <trkpt lat="44.75676" lon="-0.35253">
        <ele>67</ele>
        <time>2013-06-02T12:55:30Z</time>
      </trkpt>
      <trkpt lat="44.75674" lon="-0.35244">
        <ele>68</ele>
        <time>2013-06-02T12:55:37Z</time>
      </trkpt>
      <trkpt lat="44.75671" lon="-0.35239">
        <ele>69</ele>
        <time>2013-06-02T12:55:40Z</time>
      </trkpt>
      <trkpt lat="44.75659" lon="-0.35237">
        <ele>70</ele>
        <time>2013-06-02T12:55:50Z</time>
      </trkpt>
      <trkpt lat="44.75655" lon="-0.35234">
        <ele>71</ele>
        <time>2013-06-02T12:55:54Z</time>
      </trkpt>
      <trkpt lat="44.75639" lon="-0.35224">
        <ele>72</ele>
        <time>2013-06-02T12:56:05Z</time>
      </trkpt>
      <trkpt lat="44.75633" lon="-0.35225">
        <ele>73</ele>
        <time>2013-06-02T12:56:10Z</time>
      </trkpt>
      <trkpt lat="44.75626" lon="-0.35226">
        <ele>73</ele>
        <time>2013-06-02T12:56:14Z</time>
      </trkpt>
      <trkpt lat="44.75615" lon="-0.35218">
        <ele>74</ele>
        <time>2013-06-02T12:56:24Z</time>
      </trkpt>
      <trkpt lat="44.7561" lon="-0.3522">
        <ele>74</ele>
        <time>2013-06-02T12:56:28Z</time>
      </trkpt>
      <trkpt lat="44.75599" lon="-0.35226">
        <ele>73</ele>
        <time>2013-06-02T12:56:36Z</time>
      </trkpt>
      <trkpt lat="44.75592" lon="-0.35239">
        <ele>72</ele>
        <time>2013-06-02T12:56:43Z</time>
      </trkpt>
      <trkpt lat="44.75592" lon="-0.35258">
        <ele>70</ele>
        <time>2013-06-02T12:56:48Z</time>
      </trkpt>
      <trkpt lat="44.75592" lon="-0.35287">
        <ele>68</ele>
        <time>2013-06-02T12:56:55Z</time>
      </trkpt>
      <trkpt lat="44.75604" lon="-0.35305">
        <ele>66</ele>
        <time>2013-06-02T12:57:02Z</time>
      </trkpt>
      <trkpt lat="44.75624" lon="-0.35319">
        <ele>64</ele>
        <time>2013-06-02T12:57:12Z</time>
      </trkpt>
      <trkpt lat="44.75644" lon="-0.35314">
        <ele>63</ele>
        <time>2013-06-02T12:57:22Z</time>
      </trkpt>
      <trkpt lat="44.75646" lon="-0.3532">
        <ele>62</ele>
        <time>2013-06-02T12:57:28Z</time>
      </trkpt>
      <trkpt lat="44.75643" lon="-0.35345">
        <ele>59</ele>
        <time>2013-06-02T12:57:38Z</time>
      </trkpt>
      <trkpt lat="44.75636" lon="-0.3536">
        <ele>58</ele>
        <time>2013-06-02T12:57:44Z</time>
      </trkpt>
      <trkpt lat="44.75617" lon="-0.3537">
        <ele>57</ele>
        <time>2013-06-02T12:57:52Z</time>
      </trkpt>
      <trkpt lat="44.75599" lon="-0.35364">
        <ele>59</ele>
        <time>2013-06-02T12:58:01Z</time>
      </trkpt>
      <trkpt lat="44.75598" lon="-0.35365">
        <ele>59</ele>
        <time>2013-06-02T12:58:02Z</time>
      </trkpt>
      <trkpt lat="44.75575" lon="-0.35377">
        <ele>58</ele>
        <time>2013-06-02T12:58:11Z</time>
      </trkpt>
      <trkpt lat="44.75558" lon="-0.35401">
        <ele>56</ele>
        <time>2013-06-02T12:58:18Z</time>
      </trkpt>
      <trkpt lat="44.75545" lon="-0.3542">
        <ele>56</ele>
        <time>2013-06-02T12:58:26Z</time>
      </trkpt>
      <trkpt lat="44.75534" lon="-0.35429">
        <ele>56</ele>
        <time>2013-06-02T12:58:36Z</time>
      </trkpt>
      <trkpt lat="44.75528" lon="-0.35432">
        <ele>56</ele>
        <time>2013-06-02T12:58:39Z</time>
      </trkpt>
      <trkpt lat="44.75518" lon="-0.35435">
        <ele>56</ele>
        <time>2013-06-02T12:58:46Z</time>
      </trkpt>
      <trkpt lat="44.75506" lon="-0.35435">
        <ele>57</ele>
        <time>2013-06-02T12:58:54Z</time>
      </trkpt>
      <trkpt lat="44.75505" lon="-0.35436">
        <ele>57</ele>
        <time>2013-06-02T12:58:55Z</time>
      </trkpt>
      <trkpt lat="44.75488" lon="-0.35453">
        <ele>59</ele>
        <time>2013-06-02T12:59:04Z</time>
      </trkpt>
      <trkpt lat="44.75474" lon="-0.35462">
        <ele>62</ele>
        <time>2013-06-02T12:59:12Z</time>
      </trkpt>
      <trkpt lat="44.75468" lon="-0.35457">
        <ele>63</ele>
        <time>2013-06-02T12:59:18Z</time>
      </trkpt>
      <trkpt lat="44.75459" lon="-0.35455">
        <ele>64</ele>
        <time>2013-06-02T12:59:26Z</time>
      </trkpt>
      <trkpt lat="44.75456" lon="-0.35458">
        <ele>65</ele>
        <time>2013-06-02T12:59:35Z</time>
      </trkpt>
      <trkpt lat="44.75455" lon="-0.35464">
        <ele>66</ele>
        <time>2013-06-02T12:59:46Z</time>
      </trkpt>
      <trkpt lat="44.75454" lon="-0.35467">
        <ele>66</ele>
        <time>2013-06-02T12:59:56Z</time>
      </trkpt>
      <trkpt lat="44.75454" lon="-0.35468">
        <ele>66</ele>
        <time>2013-06-02T13:00:07Z</time>
      </trkpt>
      <trkpt lat="44.75455" lon="-0.35469">
        <ele>66</ele>
        <time>2013-06-02T13:00:19Z</time>
      </trkpt>
      <trkpt lat="44.75455" lon="-0.3547">
        <ele>66</ele>
        <time>2013-06-02T13:00:34Z</time>
      </trkpt>
      <trkpt lat="44.75455" lon="-0.35471">
        <ele>66</ele>
        <time>2013-06-02T13:00:52Z</time>
      </trkpt>
      <trkpt lat="44.75456" lon="-0.35472">
        <ele>66</ele>
        <time>2013-06-02T13:01:08Z</time>
      </trkpt>
      <trkpt lat="44.75456" lon="-0.35471">
        <ele>66</ele>
        <time>2013-06-02T13:01:24Z</time>
      </trkpt>
      <trkpt lat="44.75456" lon="-0.35473">
        <ele>66</ele>
        <time>2013-06-02T13:01:38Z</time>
      </trkpt>
      <trkpt lat="44.75456" lon="-0.35475">
        <ele>66</ele>
        <time>2013-06-02T13:01:51Z</time>
      </trkpt>
      <trkpt lat="44.75455" lon="-0.35476">
        <ele>66</ele>
        <time>2013-06-02T13:02:03Z</time>
      </trkpt>
      <trkpt lat="44.75452" lon="-0.3548">
        <ele>67</ele>
        <time>2013-06-02T13:02:13Z</time>
      </trkpt>
      <trkpt lat="44.75451" lon="-0.3549">
        <ele>67</ele>
        <time>2013-06-02T13:02:21Z</time>
      </trkpt>
      <trkpt lat="44.75449" lon="-0.35499">
        <ele>68</ele>
        <time>2013-06-02T13:02:25Z</time>
      </trkpt>
      <trkpt lat="44.75439" lon="-0.3552">
        <ele>69</ele>
        <time>2013-06-02T13:02:34Z</time>
      </trkpt>
      <trkpt lat="44.75441" lon="-0.35535">
        <ele>68</ele>
        <time>2013-06-02T13:02:41Z</time>
      </trkpt>
      <trkpt lat="44.75447" lon="-0.35547">
        <ele>67</ele>
        <time>2013-06-02T13:02:45Z</time>
      </trkpt>
      <trkpt lat="44.75461" lon="-0.35566">
        <ele>65</ele>
        <time>2013-06-02T13:02:54Z</time>
      </trkpt>
      <trkpt lat="44.75461" lon="-0.3559">
        <ele>63</ele>
        <time>2013-06-02T13:03:03Z</time>
      </trkpt>
      <trkpt lat="44.75463" lon="-0.35598">
        <ele>61</ele>
        <time>2013-06-02T13:03:05Z</time>
      </trkpt>
      <trkpt lat="44.7546" lon="-0.35628">
        <ele>57</ele>
        <time>2013-06-02T13:03:13Z</time>
      </trkpt>
      <trkpt lat="44.75461" lon="-0.3563">
        <ele>57</ele>
        <time>2013-06-02T13:03:14Z</time>
      </trkpt>
      <trkpt lat="44.75469" lon="-0.35636">
        <ele>56</ele>
        <time>2013-06-02T13:03:18Z</time>
      </trkpt>
      <trkpt lat="44.75494" lon="-0.35657">
        <ele>54</ele>
        <time>2013-06-02T13:03:28Z</time>
      </trkpt>
      <trkpt lat="44.75522" lon="-0.35684">
        <ele>51</ele>
        <time>2013-06-02T13:03:37Z</time>
      </trkpt>
      <trkpt lat="44.75529" lon="-0.35695">
        <ele>50</ele>
        <time>2013-06-02T13:03:45Z</time>
      </trkpt>
      <trkpt lat="44.75528" lon="-0.35697">
        <ele>50</ele>
        <time>2013-06-02T13:03:57Z</time>
      </trkpt>
      <trkpt lat="44.75529" lon="-0.35699">
        <ele>49</ele>
        <time>2013-06-02T13:04:13Z</time>
      </trkpt>
      <trkpt lat="44.75532" lon="-0.35702">
        <ele>49</ele>
        <time>2013-06-02T13:04:30Z</time>
      </trkpt>
      <trkpt lat="44.75531" lon="-0.35702">
        <ele>49</ele>
        <time>2013-06-02T13:04:46Z</time>
      </trkpt>
      <trkpt lat="44.75532" lon="-0.35702">
        <ele>49</ele>
        <time>2013-06-02T13:05:04Z</time>
      </trkpt>
      <trkpt lat="44.75534" lon="-0.35706">
        <ele>49</ele>
        <time>2013-06-02T13:05:20Z</time>
      </trkpt>
      <trkpt lat="44.75536" lon="-0.35706">
        <ele>49</ele>
        <time>2013-06-02T13:05:37Z</time>
      </trkpt>
      <trkpt lat="44.75536" lon="-0.35706">
        <ele>49</ele>
        <time>2013-06-02T13:05:57Z</time>
      </trkpt>
      <trkpt lat="44.75535" lon="-0.35705">
        <ele>49</ele>
        <time>2013-06-02T13:06:16Z</time>
      </trkpt>
      <trkpt lat="44.75537" lon="-0.35706">
        <ele>49</ele>
        <time>2013-06-02T13:06:29Z</time>
      </trkpt>
      <trkpt lat="44.75537" lon="-0.35707">
        <ele>49</ele>
        <time>2013-06-02T13:06:42Z</time>
      </trkpt>
      <trkpt lat="44.75535" lon="-0.35709">
        <ele>49</ele>
        <time>2013-06-02T13:06:55Z</time>
      </trkpt>
      <trkpt lat="44.75525" lon="-0.35725">
        <ele>49</ele>
        <time>2013-06-02T13:07:06Z</time>
      </trkpt>
      <trkpt lat="44.75522" lon="-0.35734">
        <ele>49</ele>
        <time>2013-06-02T13:07:14Z</time>
      </trkpt>
      <trkpt lat="44.75515" lon="-0.35765">
        <ele>48</ele>
        <time>2013-06-02T13:07:21Z</time>
      </trkpt>
      <trkpt lat="44.75498" lon="-0.35818">
        <ele>47</ele>
        <time>2013-06-02T13:07:31Z</time>
      </trkpt>
      <trkpt lat="44.75494" lon="-0.3584">
        <ele>46</ele>
        <time>2013-06-02T13:07:35Z</time>
      </trkpt>
      <trkpt lat="44.75492" lon="-0.35846">
        <ele>46</ele>
        <time>2013-06-02T13:07:36Z</time>
      </trkpt>
      <trkpt lat="44.75484" lon="-0.35879">
        <ele>46</ele>
        <time>2013-06-02T13:07:41Z</time>
      </trkpt>
      <trkpt lat="44.75474" lon="-0.35915">
        <ele>46</ele>
        <time>2013-06-02T13:07:48Z</time>
      </trkpt>
      <trkpt lat="44.75466" lon="-0.35949">
        <ele>45</ele>
        <time>2013-06-02T13:07:56Z</time>
      </trkpt>
      <trkpt lat="44.75455" lon="-0.35991">
        <ele>45</ele>
        <time>2013-06-02T13:08:05Z</time>
      </trkpt>
      <trkpt lat="44.75445" lon="-0.36024">
        <ele>45</ele>
        <time>2013-06-02T13:08:13Z</time>
      </trkpt>
      <trkpt lat="44.75433" lon="-0.3606">
        <ele>45</ele>
        <time>2013-06-02T13:08:21Z</time>
      </trkpt>
      <trkpt lat="44.75416" lon="-0.36106">
        <ele>45</ele>
        <time>2013-06-02T13:08:31Z</time>
      </trkpt>
      <trkpt lat="44.75396" lon="-0.36137">
        <ele>45</ele>
        <time>2013-06-02T13:08:38Z</time>
      </trkpt>
      <trkpt lat="44.75384" lon="-0.36157">
        <ele>45</ele>
        <time>2013-06-02T13:08:44Z</time>
      </trkpt>
      <trkpt lat="44.7538" lon="-0.36163">
        <ele>45</ele>
        <time>2013-06-02T13:08:50Z</time>
      </trkpt>
      <trkpt lat="44.75372" lon="-0.36177">
        <ele>45</ele>
        <time>2013-06-02T13:08:55Z</time>
      </trkpt>
      <trkpt lat="44.75355" lon="-0.36204">
        <ele>45</ele>
        <time>2013-06-02T13:09:02Z</time>
      </trkpt>
      <trkpt lat="44.75335" lon="-0.36238">
        <ele>45</ele>
        <time>2013-06-02T13:09:11Z</time>
      </trkpt>
      <trkpt lat="44.75317" lon="-0.36256">
        <ele>44</ele>
        <time>2013-06-02T13:09:18Z</time>
      </trkpt>
      <trkpt lat="44.75297" lon="-0.36267">
        <ele>44</ele>
        <time>2013-06-02T13:09:24Z</time>
      </trkpt>
      <trkpt lat="44.75278" lon="-0.3627">
        <ele>45</ele>
        <time>2013-06-02T13:09:31Z</time>
      </trkpt>
      <trkpt lat="44.75257" lon="-0.36276">
        <ele>45</ele>
        <time>2013-06-02T13:09:39Z</time>
      </trkpt>
      <trkpt lat="44.75252" lon="-0.36277">
        <ele>45</ele>
        <time>2013-06-02T13:09:46Z</time>
      </trkpt>
      <trkpt lat="44.75244" lon="-0.36278">
        <ele>45</ele>
        <time>2013-06-02T13:09:55Z</time>
      </trkpt>
      <trkpt lat="44.75244" lon="-0.36262">
        <ele>46</ele>
        <time>2013-06-02T13:10:04Z</time>
      </trkpt>
      <trkpt lat="44.75251" lon="-0.36251">
        <ele>46</ele>
        <time>2013-06-02T13:10:13Z</time>
      </trkpt>
      <trkpt lat="44.7526" lon="-0.36231">
        <ele>47</ele>
        <time>2013-06-02T13:10:22Z</time>
      </trkpt>
      <trkpt lat="44.7527" lon="-0.36213">
        <ele>48</ele>
        <time>2013-06-02T13:10:31Z</time>
      </trkpt>
      <trkpt lat="44.75277" lon="-0.36196">
        <ele>48</ele>
        <time>2013-06-02T13:10:38Z</time>
      </trkpt>
      <trkpt lat="44.75292" lon="-0.36167">
        <ele>49</ele>
        <time>2013-06-02T13:10:48Z</time>
      </trkpt>
      <trkpt lat="44.75305" lon="-0.36151">
        <ele>48</ele>
        <time>2013-06-02T13:10:56Z</time>
      </trkpt>
      <trkpt lat="44.75314" lon="-0.36138">
        <ele>48</ele>
        <time>2013-06-02T13:11:05Z</time>
      </trkpt>
      <trkpt lat="44.75323" lon="-0.36122">
        <ele>48</ele>
        <time>2013-06-02T13:11:14Z</time>
      </trkpt>
      <trkpt lat="44.75326" lon="-0.36105">
        <ele>50</ele>
        <time>2013-06-02T13:11:23Z</time>
      </trkpt>
      <trkpt lat="44.7532" lon="-0.36087">
        <ele>52</ele>
        <time>2013-06-02T13:11:36Z</time>
      </trkpt>
      <trkpt lat="44.75316" lon="-0.36077">
        <ele>53</ele>
        <time>2013-06-02T13:11:45Z</time>
      </trkpt>
      <trkpt lat="44.75308" lon="-0.36067">
        <ele>55</ele>
        <time>2013-06-02T13:11:55Z</time>
      </trkpt>
      <trkpt lat="44.75296" lon="-0.36051">
        <ele>57</ele>
        <time>2013-06-02T13:12:06Z</time>
      </trkpt>
      <trkpt lat="44.75292" lon="-0.36039">
        <ele>58</ele>
        <time>2013-06-02T13:12:14Z</time>
      </trkpt>
      <trkpt lat="44.75282" lon="-0.36032">
        <ele>60</ele>
        <time>2013-06-02T13:12:24Z</time>
      </trkpt>
      <trkpt lat="44.75272" lon="-0.36024">
        <ele>62</ele>
        <time>2013-06-02T13:12:35Z</time>
      </trkpt>
      <trkpt lat="44.75264" lon="-0.36011">
        <ele>64</ele>
        <time>2013-06-02T13:12:45Z</time>
      </trkpt>
      <trkpt lat="44.75261" lon="-0.35998">
        <ele>65</ele>
        <time>2013-06-02T13:12:54Z</time>
      </trkpt>
      <trkpt lat="44.75258" lon="-0.35992">
        <ele>66</ele>
        <time>2013-06-02T13:13:05Z</time>
      </trkpt>
      <trkpt lat="44.75258" lon="-0.35989">
        <ele>66</ele>
        <time>2013-06-02T13:13:18Z</time>
      </trkpt>
      <trkpt lat="44.75259" lon="-0.35983">
        <ele>67</ele>
        <time>2013-06-02T13:13:25Z</time>
      </trkpt>
      <trkpt lat="44.75259" lon="-0.35972">
        <ele>68</ele>
        <time>2013-06-02T13:13:34Z</time>
      </trkpt>
      <trkpt lat="44.75256" lon="-0.35958">
        <ele>69</ele>
        <time>2013-06-02T13:13:45Z</time>
      </trkpt>
      <trkpt lat="44.75256" lon="-0.35954">
        <ele>70</ele>
        <time>2013-06-02T13:13:54Z</time>
      </trkpt>
      <trkpt lat="44.75256" lon="-0.35945">
        <ele>71</ele>
        <time>2013-06-02T13:14:01Z</time>
      </trkpt>
      <trkpt lat="44.75253" lon="-0.35928">
        <ele>73</ele>
        <time>2013-06-02T13:14:10Z</time>
      </trkpt>
      <trkpt lat="44.75248" lon="-0.35915">
        <ele>75</ele>
        <time>2013-06-02T13:14:19Z</time>
      </trkpt>
      <trkpt lat="44.75247" lon="-0.35914">
        <ele>75</ele>
        <time>2013-06-02T13:14:20Z</time>
      </trkpt>
      <trkpt lat="44.75234" lon="-0.35909">
        <ele>77</ele>
        <time>2013-06-02T13:14:28Z</time>
      </trkpt>
      <trkpt lat="44.75224" lon="-0.35911">
        <ele>78</ele>
        <time>2013-06-02T13:14:36Z</time>
      </trkpt>
      <trkpt lat="44.75223" lon="-0.35912">
        <ele>78</ele>
        <time>2013-06-02T13:14:37Z</time>
      </trkpt>
      <trkpt lat="44.75219" lon="-0.35921">
        <ele>77</ele>
        <time>2013-06-02T13:14:42Z</time>
      </trkpt>
      <trkpt lat="44.75217" lon="-0.35927">
        <ele>76</ele>
        <time>2013-06-02T13:14:50Z</time>
      </trkpt>
      <trkpt lat="44.75217" lon="-0.35928">
        <ele>76</ele>
        <time>2013-06-02T13:15:04Z</time>
      </trkpt>
      <trkpt lat="44.75213" lon="-0.35934">
        <ele>76</ele>
        <time>2013-06-02T13:15:11Z</time>
      </trkpt>
      <trkpt lat="44.75204" lon="-0.35961">
        <ele>74</ele>
        <time>2013-06-02T13:15:19Z</time>
      </trkpt>
      <trkpt lat="44.75201" lon="-0.35969">
        <ele>73</ele>
        <time>2013-06-02T13:15:23Z</time>
      </trkpt>
      <trkpt lat="44.75198" lon="-0.35978">
        <ele>73</ele>
        <time>2013-06-02T13:15:31Z</time>
      </trkpt>
      <trkpt lat="44.75195" lon="-0.35978">
        <ele>73</ele>
        <time>2013-06-02T13:15:33Z</time>
      </trkpt>
      <trkpt lat="44.75175" lon="-0.35969">
        <ele>76</ele>
        <time>2013-06-02T13:15:42Z</time>
      </trkpt>
      <trkpt lat="44.75164" lon="-0.35964">
        <ele>77</ele>
        <time>2013-06-02T13:15:48Z</time>
      </trkpt>
      <trkpt lat="44.75156" lon="-0.35975">
        <ele>77</ele>
        <time>2013-06-02T13:15:55Z</time>
      </trkpt>
      <trkpt lat="44.75143" lon="-0.36012">
        <ele>75</ele>
        <time>2013-06-02T13:16:07Z</time>
      </trkpt>
      <trkpt lat="44.75139" lon="-0.36043">
        <ele>72</ele>
        <time>2013-06-02T13:16:16Z</time>
      </trkpt>
      <trkpt lat="44.75135" lon="-0.36081">
        <ele>69</ele>
        <time>2013-06-02T13:16:23Z</time>
      </trkpt>
      <trkpt lat="44.75128" lon="-0.36132">
        <ele>65</ele>
        <time>2013-06-02T13:16:29Z</time>
      </trkpt>
      <trkpt lat="44.75114" lon="-0.36197">
        <ele>63</ele>
        <time>2013-06-02T13:16:37Z</time>
      </trkpt>
      <trkpt lat="44.75105" lon="-0.3624">
        <ele>62</ele>
        <time>2013-06-02T13:16:43Z</time>
      </trkpt>
      <trkpt lat="44.75098" lon="-0.36272">
        <ele>61</ele>
        <time>2013-06-02T13:16:50Z</time>
      </trkpt>
      <trkpt lat="44.75088" lon="-0.36304">
        <ele>60</ele>
        <time>2013-06-02T13:16:57Z</time>
      </trkpt>
      <trkpt lat="44.75077" lon="-0.36307">
        <ele>61</ele>
        <time>2013-06-02T13:17:02Z</time>
      </trkpt>
      <trkpt lat="44.75061" lon="-0.36304">
        <ele>63</ele>
        <time>2013-06-02T13:17:11Z</time>
      </trkpt>
      <trkpt lat="44.75046" lon="-0.36302">
        <ele>65</ele>
        <time>2013-06-02T13:17:20Z</time>
      </trkpt>
      <trkpt lat="44.75031" lon="-0.363">
        <ele>66</ele>
        <time>2013-06-02T13:17:29Z</time>
      </trkpt>
      <trkpt lat="44.75016" lon="-0.36294">
        <ele>66</ele>
        <time>2013-06-02T13:17:38Z</time>
      </trkpt>
      <trkpt lat="44.75001" lon="-0.36291">
        <ele>67</ele>
        <time>2013-06-02T13:17:47Z</time>
      </trkpt>
      <trkpt lat="44.74983" lon="-0.36289">
        <ele>66</ele>
        <time>2013-06-02T13:17:56Z</time>
      </trkpt>
      <trkpt lat="44.74963" lon="-0.36284">
        <ele>66</ele>
        <time>2013-06-02T13:18:03Z</time>
      </trkpt>
      <trkpt lat="44.74938" lon="-0.36273">
        <ele>65</ele>
        <time>2013-06-02T13:18:10Z</time>
      </trkpt>
      <trkpt lat="44.74933" lon="-0.36273">
        <ele>65</ele>
        <time>2013-06-02T13:18:12Z</time>
      </trkpt>
      <trkpt lat="44.74931" lon="-0.36274">
        <ele>65</ele>
        <time>2013-06-02T13:18:13Z</time>
      </trkpt>
      <trkpt lat="44.7493" lon="-0.36275">
        <ele>65</ele>
        <time>2013-06-02T13:18:14Z</time>
      </trkpt>
      <trkpt lat="44.74925" lon="-0.36285">
        <ele>65</ele>
        <time>2013-06-02T13:18:20Z</time>
      </trkpt>
      <trkpt lat="44.74924" lon="-0.36286">
        <ele>65</ele>
        <time>2013-06-02T13:18:21Z</time>
      </trkpt>
      <trkpt lat="44.74922" lon="-0.36287">
        <ele>65</ele>
        <time>2013-06-02T13:18:22Z</time>
      </trkpt>
      <trkpt lat="44.74922" lon="-0.36287">
        <ele>65</ele>
        <time>2013-06-02T13:18:28Z</time>
      </trkpt>
      <trkpt lat="44.74922" lon="-0.36287">
        <ele>65</ele>
        <time>2013-06-02T13:18:38Z</time>
      </trkpt>
      <trkpt lat="44.74923" lon="-0.36288">
        <ele>65</ele>
        <time>2013-06-02T13:18:46Z</time>
      </trkpt>
      <trkpt lat="44.74922" lon="-0.36288">
        <ele>65</ele>
        <time>2013-06-02T13:19:00Z</time>
      </trkpt>
      <trkpt lat="44.74921" lon="-0.36288">
        <ele>65</ele>
        <time>2013-06-02T13:19:09Z</time>
      </trkpt>
      <trkpt lat="44.7492" lon="-0.36287">
        <ele>65</ele>
        <time>2013-06-02T13:19:10Z</time>
      </trkpt>
      <trkpt lat="44.74919" lon="-0.36285">
        <ele>65</ele>
        <time>2013-06-02T13:19:11Z</time>
      </trkpt>
      <trkpt lat="44.74918" lon="-0.36282">
        <ele>65</ele>
        <time>2013-06-02T13:19:12Z</time>
      </trkpt>
      <trkpt lat="44.74917" lon="-0.36279">
        <ele>65</ele>
        <time>2013-06-02T13:19:13Z</time>
      </trkpt>
      <trkpt lat="44.7491" lon="-0.36251">
        <ele>64</ele>
        <time>2013-06-02T13:19:18Z</time>
      </trkpt>
      <trkpt lat="44.74894" lon="-0.36189">
        <ele>61</ele>
        <time>2013-06-02T13:19:27Z</time>
      </trkpt>
      <trkpt lat="44.74891" lon="-0.36183">
        <ele>61</ele>
        <time>2013-06-02T13:19:28Z</time>
      </trkpt>
      <trkpt lat="44.74866" lon="-0.36135">
        <ele>59</ele>
        <time>2013-06-02T13:19:35Z</time>
      </trkpt>
      <trkpt lat="44.74863" lon="-0.36125">
        <ele>59</ele>
        <time>2013-06-02T13:19:36Z</time>
      </trkpt>
      <trkpt lat="44.7486" lon="-0.36116">
        <ele>59</ele>
        <time>2013-06-02T13:19:37Z</time>
      </trkpt>
      <trkpt lat="44.74858" lon="-0.36106">
        <ele>58</ele>
        <time>2013-06-02T13:19:38Z</time>
      </trkpt>
      <trkpt lat="44.74856" lon="-0.36097">
        <ele>58</ele>
        <time>2013-06-02T13:19:39Z</time>
      </trkpt>
      <trkpt lat="44.74851" lon="-0.36072">
        <ele>57</ele>
        <time>2013-06-02T13:19:43Z</time>
      </trkpt>
      <trkpt lat="44.74845" lon="-0.36056">
        <ele>56</ele>
        <time>2013-06-02T13:19:50Z</time>
      </trkpt>
      <trkpt lat="44.74844" lon="-0.36043">
        <ele>56</ele>
        <time>2013-06-02T13:19:58Z</time>
      </trkpt>
      <trkpt lat="44.74845" lon="-0.3604">
        <ele>56</ele>
        <time>2013-06-02T13:19:59Z</time>
      </trkpt>
      <trkpt lat="44.74845" lon="-0.36033">
        <ele>56</ele>
        <time>2013-06-02T13:20:03Z</time>
      </trkpt>
      <trkpt lat="44.74844" lon="-0.36032">
        <ele>56</ele>
        <time>2013-06-02T13:20:04Z</time>
      </trkpt>
      <trkpt lat="44.74843" lon="-0.36031">
        <ele>56</ele>
        <time>2013-06-02T13:20:05Z</time>
      </trkpt>
      <trkpt lat="44.74836" lon="-0.36027">
        <ele>55</ele>
        <time>2013-06-02T13:20:11Z</time>
      </trkpt>
      <trkpt lat="44.74837" lon="-0.36022">
        <ele>55</ele>
        <time>2013-06-02T13:20:14Z</time>
      </trkpt>
      <trkpt lat="44.74838" lon="-0.3602">
        <ele>55</ele>
        <time>2013-06-02T13:20:15Z</time>
      </trkpt>
      <trkpt lat="44.7484" lon="-0.36003">
        <ele>55</ele>
        <time>2013-06-02T13:20:22Z</time>
      </trkpt>
      <trkpt lat="44.74841" lon="-0.35986">
        <ele>55</ele>
        <time>2013-06-02T13:20:30Z</time>
      </trkpt>
      <trkpt lat="44.7484" lon="-0.35971">
        <ele>56</ele>
        <time>2013-06-02T13:20:38Z</time>
      </trkpt>
      <trkpt lat="44.74841" lon="-0.35953">
        <ele>56</ele>
        <time>2013-06-02T13:20:49Z</time>
      </trkpt>
      <trkpt lat="44.7484" lon="-0.35923">
        <ele>58</ele>
        <time>2013-06-02T13:20:58Z</time>
      </trkpt>
      <trkpt lat="44.74834" lon="-0.35914">
        <ele>59</ele>
        <time>2013-06-02T13:21:08Z</time>
      </trkpt>
      <trkpt lat="44.74827" lon="-0.35914">
        <ele>60</ele>
        <time>2013-06-02T13:21:13Z</time>
      </trkpt>
      <trkpt lat="44.74815" lon="-0.35911">
        <ele>61</ele>
        <time>2013-06-02T13:21:24Z</time>
      </trkpt>
      <trkpt lat="44.748" lon="-0.35906">
        <ele>62</ele>
        <time>2013-06-02T13:21:34Z</time>
      </trkpt>
      <trkpt lat="44.74791" lon="-0.35899">
        <ele>64</ele>
        <time>2013-06-02T13:21:40Z</time>
      </trkpt>
      <trkpt lat="44.74786" lon="-0.3588">
        <ele>66</ele>
        <time>2013-06-02T13:21:48Z</time>
      </trkpt>
      <trkpt lat="44.7479" lon="-0.35864">
        <ele>67</ele>
        <time>2013-06-02T13:21:57Z</time>
      </trkpt>
      <trkpt lat="44.748" lon="-0.35863">
        <ele>67</ele>
        <time>2013-06-02T13:22:06Z</time>
      </trkpt>
      <trkpt lat="44.748" lon="-0.35859">
        <ele>67</ele>
        <time>2013-06-02T13:22:18Z</time>
      </trkpt>
      <trkpt lat="44.74799" lon="-0.35856">
        <ele>67</ele>
        <time>2013-06-02T13:22:20Z</time>
      </trkpt>
      <trkpt lat="44.74789" lon="-0.35847">
        <ele>68</ele>
        <time>2013-06-02T13:22:28Z</time>
      </trkpt>
      <trkpt lat="44.74787" lon="-0.35847">
        <ele>68</ele>
        <time>2013-06-02T13:22:30Z</time>
      </trkpt>
      <trkpt lat="44.74781" lon="-0.35849">
        <ele>69</ele>
        <time>2013-06-02T13:22:34Z</time>
      </trkpt>
      <trkpt lat="44.74778" lon="-0.35849">
        <ele>69</ele>
        <time>2013-06-02T13:22:36Z</time>
      </trkpt>
      <trkpt lat="44.74765" lon="-0.35844">
        <ele>68</ele>
        <time>2013-06-02T13:22:46Z</time>
      </trkpt>
      <trkpt lat="44.74755" lon="-0.35841">
        <ele>68</ele>
        <time>2013-06-02T13:22:53Z</time>
      </trkpt>
      <trkpt lat="44.74749" lon="-0.35829">
        <ele>68</ele>
        <time>2013-06-02T13:23:00Z</time>
      </trkpt>
      <trkpt lat="44.74749" lon="-0.35819">
        <ele>69</ele>
        <time>2013-06-02T13:23:05Z</time>
      </trkpt>
      <trkpt lat="44.74751" lon="-0.358">
        <ele>70</ele>
        <time>2013-06-02T13:23:14Z</time>
      </trkpt>
      <trkpt lat="44.74757" lon="-0.35797">
        <ele>70</ele>
        <time>2013-06-02T13:23:23Z</time>
      </trkpt>
      <trkpt lat="44.74758" lon="-0.35797">
        <ele>70</ele>
        <time>2013-06-02T13:23:34Z</time>
      </trkpt>
      <trkpt lat="44.74758" lon="-0.35797">
        <ele>70</ele>
        <time>2013-06-02T13:23:52Z</time>
      </trkpt>
      <trkpt lat="44.74758" lon="-0.35798">
        <ele>70</ele>
        <time>2013-06-02T13:24:08Z</time>
      </trkpt>
      <trkpt lat="44.7476" lon="-0.35799">
        <ele>70</ele>
        <time>2013-06-02T13:24:22Z</time>
      </trkpt>
      <trkpt lat="44.7476" lon="-0.358">
        <ele>70</ele>
        <time>2013-06-02T13:24:42Z</time>
      </trkpt>
      <trkpt lat="44.7476" lon="-0.35801">
        <ele>70</ele>
        <time>2013-06-02T13:24:55Z</time>
      </trkpt>
      <trkpt lat="44.74761" lon="-0.35801">
        <ele>70</ele>
        <time>2013-06-02T13:25:13Z</time>
      </trkpt>
      <trkpt lat="44.74761" lon="-0.35802">
        <ele>70</ele>
        <time>2013-06-02T13:25:34Z</time>
      </trkpt>
      <trkpt lat="44.7476" lon="-0.35802">
        <ele>70</ele>
        <time>2013-06-02T13:25:48Z</time>
      </trkpt>
      <trkpt lat="44.7476" lon="-0.35802">
        <ele>70</ele>
        <time>2013-06-02T13:25:49Z</time>
      </trkpt>
      <trkpt lat="44.74767" lon="-0.3579">
        <ele>70</ele>
        <time>2013-06-02T13:25:57Z</time>
      </trkpt>
      <trkpt lat="44.74776" lon="-0.3577">
        <ele>70</ele>
        <time>2013-06-02T13:26:05Z</time>
      </trkpt>
      <trkpt lat="44.74788" lon="-0.35756">
        <ele>70</ele>
        <time>2013-06-02T13:26:14Z</time>
      </trkpt>
      <trkpt lat="44.74802" lon="-0.35753">
        <ele>69</ele>
        <time>2013-06-02T13:26:22Z</time>
      </trkpt>
      <trkpt lat="44.74812" lon="-0.35747">
        <ele>68</ele>
        <time>2013-06-02T13:26:30Z</time>
      </trkpt>
      <trkpt lat="44.7483" lon="-0.35743">
        <ele>67</ele>
        <time>2013-06-02T13:26:38Z</time>
      </trkpt>
      <trkpt lat="44.74842" lon="-0.35718">
        <ele>67</ele>
        <time>2013-06-02T13:26:48Z</time>
      </trkpt>
      <trkpt lat="44.74843" lon="-0.35708">
        <ele>67</ele>
        <time>2013-06-02T13:26:52Z</time>
      </trkpt>
      <trkpt lat="44.74851" lon="-0.35687">
        <ele>67</ele>
        <time>2013-06-02T13:27:01Z</time>
      </trkpt>
      <trkpt lat="44.74854" lon="-0.35677">
        <ele>67</ele>
        <time>2013-06-02T13:27:05Z</time>
      </trkpt>
      <trkpt lat="44.7486" lon="-0.3567">
        <ele>67</ele>
        <time>2013-06-02T13:27:09Z</time>
      </trkpt>
      <trkpt lat="44.74866" lon="-0.35656">
        <ele>66</ele>
        <time>2013-06-02T13:27:16Z</time>
      </trkpt>
      <trkpt lat="44.74873" lon="-0.35618">
        <ele>65</ele>
        <time>2013-06-02T13:27:26Z</time>
      </trkpt>
      <trkpt lat="44.7488" lon="-0.35587">
        <ele>65</ele>
        <time>2013-06-02T13:27:34Z</time>
      </trkpt>
      <trkpt lat="44.7488" lon="-0.35566">
        <ele>66</ele>
        <time>2013-06-02T13:27:43Z</time>
      </trkpt>
      <trkpt lat="44.74878" lon="-0.35563">
        <ele>66</ele>
        <time>2013-06-02T13:27:44Z</time>
      </trkpt>
      <trkpt lat="44.74875" lon="-0.3555">
        <ele>67</ele>
        <time>2013-06-02T13:27:54Z</time>
      </trkpt>
      <trkpt lat="44.74874" lon="-0.3554">
        <ele>67</ele>
        <time>2013-06-02T13:28:01Z</time>
      </trkpt>
      <trkpt lat="44.74872" lon="-0.35535">
        <ele>68</ele>
        <time>2013-06-02T13:28:08Z</time>
      </trkpt>
      <trkpt lat="44.74863" lon="-0.35535">
        <ele>69</ele>
        <time>2013-06-02T13:28:16Z</time>
      </trkpt>
      <trkpt lat="44.74856" lon="-0.35536">
        <ele>70</ele>
        <time>2013-06-02T13:28:24Z</time>
      </trkpt>
      <trkpt lat="44.74841" lon="-0.3554">
        <ele>71</ele>
        <time>2013-06-02T13:28:33Z</time>
      </trkpt>
      <trkpt lat="44.74832" lon="-0.35547">
        <ele>72</ele>
        <time>2013-06-02T13:28:40Z</time>
      </trkpt>
      <trkpt lat="44.74798" lon="-0.35548">
        <ele>77</ele>
        <time>2013-06-02T13:28:48Z</time>
      </trkpt>
      <trkpt lat="44.74792" lon="-0.35551">
        <ele>78</ele>
        <time>2013-06-02T13:28:54Z</time>
      </trkpt>
      <trkpt lat="44.74789" lon="-0.35556">
        <ele>78</ele>
        <time>2013-06-02T13:29:04Z</time>
      </trkpt>
      <trkpt lat="44.74789" lon="-0.35556">
        <ele>78</ele>
        <time>2013-06-02T13:29:16Z</time>
      </trkpt>
      <trkpt lat="44.74789" lon="-0.35558">
        <ele>78</ele>
        <time>2013-06-02T13:29:24Z</time>
      </trkpt>
      <trkpt lat="44.74789" lon="-0.35559">
        <ele>78</ele>
        <time>2013-06-02T13:29:42Z</time>
      </trkpt>
      <trkpt lat="44.74788" lon="-0.35559">
        <ele>78</ele>
        <time>2013-06-02T13:30:03Z</time>
      </trkpt>
      <trkpt lat="44.74788" lon="-0.35559">
        <ele>78</ele>
        <time>2013-06-02T13:30:26Z</time>
      </trkpt>
      <trkpt lat="44.74789" lon="-0.35559">
        <ele>78</ele>
        <time>2013-06-02T13:30:41Z</time>
      </trkpt>
      <trkpt lat="44.74788" lon="-0.35556">
        <ele>78</ele>
        <time>2013-06-02T13:30:51Z</time>
      </trkpt>
      <trkpt lat="44.74788" lon="-0.35556">
        <ele>78</ele>
        <time>2013-06-02T13:31:04Z</time>
      </trkpt>
      <trkpt lat="44.74788" lon="-0.35556">
        <ele>78</ele>
        <time>2013-06-02T13:31:17Z</time>
      </trkpt>
      <trkpt lat="44.74787" lon="-0.35556">
        <ele>79</ele>
        <time>2013-06-02T13:31:31Z</time>
      </trkpt>
      <trkpt lat="44.74787" lon="-0.35556">
        <ele>78</ele>
        <time>2013-06-02T13:31:44Z</time>
      </trkpt>
      <trkpt lat="44.74786" lon="-0.35557">
        <ele>79</ele>
        <time>2013-06-02T13:31:58Z</time>
      </trkpt>
      <trkpt lat="44.74782" lon="-0.35557">
        <ele>79</ele>
        <time>2013-06-02T13:32:08Z</time>
      </trkpt>
      <trkpt lat="44.74777" lon="-0.3555">
        <ele>80</ele>
        <time>2013-06-02T13:32:17Z</time>
      </trkpt>
      <trkpt lat="44.74773" lon="-0.35544">
        <ele>81</ele>
        <time>2013-06-02T13:32:23Z</time>
      </trkpt>
      <trkpt lat="44.74761" lon="-0.35538">
        <ele>83</ele>
        <time>2013-06-02T13:32:35Z</time>
      </trkpt>
      <trkpt lat="44.74756" lon="-0.35542">
        <ele>84</ele>
        <time>2013-06-02T13:32:43Z</time>
      </trkpt>
      <trkpt lat="44.74757" lon="-0.35541">
        <ele>84</ele>
        <time>2013-06-02T13:32:51Z</time>
      </trkpt>
      <trkpt lat="44.74757" lon="-0.35541">
        <ele>84</ele>
        <time>2013-06-02T13:33:02Z</time>
      </trkpt>
      <trkpt lat="44.74757" lon="-0.35541">
        <ele>84</ele>
        <time>2013-06-02T13:33:17Z</time>
      </trkpt>
      <trkpt lat="44.74755" lon="-0.35542">
        <ele>84</ele>
        <time>2013-06-02T13:33:23Z</time>
      </trkpt>
      <trkpt lat="44.74746" lon="-0.35557">
        <ele>84</ele>
        <time>2013-06-02T13:33:31Z</time>
      </trkpt>
      <trkpt lat="44.74737" lon="-0.35574">
        <ele>85</ele>
        <time>2013-06-02T13:33:39Z</time>
      </trkpt>
      <trkpt lat="44.74727" lon="-0.3559">
        <ele>85</ele>
        <time>2013-06-02T13:33:47Z</time>
      </trkpt>
      <trkpt lat="44.74714" lon="-0.35612">
        <ele>84</ele>
        <time>2013-06-02T13:33:58Z</time>
      </trkpt>
      <trkpt lat="44.74703" lon="-0.35634">
        <ele>82</ele>
        <time>2013-06-02T13:34:07Z</time>
      </trkpt>
      <trkpt lat="44.74687" lon="-0.35661">
        <ele>80</ele>
        <time>2013-06-02T13:34:14Z</time>
      </trkpt>
      <trkpt lat="44.74674" lon="-0.3568">
        <ele>78</ele>
        <time>2013-06-02T13:34:22Z</time>
      </trkpt>
      <trkpt lat="44.74666" lon="-0.35697">
        <ele>77</ele>
        <time>2013-06-02T13:34:29Z</time>
      </trkpt>
      <trkpt lat="44.74651" lon="-0.35729">
        <ele>74</ele>
        <time>2013-06-02T13:34:38Z</time>
      </trkpt>
      <trkpt lat="44.74626" lon="-0.35787">
        <ele>70</ele>
        <time>2013-06-02T13:34:50Z</time>
      </trkpt>
      <trkpt lat="44.74613" lon="-0.35813">
        <ele>67</ele>
        <time>2013-06-02T13:34:56Z</time>
      </trkpt>
      <trkpt lat="44.74604" lon="-0.35809">
        <ele>68</ele>
        <time>2013-06-02T13:35:00Z</time>
      </trkpt>
      <trkpt lat="44.74587" lon="-0.35795">
        <ele>68</ele>
        <time>2013-06-02T13:35:08Z</time>
      </trkpt>
      <trkpt lat="44.74569" lon="-0.35782">
        <ele>67</ele>
        <time>2013-06-02T13:35:15Z</time>
      </trkpt>
      <trkpt lat="44.74542" lon="-0.35765">
        <ele>67</ele>
        <time>2013-06-02T13:35:24Z</time>
      </trkpt>
      <trkpt lat="44.74525" lon="-0.35754">
        <ele>68</ele>
        <time>2013-06-02T13:35:32Z</time>
      </trkpt>
      <trkpt lat="44.74507" lon="-0.35743">
        <ele>68</ele>
        <time>2013-06-02T13:35:42Z</time>
      </trkpt>
      <trkpt lat="44.7449" lon="-0.3573">
        <ele>69</ele>
        <time>2013-06-02T13:35:52Z</time>
      </trkpt>
      <trkpt lat="44.74473" lon="-0.35721">
        <ele>70</ele>
        <time>2013-06-02T13:36:02Z</time>
      </trkpt>
      <trkpt lat="44.74462" lon="-0.35712">
        <ele>70</ele>
        <time>2013-06-02T13:36:10Z</time>
      </trkpt>
      <trkpt lat="44.74454" lon="-0.35707">
        <ele>70</ele>
        <time>2013-06-02T13:36:17Z</time>
      </trkpt>
      <trkpt lat="44.7444" lon="-0.35712">
        <ele>70</ele>
        <time>2013-06-02T13:36:25Z</time>
      </trkpt>
      <trkpt lat="44.74437" lon="-0.35713">
        <ele>69</ele>
        <time>2013-06-02T13:36:26Z</time>
      </trkpt>
      <trkpt lat="44.74427" lon="-0.35709">
        <ele>69</ele>
        <time>2013-06-02T13:36:31Z</time>
      </trkpt>
      <trkpt lat="44.74423" lon="-0.35705">
        <ele>69</ele>
        <time>2013-06-02T13:36:40Z</time>
      </trkpt>
      <trkpt lat="44.7442" lon="-0.35707">
        <ele>69</ele>
        <time>2013-06-02T13:36:50Z</time>
      </trkpt>
      <trkpt lat="44.7442" lon="-0.35708">
        <ele>69</ele>
        <time>2013-06-02T13:36:52Z</time>
      </trkpt>
      <trkpt lat="44.74414" lon="-0.35715">
        <ele>70</ele>
        <time>2013-06-02T13:37:02Z</time>
      </trkpt>
      <trkpt lat="44.74413" lon="-0.35715">
        <ele>70</ele>
        <time>2013-06-02T13:37:13Z</time>
      </trkpt>
      <trkpt lat="44.74412" lon="-0.35713">
        <ele>70</ele>
        <time>2013-06-02T13:37:30Z</time>
      </trkpt>
      <trkpt lat="44.74414" lon="-0.35714">
        <ele>70</ele>
        <time>2013-06-02T13:37:50Z</time>
      </trkpt>
      <trkpt lat="44.74415" lon="-0.35714">
        <ele>70</ele>
        <time>2013-06-02T13:38:07Z</time>
      </trkpt>
      <trkpt lat="44.74415" lon="-0.35714">
        <ele>69</ele>
        <time>2013-06-02T13:38:24Z</time>
      </trkpt>
      <trkpt lat="44.74415" lon="-0.35715">
        <ele>70</ele>
        <time>2013-06-02T13:38:43Z</time>
      </trkpt>
      <trkpt lat="44.74415" lon="-0.35716">
        <ele>70</ele>
        <time>2013-06-02T13:39:01Z</time>
      </trkpt>
      <trkpt lat="44.74415" lon="-0.35716">
        <ele>70</ele>
        <time>2013-06-02T13:39:13Z</time>
      </trkpt>
      <trkpt lat="44.74414" lon="-0.35717">
        <ele>70</ele>
        <time>2013-06-02T13:39:24Z</time>
      </trkpt>
      <trkpt lat="44.74412" lon="-0.35715">
        <ele>70</ele>
        <time>2013-06-02T13:39:36Z</time>
      </trkpt>
      <trkpt lat="44.74409" lon="-0.3571">
        <ele>70</ele>
        <time>2013-06-02T13:39:45Z</time>
      </trkpt>
      <trkpt lat="44.74406" lon="-0.35705">
        <ele>70</ele>
        <time>2013-06-02T13:39:53Z</time>
      </trkpt>
      <trkpt lat="44.74403" lon="-0.35705">
        <ele>70</ele>
        <time>2013-06-02T13:40:03Z</time>
      </trkpt>
      <trkpt lat="44.74402" lon="-0.35705">
        <ele>70</ele>
        <time>2013-06-02T13:40:14Z</time>
      </trkpt>
      <trkpt lat="44.74396" lon="-0.35708">
        <ele>70</ele>
        <time>2013-06-02T13:40:24Z</time>
      </trkpt>
      <trkpt lat="44.7439" lon="-0.35706">
        <ele>71</ele>
        <time>2013-06-02T13:40:39Z</time>
      </trkpt>
      <trkpt lat="44.74384" lon="-0.35702">
        <ele>71</ele>
        <time>2013-06-02T13:40:45Z</time>
      </trkpt>
      <trkpt lat="44.7437" lon="-0.35693">
        <ele>72</ele>
        <time>2013-06-02T13:40:56Z</time>
      </trkpt>
      <trkpt lat="44.74366" lon="-0.35694">
        <ele>73</ele>
        <time>2013-06-02T13:40:59Z</time>
      </trkpt>
      <trkpt lat="44.74356" lon="-0.35705">
        <ele>74</ele>
        <time>2013-06-02T13:41:08Z</time>
      </trkpt>
      <trkpt lat="44.74346" lon="-0.35719">
        <ele>76</ele>
        <time>2013-06-02T13:41:17Z</time>
      </trkpt>
      <trkpt lat="44.74334" lon="-0.35725">
        <ele>78</ele>
        <time>2013-06-02T13:41:25Z</time>
      </trkpt>
      <trkpt lat="44.74328" lon="-0.35728">
        <ele>79</ele>
        <time>2013-06-02T13:41:28Z</time>
      </trkpt>
      <trkpt lat="44.7432" lon="-0.3574">
        <ele>80</ele>
        <time>2013-06-02T13:41:35Z</time>
      </trkpt>
      <trkpt lat="44.74318" lon="-0.35741">
        <ele>81</ele>
        <time>2013-06-02T13:41:37Z</time>
      </trkpt>
      <trkpt lat="44.74309" lon="-0.35742">
        <ele>82</ele>
        <time>2013-06-02T13:41:44Z</time>
      </trkpt>
      <trkpt lat="44.74305" lon="-0.35745">
        <ele>83</ele>
        <time>2013-06-02T13:41:50Z</time>
      </trkpt>
      <trkpt lat="44.74304" lon="-0.35747">
        <ele>83</ele>
        <time>2013-06-02T13:42:03Z</time>
      </trkpt>
      <trkpt lat="44.74304" lon="-0.35747">
        <ele>83</ele>
        <time>2013-06-02T13:42:15Z</time>
      </trkpt>
      <trkpt lat="44.74305" lon="-0.35746">
        <ele>83</ele>
        <time>2013-06-02T13:42:28Z</time>
      </trkpt>
      <trkpt lat="44.74305" lon="-0.35747">
        <ele>83</ele>
        <time>2013-06-02T13:42:35Z</time>
      </trkpt>
      <trkpt lat="44.74305" lon="-0.35746">
        <ele>83</ele>
        <time>2013-06-02T13:42:48Z</time>
      </trkpt>
      <trkpt lat="44.74305" lon="-0.35746">
        <ele>83</ele>
        <time>2013-06-02T13:43:05Z</time>
      </trkpt>
      <trkpt lat="44.74304" lon="-0.35747">
        <ele>83</ele>
        <time>2013-06-02T13:43:15Z</time>
      </trkpt>
      <trkpt lat="44.74302" lon="-0.35751">
        <ele>84</ele>
        <time>2013-06-02T13:43:26Z</time>
      </trkpt>
      <trkpt lat="44.74295" lon="-0.35767">
        <ele>85</ele>
        <time>2013-06-02T13:43:33Z</time>
      </trkpt>
      <trkpt lat="44.74286" lon="-0.35783">
        <ele>87</ele>
        <time>2013-06-02T13:43:43Z</time>
      </trkpt>
      <trkpt lat="44.74281" lon="-0.35797">
        <ele>88</ele>
        <time>2013-06-02T13:43:51Z</time>
      </trkpt>
      <trkpt lat="44.74271" lon="-0.35819">
        <ele>89</ele>
        <time>2013-06-02T13:44:01Z</time>
      </trkpt>
      <trkpt lat="44.74259" lon="-0.35844">
        <ele>90</ele>
        <time>2013-06-02T13:44:11Z</time>
      </trkpt>
      <trkpt lat="44.74246" lon="-0.35871">
        <ele>92</ele>
        <time>2013-06-02T13:44:23Z</time>
      </trkpt>
      <trkpt lat="44.74241" lon="-0.35883">
        <ele>93</ele>
        <time>2013-06-02T13:44:29Z</time>
      </trkpt>
      <trkpt lat="44.74245" lon="-0.35894">
        <ele>94</ele>
        <time>2013-06-02T13:44:34Z</time>
      </trkpt>
      <trkpt lat="44.74257" lon="-0.3591">
        <ele>94</ele>
        <time>2013-06-02T13:44:42Z</time>
      </trkpt>
      <trkpt lat="44.74276" lon="-0.35931">
        <ele>94</ele>
        <time>2013-06-02T13:44:53Z</time>
      </trkpt>
      <trkpt lat="44.74293" lon="-0.35953">
        <ele>94</ele>
        <time>2013-06-02T13:45:03Z</time>
      </trkpt>
      <trkpt lat="44.74303" lon="-0.3595">
        <ele>94</ele>
        <time>2013-06-02T13:45:08Z</time>
      </trkpt>
      <trkpt lat="44.74311" lon="-0.35938">
        <ele>92</ele>
        <time>2013-06-02T13:45:14Z</time>
      </trkpt>
      <trkpt lat="44.74309" lon="-0.3594">
        <ele>93</ele>
        <time>2013-06-02T13:45:21Z</time>
      </trkpt>
      <trkpt lat="44.74308" lon="-0.35941">
        <ele>93</ele>
        <time>2013-06-02T13:45:28Z</time>
      </trkpt>
      <trkpt lat="44.74304" lon="-0.35947">
        <ele>93</ele>
        <time>2013-06-02T13:45:32Z</time>
      </trkpt>
      <trkpt lat="44.743" lon="-0.3596">
        <ele>94</ele>
        <time>2013-06-02T13:45:39Z</time>
      </trkpt>
      <trkpt lat="44.74304" lon="-0.35969">
        <ele>94</ele>
        <time>2013-06-02T13:45:44Z</time>
      </trkpt>
      <trkpt lat="44.74314" lon="-0.35985">
        <ele>95</ele>
        <time>2013-06-02T13:45:51Z</time>
      </trkpt>
      <trkpt lat="44.7431" lon="-0.35998">
        <ele>96</ele>
        <time>2013-06-02T13:45:57Z</time>
      </trkpt>
      <trkpt lat="44.74292" lon="-0.36018">
        <ele>97</ele>
        <time>2013-06-02T13:46:07Z</time>
      </trkpt>
      <trkpt lat="44.74271" lon="-0.36043">
        <ele>98</ele>
        <time>2013-06-02T13:46:16Z</time>
      </trkpt>
      <trkpt lat="44.74252" lon="-0.36061">
        <ele>98</ele>
        <time>2013-06-02T13:46:24Z</time>
      </trkpt>
      <trkpt lat="44.74232" lon="-0.3608">
        <ele>99</ele>
        <time>2013-06-02T13:46:34Z</time>
      </trkpt>
      <trkpt lat="44.74219" lon="-0.36091">
        <ele>99</ele>
        <time>2013-06-02T13:46:42Z</time>
      </trkpt>
      <trkpt lat="44.74209" lon="-0.36084">
        <ele>100</ele>
        <time>2013-06-02T13:46:48Z</time>
      </trkpt>
      <trkpt lat="44.74194" lon="-0.36066">
        <ele>101</ele>
        <time>2013-06-02T13:46:57Z</time>
      </trkpt>
      <trkpt lat="44.74175" lon="-0.36045">
        <ele>100</ele>
        <time>2013-06-02T13:47:08Z</time>
      </trkpt>
      <trkpt lat="44.74163" lon="-0.36033">
        <ele>100</ele>
        <time>2013-06-02T13:47:16Z</time>
      </trkpt>
      <trkpt lat="44.74154" lon="-0.3604">
        <ele>100</ele>
        <time>2013-06-02T13:47:21Z</time>
      </trkpt>
      <trkpt lat="44.74144" lon="-0.36059">
        <ele>100</ele>
        <time>2013-06-02T13:47:29Z</time>
      </trkpt>
      <trkpt lat="44.74142" lon="-0.36064">
        <ele>100</ele>
        <time>2013-06-02T13:47:31Z</time>
      </trkpt>
      <trkpt lat="44.74147" lon="-0.36074">
        <ele>100</ele>
        <time>2013-06-02T13:47:35Z</time>
      </trkpt>
      <trkpt lat="44.7416" lon="-0.36098">
        <ele>100</ele>
        <time>2013-06-02T13:47:45Z</time>
      </trkpt>
      <trkpt lat="44.74165" lon="-0.36116">
        <ele>100</ele>
        <time>2013-06-02T13:47:51Z</time>
      </trkpt>
      <trkpt lat="44.74151" lon="-0.36145">
        <ele>100</ele>
        <time>2013-06-02T13:48:00Z</time>
      </trkpt>
      <trkpt lat="44.74144" lon="-0.36161">
        <ele>99</ele>
        <time>2013-06-02T13:48:05Z</time>
      </trkpt>
      <trkpt lat="44.74151" lon="-0.3617">
        <ele>99</ele>
        <time>2013-06-02T13:48:10Z</time>
      </trkpt>
      <trkpt lat="44.74155" lon="-0.36178">
        <ele>99</ele>
        <time>2013-06-02T13:48:13Z</time>
      </trkpt>
      <trkpt lat="44.74152" lon="-0.36185">
        <ele>98</ele>
        <time>2013-06-02T13:48:15Z</time>
      </trkpt>
      <trkpt lat="44.74137" lon="-0.36219">
        <ele>98</ele>
        <time>2013-06-02T13:48:25Z</time>
      </trkpt>
      <trkpt lat="44.74125" lon="-0.36259">
        <ele>97</ele>
        <time>2013-06-02T13:48:35Z</time>
      </trkpt>
      <trkpt lat="44.74118" lon="-0.36298">
        <ele>95</ele>
        <time>2013-06-02T13:48:44Z</time>
      </trkpt>
      <trkpt lat="44.74103" lon="-0.36344">
        <ele>94</ele>
        <time>2013-06-02T13:48:55Z</time>
      </trkpt>
      <trkpt lat="44.74092" lon="-0.3638">
        <ele>93</ele>
        <time>2013-06-02T13:49:03Z</time>
      </trkpt>
      <trkpt lat="44.74091" lon="-0.36384">
        <ele>92</ele>
        <time>2013-06-02T13:49:04Z</time>
      </trkpt>
      <trkpt lat="44.74073" lon="-0.3638">
        <ele>92</ele>
        <time>2013-06-02T13:49:10Z</time>
      </trkpt>
      <trkpt lat="44.74063" lon="-0.36386">
        <ele>92</ele>
        <time>2013-06-02T13:49:14Z</time>
      </trkpt>
      <trkpt lat="44.7406" lon="-0.36391">
        <ele>91</ele>
        <time>2013-06-02T13:49:15Z</time>
      </trkpt>
      <trkpt lat="44.7404" lon="-0.36433">
        <ele>88</ele>
        <time>2013-06-02T13:49:23Z</time>
      </trkpt>
      <trkpt lat="44.74026" lon="-0.36461">
        <ele>86</ele>
        <time>2013-06-02T13:49:30Z</time>
      </trkpt>
      <trkpt lat="44.74025" lon="-0.36463">
        <ele>86</ele>
        <time>2013-06-02T13:49:36Z</time>
      </trkpt>
      <trkpt lat="44.74025" lon="-0.36463">
        <ele>86</ele>
        <time>2013-06-02T13:49:39Z</time>
      </trkpt>
      <trkpt lat="44.74038" lon="-0.36474">
        <ele>85</ele>
        <time>2013-06-02T13:49:46Z</time>
      </trkpt>
      <trkpt lat="44.74047" lon="-0.36482">
        <ele>85</ele>
        <time>2013-06-02T13:49:52Z</time>
      </trkpt>
      <trkpt lat="44.74048" lon="-0.36482">
        <ele>85</ele>
        <time>2013-06-02T13:50:00Z</time>
      </trkpt>
      <trkpt lat="44.74048" lon="-0.36481">
        <ele>85</ele>
        <time>2013-06-02T13:50:04Z</time>
      </trkpt>
      <trkpt lat="44.74035" lon="-0.36472">
        <ele>86</ele>
        <time>2013-06-02T13:50:12Z</time>
      </trkpt>
      <trkpt lat="44.74034" lon="-0.3647">
        <ele>86</ele>
        <time>2013-06-02T13:50:13Z</time>
      </trkpt>
      <trkpt lat="44.7402" lon="-0.36461">
        <ele>87</ele>
        <time>2013-06-02T13:50:19Z</time>
      </trkpt>
      <trkpt lat="44.74017" lon="-0.36473">
        <ele>86</ele>
        <time>2013-06-02T13:50:25Z</time>
      </trkpt>
      <trkpt lat="44.74018" lon="-0.36475">
        <ele>86</ele>
        <time>2013-06-02T13:50:26Z</time>
      </trkpt>
      <trkpt lat="44.74031" lon="-0.36499">
        <ele>84</ele>
        <time>2013-06-02T13:50:35Z</time>
      </trkpt>
      <trkpt lat="44.74037" lon="-0.36537">
        <ele>82</ele>
        <time>2013-06-02T13:50:43Z</time>
      </trkpt>
      <trkpt lat="44.74041" lon="-0.36577">
        <ele>80</ele>
        <time>2013-06-02T13:50:51Z</time>
      </trkpt>
      <trkpt lat="44.74039" lon="-0.36587">
        <ele>80</ele>
        <time>2013-06-02T13:50:53Z</time>
      </trkpt>
      <trkpt lat="44.74027" lon="-0.36639">
        <ele>81</ele>
        <time>2013-06-02T13:51:02Z</time>
      </trkpt>
      <trkpt lat="44.74025" lon="-0.36664">
        <ele>81</ele>
        <time>2013-06-02T13:51:06Z</time>
      </trkpt>
      <trkpt lat="44.74015" lon="-0.36692">
        <ele>82</ele>
        <time>2013-06-02T13:51:12Z</time>
      </trkpt>
      <trkpt lat="44.74003" lon="-0.36699">
        <ele>83</ele>
        <time>2013-06-02T13:51:16Z</time>
      </trkpt>
      <trkpt lat="44.73989" lon="-0.36712">
        <ele>84</ele>
        <time>2013-06-02T13:51:24Z</time>
      </trkpt>
      <trkpt lat="44.73989" lon="-0.36726">
        <ele>83</ele>
        <time>2013-06-02T13:51:31Z</time>
      </trkpt>
      <trkpt lat="44.73983" lon="-0.3674">
        <ele>82</ele>
        <time>2013-06-02T13:51:37Z</time>
      </trkpt>
      <trkpt lat="44.73965" lon="-0.36764">
        <ele>80</ele>
        <time>2013-06-02T13:51:47Z</time>
      </trkpt>
      <trkpt lat="44.73944" lon="-0.36795">
        <ele>78</ele>
        <time>2013-06-02T13:51:54Z</time>
      </trkpt>
      <trkpt lat="44.73938" lon="-0.368">
        <ele>78</ele>
        <time>2013-06-02T13:51:59Z</time>
      </trkpt>
      <trkpt lat="44.73936" lon="-0.368">
        <ele>78</ele>
        <time>2013-06-02T13:52:07Z</time>
      </trkpt>
      <trkpt lat="44.73936" lon="-0.36799">
        <ele>78</ele>
        <time>2013-06-02T13:52:15Z</time>
      </trkpt>
      <trkpt lat="44.73933" lon="-0.36802">
        <ele>78</ele>
        <time>2013-06-02T13:52:21Z</time>
      </trkpt>
      <trkpt lat="44.7393" lon="-0.36802">
        <ele>78</ele>
        <time>2013-06-02T13:52:29Z</time>
      </trkpt>
      <trkpt lat="44.73929" lon="-0.36801">
        <ele>78</ele>
        <time>2013-06-02T13:52:42Z</time>
      </trkpt>
      <trkpt lat="44.73929" lon="-0.36801">
        <ele>78</ele>
        <time>2013-06-02T13:52:54Z</time>
      </trkpt>
      <trkpt lat="44.73923" lon="-0.36808">
        <ele>77</ele>
        <time>2013-06-02T13:53:02Z</time>
      </trkpt>
      <trkpt lat="44.7391" lon="-0.36821">
        <ele>76</ele>
        <time>2013-06-02T13:53:09Z</time>
      </trkpt>
      <trkpt lat="44.73884" lon="-0.36847">
        <ele>73</ele>
        <time>2013-06-02T13:53:17Z</time>
      </trkpt>
      <trkpt lat="44.73862" lon="-0.36869">
        <ele>70</ele>
        <time>2013-06-02T13:53:22Z</time>
      </trkpt>
      <trkpt lat="44.73827" lon="-0.36899">
        <ele>64</ele>
        <time>2013-06-02T13:53:29Z</time>
      </trkpt>
      <trkpt lat="44.73802" lon="-0.36933">
        <ele>59</ele>
        <time>2013-06-02T13:53:35Z</time>
      </trkpt>
      <trkpt lat="44.73779" lon="-0.36974">
        <ele>52</ele>
        <time>2013-06-02T13:53:40Z</time>
      </trkpt>
      <trkpt lat="44.73757" lon="-0.3704">
        <ele>44</ele>
        <time>2013-06-02T13:53:46Z</time>
      </trkpt>
      <trkpt lat="44.73735" lon="-0.37109">
        <ele>44</ele>
        <time>2013-06-02T13:53:51Z</time>
      </trkpt>
      <trkpt lat="44.73731" lon="-0.3712">
        <ele>45</ele>
        <time>2013-06-02T13:53:52Z</time>
      </trkpt>
      <trkpt lat="44.73727" lon="-0.37128">
        <ele>46</ele>
        <time>2013-06-02T13:53:53Z</time>
      </trkpt>
      <trkpt lat="44.73723" lon="-0.37135">
        <ele>47</ele>
        <time>2013-06-02T13:53:54Z</time>
      </trkpt>
      <trkpt lat="44.73719" lon="-0.37141">
        <ele>48</ele>
        <time>2013-06-02T13:53:55Z</time>
      </trkpt>
      <trkpt lat="44.73715" lon="-0.37146">
        <ele>49</ele>
        <time>2013-06-02T13:53:56Z</time>
      </trkpt>
      <trkpt lat="44.73711" lon="-0.3715">
        <ele>50</ele>
        <time>2013-06-02T13:53:57Z</time>
      </trkpt>
      <trkpt lat="44.73708" lon="-0.37153">
        <ele>50</ele>
        <time>2013-06-02T13:53:58Z</time>
      </trkpt>
      <trkpt lat="44.73695" lon="-0.37169">
        <ele>53</ele>
        <time>2013-06-02T13:54:05Z</time>
      </trkpt>
      <trkpt lat="44.73696" lon="-0.37171">
        <ele>53</ele>
        <time>2013-06-02T13:54:07Z</time>
      </trkpt>
      <trkpt lat="44.73697" lon="-0.37171">
        <ele>53</ele>
        <time>2013-06-02T13:54:08Z</time>
      </trkpt>
      <trkpt lat="44.73715" lon="-0.37181">
        <ele>51</ele>
        <time>2013-06-02T13:54:17Z</time>
      </trkpt>
      <trkpt lat="44.73735" lon="-0.37198">
        <ele>49</ele>
        <time>2013-06-02T13:54:25Z</time>
      </trkpt>
      <trkpt lat="44.73763" lon="-0.37225">
        <ele>46</ele>
        <time>2013-06-02T13:54:34Z</time>
      </trkpt>
      <trkpt lat="44.73787" lon="-0.37252">
        <ele>43</ele>
        <time>2013-06-02T13:54:42Z</time>
      </trkpt>
      <trkpt lat="44.73807" lon="-0.37272">
        <ele>40</ele>
        <time>2013-06-02T13:54:49Z</time>
      </trkpt>
      <trkpt lat="44.73809" lon="-0.37274">
        <ele>40</ele>
        <time>2013-06-02T13:54:50Z</time>
      </trkpt>
      <trkpt lat="44.7382" lon="-0.3727">
        <ele>39</ele>
        <time>2013-06-02T13:54:53Z</time>
      </trkpt>
      <trkpt lat="44.73836" lon="-0.37266">
        <ele>37</ele>
        <time>2013-06-02T13:54:57Z</time>
      </trkpt>
      <trkpt lat="44.73862" lon="-0.37275">
        <ele>36</ele>
        <time>2013-06-02T13:55:05Z</time>
      </trkpt>
      <trkpt lat="44.73884" lon="-0.37289">
        <ele>35</ele>
        <time>2013-06-02T13:55:12Z</time>
      </trkpt>
      <trkpt lat="44.73906" lon="-0.37308">
        <ele>38</ele>
        <time>2013-06-02T13:55:20Z</time>
      </trkpt>
      <trkpt lat="44.73927" lon="-0.37334">
        <ele>39</ele>
        <time>2013-06-02T13:55:29Z</time>
      </trkpt>
      <trkpt lat="44.73945" lon="-0.37361">
        <ele>36</ele>
        <time>2013-06-02T13:55:35Z</time>
      </trkpt>
      <trkpt lat="44.73961" lon="-0.37384">
        <ele>33</ele>
        <time>2013-06-02T13:55:41Z</time>
      </trkpt>
      <trkpt lat="44.73979" lon="-0.37401">
        <ele>34</ele>
        <time>2013-06-02T13:55:48Z</time>
      </trkpt>
      <trkpt lat="44.73994" lon="-0.37414">
        <ele>36</ele>
        <time>2013-06-02T13:55:55Z</time>
      </trkpt>
      <trkpt lat="44.74017" lon="-0.37404">
        <ele>37</ele>
        <time>2013-06-02T13:56:04Z</time>
      </trkpt>
      <trkpt lat="44.74036" lon="-0.37399">
        <ele>37</ele>
        <time>2013-06-02T13:56:14Z</time>
      </trkpt>
      <trkpt lat="44.74046" lon="-0.37397">
        <ele>38</ele>
        <time>2013-06-02T13:56:22Z</time>
      </trkpt>
      <trkpt lat="44.74065" lon="-0.37396">
        <ele>39</ele>
        <time>2013-06-02T13:56:30Z</time>
      </trkpt>
      <trkpt lat="44.7408" lon="-0.37395">
        <ele>41</ele>
        <time>2013-06-02T13:56:38Z</time>
      </trkpt>
      <trkpt lat="44.74091" lon="-0.37393">
        <ele>43</ele>
        <time>2013-06-02T13:56:47Z</time>
      </trkpt>
      <trkpt lat="44.74102" lon="-0.37391">
        <ele>44</ele>
        <time>2013-06-02T13:56:58Z</time>
      </trkpt>
      <trkpt lat="44.74113" lon="-0.3739">
        <ele>46</ele>
        <time>2013-06-02T13:57:08Z</time>
      </trkpt>
      <trkpt lat="44.74125" lon="-0.37389">
        <ele>48</ele>
        <time>2013-06-02T13:57:17Z</time>
      </trkpt>
      <trkpt lat="44.74127" lon="-0.3739">
        <ele>49</ele>
        <time>2013-06-02T13:57:20Z</time>
      </trkpt>
      <trkpt lat="44.74145" lon="-0.37394">
        <ele>52</ele>
        <time>2013-06-02T13:57:30Z</time>
      </trkpt>
      <trkpt lat="44.74147" lon="-0.37393">
        <ele>53</ele>
        <time>2013-06-02T13:57:32Z</time>
      </trkpt>
      <trkpt lat="44.74154" lon="-0.37397">
        <ele>54</ele>
        <time>2013-06-02T13:57:40Z</time>
      </trkpt>
      <trkpt lat="44.74161" lon="-0.37399">
        <ele>56</ele>
        <time>2013-06-02T13:57:48Z</time>
      </trkpt>
      <trkpt lat="44.74162" lon="-0.37399">
        <ele>56</ele>
        <time>2013-06-02T13:57:49Z</time>
      </trkpt>
      <trkpt lat="44.74171" lon="-0.37402">
        <ele>58</ele>
        <time>2013-06-02T13:57:58Z</time>
      </trkpt>
      <trkpt lat="44.74177" lon="-0.37405">
        <ele>59</ele>
        <time>2013-06-02T13:58:04Z</time>
      </trkpt>
      <trkpt lat="44.74189" lon="-0.37413">
        <ele>61</ele>
        <time>2013-06-02T13:58:15Z</time>
      </trkpt>
      <trkpt lat="44.742" lon="-0.37419">
        <ele>63</ele>
        <time>2013-06-02T13:58:25Z</time>
      </trkpt>
      <trkpt lat="44.7421" lon="-0.37429">
        <ele>64</ele>
        <time>2013-06-02T13:58:35Z</time>
      </trkpt>
      <trkpt lat="44.7422" lon="-0.37436">
        <ele>66</ele>
        <time>2013-06-02T13:58:45Z</time>
      </trkpt>
      <trkpt lat="44.74231" lon="-0.37446">
        <ele>68</ele>
        <time>2013-06-02T13:58:55Z</time>
      </trkpt>
      <trkpt lat="44.74241" lon="-0.37458">
        <ele>69</ele>
        <time>2013-06-02T13:59:06Z</time>
      </trkpt>
      <trkpt lat="44.7425" lon="-0.37467">
        <ele>71</ele>
        <time>2013-06-02T13:59:15Z</time>
      </trkpt>
      <trkpt lat="44.74261" lon="-0.37474">
        <ele>72</ele>
        <time>2013-06-02T13:59:25Z</time>
      </trkpt>
      <trkpt lat="44.74271" lon="-0.37482">
        <ele>73</ele>
        <time>2013-06-02T13:59:35Z</time>
      </trkpt>
      <trkpt lat="44.7428" lon="-0.37492">
        <ele>75</ele>
        <time>2013-06-02T13:59:45Z</time>
      </trkpt>
      <trkpt lat="44.74288" lon="-0.37501">
        <ele>75</ele>
        <time>2013-06-02T13:59:54Z</time>
      </trkpt>
      <trkpt lat="44.74292" lon="-0.37504">
        <ele>76</ele>
        <time>2013-06-02T13:59:57Z</time>
      </trkpt>
      <trkpt lat="44.74298" lon="-0.37503">
        <ele>76</ele>
        <time>2013-06-02T14:00:01Z</time>
      </trkpt>
      <trkpt lat="44.74304" lon="-0.37496">
        <ele>77</ele>
        <time>2013-06-02T14:00:11Z</time>
      </trkpt>
      <trkpt lat="44.74306" lon="-0.37492">
        <ele>77</ele>
        <time>2013-06-02T14:00:19Z</time>
      </trkpt>
      <trkpt lat="44.74306" lon="-0.37493">
        <ele>77</ele>
        <time>2013-06-02T14:00:31Z</time>
      </trkpt>
      <trkpt lat="44.74306" lon="-0.37493">
        <ele>77</ele>
        <time>2013-06-02T14:00:46Z</time>
      </trkpt>
      <trkpt lat="44.74305" lon="-0.37493">
        <ele>77</ele>
        <time>2013-06-02T14:00:57Z</time>
      </trkpt>
      <trkpt lat="44.74305" lon="-0.37493">
        <ele>77</ele>
        <time>2013-06-02T14:01:05Z</time>
      </trkpt>
      <trkpt lat="44.74304" lon="-0.37501">
        <ele>76</ele>
        <time>2013-06-02T14:01:12Z</time>
      </trkpt>
      <trkpt lat="44.74304" lon="-0.37501">
        <ele>76</ele>
        <time>2013-06-02T14:01:22Z</time>
      </trkpt>
      <trkpt lat="44.74305" lon="-0.37498">
        <ele>77</ele>
        <time>2013-06-02T14:01:29Z</time>
      </trkpt>
      <trkpt lat="44.74307" lon="-0.37494">
        <ele>77</ele>
        <time>2013-06-02T14:01:34Z</time>
      </trkpt>
      <trkpt lat="44.74308" lon="-0.37491">
        <ele>77</ele>
        <time>2013-06-02T14:01:36Z</time>
      </trkpt>
      <trkpt lat="44.74315" lon="-0.37473">
        <ele>78</ele>
        <time>2013-06-02T14:01:45Z</time>
      </trkpt>
      <trkpt lat="44.74318" lon="-0.37456">
        <ele>79</ele>
        <time>2013-06-02T14:01:54Z</time>
      </trkpt>
      <trkpt lat="44.74323" lon="-0.37447">
        <ele>79</ele>
        <time>2013-06-02T14:01:59Z</time>
      </trkpt>
      <trkpt lat="44.74327" lon="-0.37427">
        <ele>79</ele>
        <time>2013-06-02T14:02:08Z</time>
      </trkpt>
      <trkpt lat="44.74327" lon="-0.37414">
        <ele>79</ele>
        <time>2013-06-02T14:02:14Z</time>
      </trkpt>
      <trkpt lat="44.74327" lon="-0.37395">
        <ele>79</ele>
        <time>2013-06-02T14:02:23Z</time>
      </trkpt>
      <trkpt lat="44.74328" lon="-0.37367">
        <ele>78</ele>
        <time>2013-06-02T14:02:33Z</time>
      </trkpt>
      <trkpt lat="44.7433" lon="-0.37346">
        <ele>78</ele>
        <time>2013-06-02T14:02:40Z</time>
      </trkpt>
      <trkpt lat="44.74339" lon="-0.37318">
        <ele>75</ele>
        <time>2013-06-02T14:02:48Z</time>
      </trkpt>
      <trkpt lat="44.74354" lon="-0.37287">
        <ele>72</ele>
        <time>2013-06-02T14:02:56Z</time>
      </trkpt>
      <trkpt lat="44.74385" lon="-0.37252">
        <ele>70</ele>
        <time>2013-06-02T14:03:04Z</time>
      </trkpt>
      <trkpt lat="44.74393" lon="-0.37248">
        <ele>70</ele>
        <time>2013-06-02T14:03:06Z</time>
      </trkpt>
      <trkpt lat="44.74424" lon="-0.37239">
        <ele>70</ele>
        <time>2013-06-02T14:03:13Z</time>
      </trkpt>
      <trkpt lat="44.74443" lon="-0.37232">
        <ele>68</ele>
        <time>2013-06-02T14:03:18Z</time>
      </trkpt>
      <trkpt lat="44.74446" lon="-0.37229">
        <ele>68</ele>
        <time>2013-06-02T14:03:19Z</time>
      </trkpt>
      <trkpt lat="44.7445" lon="-0.37226">
        <ele>68</ele>
        <time>2013-06-02T14:03:20Z</time>
      </trkpt>
      <trkpt lat="44.74454" lon="-0.37222">
        <ele>67</ele>
        <time>2013-06-02T14:03:21Z</time>
      </trkpt>
      <trkpt lat="44.74458" lon="-0.37217">
        <ele>67</ele>
        <time>2013-06-02T14:03:22Z</time>
      </trkpt>
      <trkpt lat="44.74462" lon="-0.37212">
        <ele>67</ele>
        <time>2013-06-02T14:03:23Z</time>
      </trkpt>
      <trkpt lat="44.74491" lon="-0.37155">
        <ele>65</ele>
        <time>2013-06-02T14:03:32Z</time>
      </trkpt>
      <trkpt lat="44.74518" lon="-0.37097">
        <ele>66</ele>
        <time>2013-06-02T14:03:42Z</time>
      </trkpt>
      <trkpt lat="44.7454" lon="-0.37051">
        <ele>66</ele>
        <time>2013-06-02T14:03:52Z</time>
      </trkpt>
      <trkpt lat="44.74556" lon="-0.37045">
        <ele>67</ele>
        <time>2013-06-02T14:03:57Z</time>
      </trkpt>
      <trkpt lat="44.74573" lon="-0.37058">
        <ele>67</ele>
        <time>2013-06-02T14:04:03Z</time>
      </trkpt>
      <trkpt lat="44.74576" lon="-0.37059">
        <ele>67</ele>
        <time>2013-06-02T14:04:04Z</time>
      </trkpt>
      <trkpt lat="44.74594" lon="-0.37068">
        <ele>66</ele>
        <time>2013-06-02T14:04:10Z</time>
      </trkpt>
      <trkpt lat="44.746" lon="-0.37073">
        <ele>66</ele>
        <time>2013-06-02T14:04:16Z</time>
      </trkpt>
      <trkpt lat="44.746" lon="-0.37074">
        <ele>66</ele>
        <time>2013-06-02T14:04:27Z</time>
      </trkpt>
      <trkpt lat="44.74599" lon="-0.37074">
        <ele>66</ele>
        <time>2013-06-02T14:04:42Z</time>
      </trkpt>
      <trkpt lat="44.74599" lon="-0.37074">
        <ele>66</ele>
        <time>2013-06-02T14:04:51Z</time>
      </trkpt>
      <trkpt lat="44.74601" lon="-0.37073">
        <ele>66</ele>
        <time>2013-06-02T14:04:52Z</time>
      </trkpt>
      <trkpt lat="44.74608" lon="-0.37065">
        <ele>67</ele>
        <time>2013-06-02T14:04:58Z</time>
      </trkpt>
      <trkpt lat="44.74608" lon="-0.37064">
        <ele>67</ele>
        <time>2013-06-02T14:05:07Z</time>
      </trkpt>
      <trkpt lat="44.74607" lon="-0.37065">
        <ele>67</ele>
        <time>2013-06-02T14:05:10Z</time>
      </trkpt>
      <trkpt lat="44.74603" lon="-0.37071">
        <ele>66</ele>
        <time>2013-06-02T14:05:19Z</time>
      </trkpt>
      <trkpt lat="44.74602" lon="-0.37071">
        <ele>66</ele>
        <time>2013-06-02T14:05:26Z</time>
      </trkpt>
      <trkpt lat="44.74592" lon="-0.37066">
        <ele>66</ele>
        <time>2013-06-02T14:05:34Z</time>
      </trkpt>
      <trkpt lat="44.74583" lon="-0.37052">
        <ele>67</ele>
        <time>2013-06-02T14:05:42Z</time>
      </trkpt>
      <trkpt lat="44.74583" lon="-0.3705">
        <ele>67</ele>
        <time>2013-06-02T14:05:43Z</time>
      </trkpt>
      <trkpt lat="44.74593" lon="-0.37035">
        <ele>68</ele>
        <time>2013-06-02T14:05:52Z</time>
      </trkpt>
      <trkpt lat="44.74604" lon="-0.37019">
        <ele>69</ele>
        <time>2013-06-02T14:06:00Z</time>
      </trkpt>
      <trkpt lat="44.74617" lon="-0.36999">
        <ele>70</ele>
        <time>2013-06-02T14:06:11Z</time>
      </trkpt>
      <trkpt lat="44.74624" lon="-0.36989">
        <ele>71</ele>
        <time>2013-06-02T14:06:18Z</time>
      </trkpt>
      <trkpt lat="44.74632" lon="-0.36977">
        <ele>73</ele>
        <time>2013-06-02T14:06:27Z</time>
      </trkpt>
      <trkpt lat="44.74642" lon="-0.36967">
        <ele>74</ele>
        <time>2013-06-02T14:06:36Z</time>
      </trkpt>
      <trkpt lat="44.74644" lon="-0.36962">
        <ele>75</ele>
        <time>2013-06-02T14:06:43Z</time>
      </trkpt>
      <trkpt lat="44.74645" lon="-0.36959">
        <ele>75</ele>
        <time>2013-06-02T14:06:50Z</time>
      </trkpt>
      <trkpt lat="44.74646" lon="-0.36958">
        <ele>76</ele>
        <time>2013-06-02T14:06:56Z</time>
      </trkpt>
      <trkpt lat="44.74647" lon="-0.36955">
        <ele>76</ele>
        <time>2013-06-02T14:07:04Z</time>
      </trkpt>
      <trkpt lat="44.74652" lon="-0.36949">
        <ele>77</ele>
        <time>2013-06-02T14:07:11Z</time>
      </trkpt>
      <trkpt lat="44.74656" lon="-0.36941">
        <ele>78</ele>
        <time>2013-06-02T14:07:19Z</time>
      </trkpt>
      <trkpt lat="44.74661" lon="-0.36933">
        <ele>80</ele>
        <time>2013-06-02T14:07:29Z</time>
      </trkpt>
      <trkpt lat="44.74665" lon="-0.36927">
        <ele>81</ele>
        <time>2013-06-02T14:07:37Z</time>
      </trkpt>
      <trkpt lat="44.7467" lon="-0.36919">
        <ele>81</ele>
        <time>2013-06-02T14:07:47Z</time>
      </trkpt>
      <trkpt lat="44.74673" lon="-0.36915">
        <ele>81</ele>
        <time>2013-06-02T14:07:55Z</time>
      </trkpt>
      <trkpt lat="44.74673" lon="-0.36915">
        <ele>81</ele>
        <time>2013-06-02T14:07:57Z</time>
      </trkpt>
      <trkpt lat="44.74678" lon="-0.36899">
        <ele>81</ele>
        <time>2013-06-02T14:08:05Z</time>
      </trkpt>
      <trkpt lat="44.74682" lon="-0.36876">
        <ele>82</ele>
        <time>2013-06-02T14:08:14Z</time>
      </trkpt>
      <trkpt lat="44.74691" lon="-0.36855">
        <ele>82</ele>
        <time>2013-06-02T14:08:24Z</time>
      </trkpt>
      <trkpt lat="44.74699" lon="-0.3684">
        <ele>82</ele>
        <time>2013-06-02T14:08:32Z</time>
      </trkpt>
      <trkpt lat="44.74708" lon="-0.36817">
        <ele>83</ele>
        <time>2013-06-02T14:08:42Z</time>
      </trkpt>
      <trkpt lat="44.74709" lon="-0.36814">
        <ele>83</ele>
        <time>2013-06-02T14:08:43Z</time>
      </trkpt>
      <trkpt lat="44.74716" lon="-0.3681">
        <ele>83</ele>
        <time>2013-06-02T14:08:47Z</time>
      </trkpt>
      <trkpt lat="44.74737" lon="-0.36828">
        <ele>81</ele>
        <time>2013-06-02T14:08:54Z</time>
      </trkpt>
      <trkpt lat="44.74758" lon="-0.36848">
        <ele>77</ele>
        <time>2013-06-02T14:09:01Z</time>
      </trkpt>
      <trkpt lat="44.74761" lon="-0.36848">
        <ele>77</ele>
        <time>2013-06-02T14:09:02Z</time>
      </trkpt>
      <trkpt lat="44.74769" lon="-0.36832">
        <ele>76</ele>
        <time>2013-06-02T14:09:07Z</time>
      </trkpt>
      <trkpt lat="44.74777" lon="-0.36795">
        <ele>76</ele>
        <time>2013-06-02T14:09:17Z</time>
      </trkpt>
      <trkpt lat="44.74785" lon="-0.36759">
        <ele>76</ele>
        <time>2013-06-02T14:09:27Z</time>
      </trkpt>
      <trkpt lat="44.74797" lon="-0.36718">
        <ele>76</ele>
        <time>2013-06-02T14:09:37Z</time>
      </trkpt>
      <trkpt lat="44.74815" lon="-0.36676">
        <ele>78</ele>
        <time>2013-06-02T14:09:48Z</time>
      </trkpt>
      <trkpt lat="44.74834" lon="-0.36645">
        <ele>79</ele>
        <time>2013-06-02T14:09:58Z</time>
      </trkpt>
      <trkpt lat="44.74851" lon="-0.36647">
        <ele>77</ele>
        <time>2013-06-02T14:10:05Z</time>
      </trkpt>
      <trkpt lat="44.74862" lon="-0.36641">
        <ele>77</ele>
        <time>2013-06-02T14:10:10Z</time>
      </trkpt>
      <trkpt lat="44.74881" lon="-0.36622">
        <ele>76</ele>
        <time>2013-06-02T14:10:20Z</time>
      </trkpt>
      <trkpt lat="44.74904" lon="-0.36612">
        <ele>73</ele>
        <time>2013-06-02T14:10:29Z</time>
      </trkpt>
      <trkpt lat="44.74921" lon="-0.36596">
        <ele>72</ele>
        <time>2013-06-02T14:10:36Z</time>
      </trkpt>
      <trkpt lat="44.74931" lon="-0.36578">
        <ele>71</ele>
        <time>2013-06-02T14:10:42Z</time>
      </trkpt>
      <trkpt lat="44.74943" lon="-0.36554">
        <ele>69</ele>
        <time>2013-06-02T14:10:50Z</time>
      </trkpt>
      <trkpt lat="44.74956" lon="-0.36524">
        <ele>64</ele>
        <time>2013-06-02T14:10:58Z</time>
      </trkpt>
      <trkpt lat="44.74953" lon="-0.36505">
        <ele>63</ele>
        <time>2013-06-02T14:11:03Z</time>
      </trkpt>
      <trkpt lat="44.74941" lon="-0.36485">
        <ele>64</ele>
        <time>2013-06-02T14:11:09Z</time>
      </trkpt>
      <trkpt lat="44.74932" lon="-0.36468">
        <ele>65</ele>
        <time>2013-06-02T14:11:16Z</time>
      </trkpt>
      <trkpt lat="44.74931" lon="-0.36466">
        <ele>65</ele>
        <time>2013-06-02T14:11:17Z</time>
      </trkpt>
      <trkpt lat="44.74941" lon="-0.36451">
        <ele>63</ele>
        <time>2013-06-02T14:11:25Z</time>
      </trkpt>
      <trkpt lat="44.74958" lon="-0.36438">
        <ele>61</ele>
        <time>2013-06-02T14:11:34Z</time>
      </trkpt>
      <trkpt lat="44.7497" lon="-0.36429">
        <ele>60</ele>
        <time>2013-06-02T14:11:41Z</time>
      </trkpt>
      <trkpt lat="44.7498" lon="-0.36423">
        <ele>60</ele>
        <time>2013-06-02T14:11:47Z</time>
      </trkpt>
      <trkpt lat="44.74987" lon="-0.36419">
        <ele>59</ele>
        <time>2013-06-02T14:11:53Z</time>
      </trkpt>
      <trkpt lat="44.74993" lon="-0.36428">
        <ele>58</ele>
        <time>2013-06-02T14:12:01Z</time>
      </trkpt>
      <trkpt lat="44.74993" lon="-0.36428">
        <ele>58</ele>
        <time>2013-06-02T14:12:10Z</time>
      </trkpt>
      <trkpt lat="44.74993" lon="-0.36429">
        <ele>58</ele>
        <time>2013-06-02T14:12:23Z</time>
      </trkpt>
      <trkpt lat="44.74992" lon="-0.36429">
        <ele>58</ele>
        <time>2013-06-02T14:12:40Z</time>
      </trkpt>
      <trkpt lat="44.74992" lon="-0.36429">
        <ele>58</ele>
        <time>2013-06-02T14:12:53Z</time>
      </trkpt>
      <trkpt lat="44.74992" lon="-0.3643">
        <ele>58</ele>
        <time>2013-06-02T14:13:07Z</time>
      </trkpt>
      <trkpt lat="44.74992" lon="-0.3643">
        <ele>58</ele>
        <time>2013-06-02T14:13:22Z</time>
      </trkpt>
      <trkpt lat="44.74992" lon="-0.3643">
        <ele>58</ele>
        <time>2013-06-02T14:13:36Z</time>
      </trkpt>
      <trkpt lat="44.74992" lon="-0.3643">
        <ele>58</ele>
        <time>2013-06-02T14:13:52Z</time>
      </trkpt>
      <trkpt lat="44.74992" lon="-0.3643">
        <ele>58</ele>
        <time>2013-06-02T14:14:02Z</time>
      </trkpt>
      <trkpt lat="44.74996" lon="-0.36438">
        <ele>58</ele>
        <time>2013-06-02T14:14:09Z</time>
      </trkpt>
      <trkpt lat="44.75006" lon="-0.3646">
        <ele>57</ele>
        <time>2013-06-02T14:14:15Z</time>
      </trkpt>
      <trkpt lat="44.75021" lon="-0.36493">
        <ele>55</ele>
        <time>2013-06-02T14:14:21Z</time>
      </trkpt>
      <trkpt lat="44.75023" lon="-0.365">
        <ele>54</ele>
        <time>2013-06-02T14:14:22Z</time>
      </trkpt>
      <trkpt lat="44.7504" lon="-0.36541">
        <ele>52</ele>
        <time>2013-06-02T14:14:28Z</time>
      </trkpt>
      <trkpt lat="44.75055" lon="-0.36593">
        <ele>50</ele>
        <time>2013-06-02T14:14:34Z</time>
      </trkpt>
      <trkpt lat="44.75069" lon="-0.36646">
        <ele>47</ele>
        <time>2013-06-02T14:14:41Z</time>
      </trkpt>
      <trkpt lat="44.75081" lon="-0.36679">
        <ele>46</ele>
        <time>2013-06-02T14:14:47Z</time>
      </trkpt>
      <trkpt lat="44.75085" lon="-0.36681">
        <ele>46</ele>
        <time>2013-06-02T14:14:49Z</time>
      </trkpt>
      <trkpt lat="44.75087" lon="-0.3668">
        <ele>46</ele>
        <time>2013-06-02T14:14:50Z</time>
      </trkpt>
      <trkpt lat="44.75089" lon="-0.36678">
        <ele>45</ele>
        <time>2013-06-02T14:14:51Z</time>
      </trkpt>
      <trkpt lat="44.75091" lon="-0.36675">
        <ele>45</ele>
        <time>2013-06-02T14:14:52Z</time>
      </trkpt>
      <trkpt lat="44.75093" lon="-0.36671">
        <ele>45</ele>
        <time>2013-06-02T14:14:53Z</time>
      </trkpt>
      <trkpt lat="44.75094" lon="-0.36667">
        <ele>45</ele>
        <time>2013-06-02T14:14:54Z</time>
      </trkpt>
      <trkpt lat="44.75095" lon="-0.36663">
        <ele>45</ele>
        <time>2013-06-02T14:14:55Z</time>
      </trkpt>
      <trkpt lat="44.75102" lon="-0.36634">
        <ele>45</ele>
        <time>2013-06-02T14:15:02Z</time>
      </trkpt>
      <trkpt lat="44.75112" lon="-0.36593">
        <ele>45</ele>
        <time>2013-06-02T14:15:11Z</time>
      </trkpt>
      <trkpt lat="44.7513" lon="-0.36525">
        <ele>45</ele>
        <time>2013-06-02T14:15:24Z</time>
      </trkpt>
      <trkpt lat="44.75145" lon="-0.36461">
        <ele>45</ele>
        <time>2013-06-02T14:15:36Z</time>
      </trkpt>
      <trkpt lat="44.75158" lon="-0.36402">
        <ele>47</ele>
        <time>2013-06-02T14:15:46Z</time>
      </trkpt>
      <trkpt lat="44.75176" lon="-0.36365">
        <ele>46</ele>
        <time>2013-06-02T14:15:54Z</time>
      </trkpt>
      <trkpt lat="44.75203" lon="-0.36335">
        <ele>45</ele>
        <time>2013-06-02T14:16:03Z</time>
      </trkpt>
      <trkpt lat="44.75222" lon="-0.36321">
        <ele>45</ele>
        <time>2013-06-02T14:16:08Z</time>
      </trkpt>
      <trkpt lat="44.75257" lon="-0.36312">
        <ele>44</ele>
        <time>2013-06-02T14:16:16Z</time>
      </trkpt>
      <trkpt lat="44.75291" lon="-0.36319">
        <ele>44</ele>
        <time>2013-06-02T14:16:24Z</time>
      </trkpt>
      <trkpt lat="44.7533" lon="-0.36333">
        <ele>45</ele>
        <time>2013-06-02T14:16:33Z</time>
      </trkpt>
      <trkpt lat="44.75355" lon="-0.36342">
        <ele>45</ele>
        <time>2013-06-02T14:16:40Z</time>
      </trkpt>
      <trkpt lat="44.75479" lon="-0.36371">
        <ele>50</ele>
        <time>2013-06-02T14:43:40Z</time>
      </trkpt>
      <trkpt lat="44.75581" lon="-0.36408">
        <ele>50</ele>
        <time>2013-06-02T14:43:48Z</time>
      </trkpt>
      <trkpt lat="44.75664" lon="-0.36371">
        <ele>50</ele>
        <time>2013-06-02T14:43:56Z</time>
      </trkpt>
      <trkpt lat="44.75729" lon="-0.36325">
        <ele>51</ele>
        <time>2013-06-02T14:44:02Z</time>
      </trkpt>
      <trkpt lat="44.75803" lon="-0.36317">
        <ele>52</ele>
        <time>2013-06-02T14:45:16Z</time>
      </trkpt>
      <trkpt lat="44.75805" lon="-0.36321">
        <ele>52</ele>
        <time>2013-06-02T14:45:25Z</time>
      </trkpt>
      <trkpt lat="44.75805" lon="-0.36321">
        <ele>52</ele>
        <time>2013-06-02T14:45:32Z</time>
      </trkpt>
      <trkpt lat="44.75805" lon="-0.36322">
        <ele>52</ele>
        <time>2013-06-02T14:45:41Z</time>
      </trkpt>
      <trkpt lat="44.75804" lon="-0.36322">
        <ele>52</ele>
        <time>2013-06-02T14:45:49Z</time>
      </trkpt>
      <trkpt lat="44.75806" lon="-0.36322">
        <ele>52</ele>
        <time>2013-06-02T14:46:07Z</time>
      </trkpt>
      <trkpt lat="44.75806" lon="-0.36321">
        <ele>52</ele>
        <time>2013-06-02T14:46:25Z</time>
      </trkpt>
      <trkpt lat="44.75806" lon="-0.36321">
        <ele>52</ele>
        <time>2013-06-02T14:46:45Z</time>
      </trkpt>
      <trkpt lat="44.75806" lon="-0.36322">
        <ele>52</ele>
        <time>2013-06-02T14:47:04Z</time>
      </trkpt>
      <trkpt lat="44.75806" lon="-0.36322">
        <ele>52</ele>
        <time>2013-06-02T14:47:26Z</time>
      </trkpt>
      <trkpt lat="44.75806" lon="-0.36323">
        <ele>52</ele>
        <time>2013-06-02T14:47:49Z</time>
      </trkpt>
      <trkpt lat="44.75805" lon="-0.36323">
        <ele>52</ele>
        <time>2013-06-02T14:48:08Z</time>
      </trkpt>
      <trkpt lat="44.75805" lon="-0.36324">
        <ele>52</ele>
        <time>2013-06-02T14:48:25Z</time>
      </trkpt>
      <trkpt lat="44.75806" lon="-0.36324">
        <ele>52</ele>
        <time>2013-06-02T14:48:41Z</time>
      </trkpt>
      <trkpt lat="44.75806" lon="-0.36324">
        <ele>52</ele>
        <time>2013-06-02T14:49:00Z</time>
      </trkpt>
      <trkpt lat="44.75806" lon="-0.36324">
        <ele>52</ele>
        <time>2013-06-02T14:49:20Z</time>
      </trkpt>
      <trkpt lat="44.75806" lon="-0.36324">
        <ele>52</ele>
        <time>2013-06-02T14:49:36Z</time>
      </trkpt>
      <trkpt lat="44.75806" lon="-0.36324">
        <ele>52</ele>
        <time>2013-06-02T14:49:50Z</time>
      </trkpt>
      <trkpt lat="44.75806" lon="-0.36324">
        <ele>52</ele>
        <time>2013-06-02T14:50:00Z</time>
      </trkpt>
      <trkpt lat="44.75807" lon="-0.36324">
        <ele>52</ele>
        <time>2013-06-02T14:50:10Z</time>
      </trkpt>
      <trkpt lat="44.75807" lon="-0.36325">
        <ele>52</ele>
        <time>2013-06-02T14:50:20Z</time>
      </trkpt>
      <trkpt lat="44.75808" lon="-0.36325">
        <ele>52</ele>
        <time>2013-06-02T14:50:33Z</time>
      </trkpt>
      <trkpt lat="44.75812" lon="-0.36332">
        <ele>53</ele>
        <time>2013-06-02T14:50:44Z</time>
      </trkpt>
      <trkpt lat="44.75813" lon="-0.36332">
        <ele>53</ele>
        <time>2013-06-02T14:50:54Z</time>
      </trkpt>
      <trkpt lat="44.75814" lon="-0.36333">
        <ele>53</ele>
        <time>2013-06-02T14:51:03Z</time>
      </trkpt>
      <trkpt lat="44.7582" lon="-0.36345">
        <ele>55</ele>
        <time>2013-06-02T14:51:12Z</time>
      </trkpt>
      <trkpt lat="44.75822" lon="-0.36352">
        <ele>56</ele>
        <time>2013-06-02T14:51:21Z</time>
      </trkpt>
      <trkpt lat="44.75826" lon="-0.36358">
        <ele>57</ele>
        <time>2013-06-02T14:51:30Z</time>
      </trkpt>
      <trkpt lat="44.75828" lon="-0.36363">
        <ele>58</ele>
        <time>2013-06-02T14:51:38Z</time>
      </trkpt>
      <trkpt lat="44.75829" lon="-0.36367">
        <ele>59</ele>
        <time>2013-06-02T14:51:45Z</time>
      </trkpt>
      <trkpt lat="44.75833" lon="-0.36374">
        <ele>61</ele>
        <time>2013-06-02T14:51:54Z</time>
      </trkpt>
      <trkpt lat="44.75836" lon="-0.36377">
        <ele>62</ele>
        <time>2013-06-02T14:52:02Z</time>
      </trkpt>
      <trkpt lat="44.7584" lon="-0.36377">
        <ele>63</ele>
        <time>2013-06-02T14:52:10Z</time>
      </trkpt>
      <trkpt lat="44.75843" lon="-0.36379">
        <ele>64</ele>
        <time>2013-06-02T14:52:20Z</time>
      </trkpt>
      <trkpt lat="44.75847" lon="-0.36386">
        <ele>65</ele>
        <time>2013-06-02T14:52:31Z</time>
      </trkpt>
      <trkpt lat="44.75849" lon="-0.3639">
        <ele>66</ele>
        <time>2013-06-02T14:52:40Z</time>
      </trkpt>
      <trkpt lat="44.7585" lon="-0.36396">
        <ele>68</ele>
        <time>2013-06-02T14:52:48Z</time>
      </trkpt>
      <trkpt lat="44.75853" lon="-0.36399">
        <ele>68</ele>
        <time>2013-06-02T14:52:56Z</time>
      </trkpt>
      <trkpt lat="44.75859" lon="-0.36403">
        <ele>70</ele>
        <time>2013-06-02T14:53:05Z</time>
      </trkpt>
      <trkpt lat="44.7586" lon="-0.36407">
        <ele>71</ele>
        <time>2013-06-02T14:53:15Z</time>
      </trkpt>
      <trkpt lat="44.75863" lon="-0.36415">
        <ele>72</ele>
        <time>2013-06-02T14:53:20Z</time>
      </trkpt>
      <trkpt lat="44.75869" lon="-0.36431">
        <ele>74</ele>
        <time>2013-06-02T14:53:30Z</time>
      </trkpt>
      <trkpt lat="44.7587" lon="-0.36434">
        <ele>75</ele>
        <time>2013-06-02T14:53:32Z</time>
      </trkpt>
      <trkpt lat="44.75875" lon="-0.36452">
        <ele>76</ele>
        <time>2013-06-02T14:53:43Z</time>
      </trkpt>
      <trkpt lat="44.75877" lon="-0.36459">
        <ele>77</ele>
        <time>2013-06-02T14:53:48Z</time>
      </trkpt>
      <trkpt lat="44.7588" lon="-0.36464">
        <ele>78</ele>
        <time>2013-06-02T14:53:51Z</time>
      </trkpt>
      <trkpt lat="44.75885" lon="-0.36476">
        <ele>79</ele>
        <time>2013-06-02T14:53:59Z</time>
      </trkpt>
      <trkpt lat="44.75889" lon="-0.36475">
        <ele>80</ele>
        <time>2013-06-02T14:54:07Z</time>
      </trkpt>
      <trkpt lat="44.7589" lon="-0.36475">
        <ele>80</ele>
        <time>2013-06-02T14:54:27Z</time>
      </trkpt>
      <trkpt lat="44.7589" lon="-0.36475">
        <ele>80</ele>
        <time>2013-06-02T14:54:38Z</time>
      </trkpt>
      <trkpt lat="44.75888" lon="-0.36476">
        <ele>80</ele>
        <time>2013-06-02T14:54:45Z</time>
      </trkpt>
      <trkpt lat="44.75888" lon="-0.36476">
        <ele>80</ele>
        <time>2013-06-02T14:54:56Z</time>
      </trkpt>
      <trkpt lat="44.75888" lon="-0.36476">
        <ele>80</ele>
        <time>2013-06-02T14:54:58Z</time>
      </trkpt>
      <trkpt lat="44.75883" lon="-0.3647">
        <ele>79</ele>
        <time>2013-06-02T14:55:07Z</time>
      </trkpt>
      <trkpt lat="44.75884" lon="-0.36471">
        <ele>79</ele>
        <time>2013-06-02T14:55:13Z</time>
      </trkpt>
      <trkpt lat="44.75884" lon="-0.36471">
        <ele>79</ele>
        <time>2013-06-02T14:55:14Z</time>
      </trkpt>
      <trkpt lat="44.75888" lon="-0.36478">
        <ele>80</ele>
        <time>2013-06-02T14:55:19Z</time>
      </trkpt>
      <trkpt lat="44.75896" lon="-0.36494">
        <ele>80</ele>
        <time>2013-06-02T14:55:28Z</time>
      </trkpt>
      <trkpt lat="44.75907" lon="-0.36514">
        <ele>80</ele>
        <time>2013-06-02T14:55:35Z</time>
      </trkpt>
      <trkpt lat="44.75918" lon="-0.36533">
        <ele>82</ele>
        <time>2013-06-02T14:55:43Z</time>
      </trkpt>
      <trkpt lat="44.75927" lon="-0.3655">
        <ele>83</ele>
        <time>2013-06-02T14:55:53Z</time>
      </trkpt>
      <trkpt lat="44.75933" lon="-0.36566">
        <ele>84</ele>
        <time>2013-06-02T14:56:02Z</time>
      </trkpt>
      <trkpt lat="44.75934" lon="-0.36569">
        <ele>84</ele>
        <time>2013-06-02T14:56:05Z</time>
      </trkpt>
      <trkpt lat="44.75938" lon="-0.36572">
        <ele>84</ele>
        <time>2013-06-02T14:56:09Z</time>
      </trkpt>
      <trkpt lat="44.75942" lon="-0.36591">
        <ele>85</ele>
        <time>2013-06-02T14:56:18Z</time>
      </trkpt>
      <trkpt lat="44.75951" lon="-0.36609">
        <ele>85</ele>
        <time>2013-06-02T14:56:26Z</time>
      </trkpt>
      <trkpt lat="44.75961" lon="-0.36633">
        <ele>85</ele>
        <time>2013-06-02T14:56:34Z</time>
      </trkpt>
      <trkpt lat="44.75973" lon="-0.36663">
        <ele>85</ele>
        <time>2013-06-02T14:56:42Z</time>
      </trkpt>
      <trkpt lat="44.75981" lon="-0.36677">
        <ele>84</ele>
        <time>2013-06-02T14:56:45Z</time>
      </trkpt>
      <trkpt lat="44.75985" lon="-0.36681">
        <ele>83</ele>
        <time>2013-06-02T14:56:46Z</time>
      </trkpt>
      <trkpt lat="44.75997" lon="-0.36691">
        <ele>82</ele>
        <time>2013-06-02T14:56:49Z</time>
      </trkpt>
      <trkpt lat="44.76002" lon="-0.36694">
        <ele>81</ele>
        <time>2013-06-02T14:56:50Z</time>
      </trkpt>
      <trkpt lat="44.76006" lon="-0.36697">
        <ele>81</ele>
        <time>2013-06-02T14:56:51Z</time>
      </trkpt>
      <trkpt lat="44.76032" lon="-0.36714">
        <ele>80</ele>
        <time>2013-06-02T14:56:58Z</time>
      </trkpt>
      <trkpt lat="44.76043" lon="-0.36723">
        <ele>81</ele>
        <time>2013-06-02T14:57:04Z</time>
      </trkpt>
      <trkpt lat="44.76061" lon="-0.36735">
        <ele>83</ele>
        <time>2013-06-02T14:57:11Z</time>
      </trkpt>
      <trkpt lat="44.76079" lon="-0.36751">
        <ele>82</ele>
        <time>2013-06-02T14:57:18Z</time>
      </trkpt>
      <trkpt lat="44.76105" lon="-0.36764">
        <ele>79</ele>
        <time>2013-06-02T14:57:26Z</time>
      </trkpt>
      <trkpt lat="44.76132" lon="-0.36775">
        <ele>79</ele>
        <time>2013-06-02T14:57:33Z</time>
      </trkpt>
      <trkpt lat="44.76136" lon="-0.36774">
        <ele>79</ele>
        <time>2013-06-02T14:57:34Z</time>
      </trkpt>
      <trkpt lat="44.76163" lon="-0.36766">
        <ele>81</ele>
        <time>2013-06-02T14:57:42Z</time>
      </trkpt>
      <trkpt lat="44.76178" lon="-0.36754">
        <ele>83</ele>
        <time>2013-06-02T14:57:50Z</time>
      </trkpt>
      <trkpt lat="44.76182" lon="-0.3673">
        <ele>83</ele>
        <time>2013-06-02T14:57:56Z</time>
      </trkpt>
      <trkpt lat="44.76188" lon="-0.36699">
        <ele>83</ele>
        <time>2013-06-02T14:58:05Z</time>
      </trkpt>
      <trkpt lat="44.76195" lon="-0.3668">
        <ele>83</ele>
        <time>2013-06-02T14:58:12Z</time>
      </trkpt>
      <trkpt lat="44.76196" lon="-0.36673">
        <ele>83</ele>
        <time>2013-06-02T14:58:16Z</time>
      </trkpt>
      <trkpt lat="44.76196" lon="-0.36671">
        <ele>83</ele>
        <time>2013-06-02T14:58:17Z</time>
      </trkpt>
      <trkpt lat="44.76195" lon="-0.36669">
        <ele>83</ele>
        <time>2013-06-02T14:58:18Z</time>
      </trkpt>
      <trkpt lat="44.7619" lon="-0.36643">
        <ele>82</ele>
        <time>2013-06-02T14:58:28Z</time>
      </trkpt>
      <trkpt lat="44.76183" lon="-0.36611">
        <ele>81</ele>
        <time>2013-06-02T14:58:36Z</time>
      </trkpt>
      <trkpt lat="44.76173" lon="-0.36561">
        <ele>79</ele>
        <time>2013-06-02T14:58:45Z</time>
      </trkpt>
      <trkpt lat="44.76165" lon="-0.36514">
        <ele>80</ele>
        <time>2013-06-02T14:58:53Z</time>
      </trkpt>
      <trkpt lat="44.76153" lon="-0.36447">
        <ele>79</ele>
        <time>2013-06-02T14:59:02Z</time>
      </trkpt>
      <trkpt lat="44.76141" lon="-0.36382">
        <ele>74</ele>
        <time>2013-06-02T14:59:10Z</time>
      </trkpt>
      <trkpt lat="44.7613" lon="-0.36324">
        <ele>68</ele>
        <time>2013-06-02T14:59:16Z</time>
      </trkpt>
      <trkpt lat="44.76125" lon="-0.36302">
        <ele>65</ele>
        <time>2013-06-02T14:59:20Z</time>
      </trkpt>
      <trkpt lat="44.76123" lon="-0.36285">
        <ele>63</ele>
        <time>2013-06-02T14:59:23Z</time>
      </trkpt>
      <trkpt lat="44.76122" lon="-0.36279">
        <ele>63</ele>
        <time>2013-06-02T14:59:24Z</time>
      </trkpt>
      <trkpt lat="44.76119" lon="-0.36257">
        <ele>60</ele>
        <time>2013-06-02T14:59:29Z</time>
      </trkpt>
      <trkpt lat="44.7612" lon="-0.36253">
        <ele>60</ele>
        <time>2013-06-02T14:59:30Z</time>
      </trkpt>
      <trkpt lat="44.76122" lon="-0.36251">
        <ele>60</ele>
        <time>2013-06-02T14:59:31Z</time>
      </trkpt>
      <trkpt lat="44.76124" lon="-0.3625">
        <ele>59</ele>
        <time>2013-06-02T14:59:32Z</time>
      </trkpt>
      <trkpt lat="44.76127" lon="-0.3625">
        <ele>59</ele>
        <time>2013-06-02T14:59:33Z</time>
      </trkpt>
      <trkpt lat="44.76129" lon="-0.3625">
        <ele>59</ele>
        <time>2013-06-02T14:59:34Z</time>
      </trkpt>
      <trkpt lat="44.76159" lon="-0.36248">
        <ele>59</ele>
        <time>2013-06-02T14:59:43Z</time>
      </trkpt>
      <trkpt lat="44.76176" lon="-0.36244">
        <ele>58</ele>
        <time>2013-06-02T14:59:48Z</time>
      </trkpt>
      <trkpt lat="44.76178" lon="-0.3624">
        <ele>57</ele>
        <time>2013-06-02T14:59:49Z</time>
      </trkpt>
      <trkpt lat="44.76179" lon="-0.36235">
        <ele>58</ele>
        <time>2013-06-02T14:59:50Z</time>
      </trkpt>
      <trkpt lat="44.76174" lon="-0.36195">
        <ele>60</ele>
        <time>2013-06-02T14:59:58Z</time>
      </trkpt>
      <trkpt lat="44.7617" lon="-0.36169">
        <ele>62</ele>
        <time>2013-06-02T15:00:05Z</time>
      </trkpt>
      <trkpt lat="44.76165" lon="-0.36139">
        <ele>65</ele>
        <time>2013-06-02T15:00:15Z</time>
      </trkpt>
      <trkpt lat="44.76162" lon="-0.3612">
        <ele>67</ele>
        <time>2013-06-02T15:00:23Z</time>
      </trkpt>
      <trkpt lat="44.76159" lon="-0.36102">
        <ele>69</ele>
        <time>2013-06-02T15:00:30Z</time>
      </trkpt>
      <trkpt lat="44.76158" lon="-0.36084">
        <ele>71</ele>
        <time>2013-06-02T15:00:40Z</time>
      </trkpt>
      <trkpt lat="44.76158" lon="-0.36065">
        <ele>73</ele>
        <time>2013-06-02T15:00:50Z</time>
      </trkpt>
      <trkpt lat="44.76163" lon="-0.36055">
        <ele>73</ele>
        <time>2013-06-02T15:00:57Z</time>
      </trkpt>
      <trkpt lat="44.76177" lon="-0.36047">
        <ele>73</ele>
        <time>2013-06-02T15:01:08Z</time>
      </trkpt>
      <trkpt lat="44.76194" lon="-0.36046">
        <ele>73</ele>
        <time>2013-06-02T15:01:19Z</time>
      </trkpt>
      <trkpt lat="44.76203" lon="-0.36046">
        <ele>73</ele>
        <time>2013-06-02T15:01:27Z</time>
      </trkpt>
      <trkpt lat="44.76202" lon="-0.36037">
        <ele>74</ele>
        <time>2013-06-02T15:01:33Z</time>
      </trkpt>
      <trkpt lat="44.76199" lon="-0.36037">
        <ele>74</ele>
        <time>2013-06-02T15:01:35Z</time>
      </trkpt>
      <trkpt lat="44.76191" lon="-0.36032">
        <ele>75</ele>
        <time>2013-06-02T15:01:43Z</time>
      </trkpt>
      <trkpt lat="44.76182" lon="-0.3603">
        <ele>76</ele>
        <time>2013-06-02T15:01:50Z</time>
      </trkpt>
      <trkpt lat="44.76171" lon="-0.36029">
        <ele>76</ele>
        <time>2013-06-02T15:01:59Z</time>
      </trkpt>
      <trkpt lat="44.76161" lon="-0.36029">
        <ele>77</ele>
        <time>2013-06-02T15:02:08Z</time>
      </trkpt>
      <trkpt lat="44.7615" lon="-0.3603">
        <ele>78</ele>
        <time>2013-06-02T15:02:17Z</time>
      </trkpt>
      <trkpt lat="44.7614" lon="-0.36032">
        <ele>78</ele>
        <time>2013-06-02T15:02:25Z</time>
      </trkpt>
      <trkpt lat="44.76138" lon="-0.36033">
        <ele>78</ele>
        <time>2013-06-02T15:02:27Z</time>
      </trkpt>
      <trkpt lat="44.76134" lon="-0.36028">
        <ele>80</ele>
        <time>2013-06-02T15:02:33Z</time>
      </trkpt>
      <trkpt lat="44.76131" lon="-0.36017">
        <ele>81</ele>
        <time>2013-06-02T15:02:42Z</time>
      </trkpt>
      <trkpt lat="44.76127" lon="-0.36006">
        <ele>83</ele>
        <time>2013-06-02T15:02:49Z</time>
      </trkpt>
      <trkpt lat="44.76126" lon="-0.36002">
        <ele>84</ele>
        <time>2013-06-02T15:02:52Z</time>
      </trkpt>
      <trkpt lat="44.76125" lon="-0.35996">
        <ele>84</ele>
        <time>2013-06-02T15:02:56Z</time>
      </trkpt>
      <trkpt lat="44.76122" lon="-0.35985">
        <ele>86</ele>
        <time>2013-06-02T15:03:05Z</time>
      </trkpt>
      <trkpt lat="44.76121" lon="-0.3598">
        <ele>87</ele>
        <time>2013-06-02T15:03:09Z</time>
      </trkpt>
      <trkpt lat="44.7612" lon="-0.35978">
        <ele>87</ele>
        <time>2013-06-02T15:03:11Z</time>
      </trkpt>
      <trkpt lat="44.76117" lon="-0.35963">
        <ele>89</ele>
        <time>2013-06-02T15:03:21Z</time>
      </trkpt>
      <trkpt lat="44.76113" lon="-0.35953">
        <ele>90</ele>
        <time>2013-06-02T15:03:26Z</time>
      </trkpt>
      <trkpt lat="44.7611" lon="-0.35958">
        <ele>89</ele>
        <time>2013-06-02T15:03:30Z</time>
      </trkpt>
      <trkpt lat="44.76099" lon="-0.35973">
        <ele>89</ele>
        <time>2013-06-02T15:03:39Z</time>
      </trkpt>
      <trkpt lat="44.7609" lon="-0.35984">
        <ele>89</ele>
        <time>2013-06-02T15:03:46Z</time>
      </trkpt>
      <trkpt lat="44.76088" lon="-0.35988">
        <ele>89</ele>
        <time>2013-06-02T15:03:48Z</time>
      </trkpt>
      <trkpt lat="44.76077" lon="-0.35996">
        <ele>89</ele>
        <time>2013-06-02T15:03:56Z</time>
      </trkpt>
      <trkpt lat="44.76068" lon="-0.35997">
        <ele>89</ele>
        <time>2013-06-02T15:04:02Z</time>
      </trkpt>
      <trkpt lat="44.76067" lon="-0.35993">
        <ele>89</ele>
        <time>2013-06-02T15:04:05Z</time>
      </trkpt>
      <trkpt lat="44.76064" lon="-0.35973">
        <ele>91</ele>
        <time>2013-06-02T15:04:14Z</time>
      </trkpt>
      <trkpt lat="44.76057" lon="-0.35939">
        <ele>92</ele>
        <time>2013-06-02T15:04:26Z</time>
      </trkpt>
      <trkpt lat="44.76052" lon="-0.35909">
        <ele>93</ele>
        <time>2013-06-02T15:04:36Z</time>
      </trkpt>
      <trkpt lat="44.76046" lon="-0.35877">
        <ele>93</ele>
        <time>2013-06-02T15:04:47Z</time>
      </trkpt>
      <trkpt lat="44.76041" lon="-0.35846">
        <ele>93</ele>
        <time>2013-06-02T15:04:57Z</time>
      </trkpt>
      <trkpt lat="44.76039" lon="-0.35826">
        <ele>93</ele>
        <time>2013-06-02T15:05:06Z</time>
      </trkpt>
      <trkpt lat="44.76029" lon="-0.35814">
        <ele>92</ele>
        <time>2013-06-02T15:05:14Z</time>
      </trkpt>
      <trkpt lat="44.76022" lon="-0.35808">
        <ele>92</ele>
        <time>2013-06-02T15:05:19Z</time>
      </trkpt>
      <trkpt lat="44.76014" lon="-0.35804">
        <ele>92</ele>
        <time>2013-06-02T15:05:27Z</time>
      </trkpt>
      <trkpt lat="44.76014" lon="-0.35803">
        <ele>92</ele>
        <time>2013-06-02T15:05:36Z</time>
      </trkpt>
      <trkpt lat="44.76015" lon="-0.35803">
        <ele>92</ele>
        <time>2013-06-02T15:05:46Z</time>
      </trkpt>
      <trkpt lat="44.76015" lon="-0.35803">
        <ele>92</ele>
        <time>2013-06-02T15:05:57Z</time>
      </trkpt>
      <trkpt lat="44.76015" lon="-0.35803">
        <ele>92</ele>
        <time>2013-06-02T15:06:12Z</time>
      </trkpt>
      <trkpt lat="44.76015" lon="-0.35803">
        <ele>92</ele>
        <time>2013-06-02T15:06:30Z</time>
      </trkpt>
      <trkpt lat="44.76013" lon="-0.35803">
        <ele>92</ele>
        <time>2013-06-02T15:06:41Z</time>
      </trkpt>
      <trkpt lat="44.75997" lon="-0.358">
        <ele>92</ele>
        <time>2013-06-02T15:06:50Z</time>
      </trkpt>
      <trkpt lat="44.75979" lon="-0.35795">
        <ele>91</ele>
        <time>2013-06-02T15:06:59Z</time>
      </trkpt>
      <trkpt lat="44.75974" lon="-0.35791">
        <ele>91</ele>
        <time>2013-06-02T15:07:03Z</time>
      </trkpt>
      <trkpt lat="44.75973" lon="-0.35777">
        <ele>91</ele>
        <time>2013-06-02T15:07:07Z</time>
      </trkpt>
      <trkpt lat="44.75974" lon="-0.35746">
        <ele>90</ele>
        <time>2013-06-02T15:07:15Z</time>
      </trkpt>
      <trkpt lat="44.75977" lon="-0.35696">
        <ele>88</ele>
        <time>2013-06-02T15:07:24Z</time>
      </trkpt>
      <trkpt lat="44.7598" lon="-0.35646">
        <ele>85</ele>
        <time>2013-06-02T15:07:32Z</time>
      </trkpt>
      <trkpt lat="44.75988" lon="-0.35588">
        <ele>81</ele>
        <time>2013-06-02T15:07:40Z</time>
      </trkpt>
      <trkpt lat="44.75998" lon="-0.35543">
        <ele>78</ele>
        <time>2013-06-02T15:07:47Z</time>
      </trkpt>
      <trkpt lat="44.76001" lon="-0.3554">
        <ele>78</ele>
        <time>2013-06-02T15:07:48Z</time>
      </trkpt>
      <trkpt lat="44.76014" lon="-0.35536">
        <ele>78</ele>
        <time>2013-06-02T15:07:53Z</time>
      </trkpt>
      <trkpt lat="44.76031" lon="-0.35538">
        <ele>77</ele>
        <time>2013-06-02T15:08:01Z</time>
      </trkpt>
      <trkpt lat="44.76034" lon="-0.35532">
        <ele>77</ele>
        <time>2013-06-02T15:08:06Z</time>
      </trkpt>
      <trkpt lat="44.76033" lon="-0.35503">
        <ele>74</ele>
        <time>2013-06-02T15:08:16Z</time>
      </trkpt>
      <trkpt lat="44.76035" lon="-0.35481">
        <ele>72</ele>
        <time>2013-06-02T15:08:23Z</time>
      </trkpt>
      <trkpt lat="44.76041" lon="-0.35467">
        <ele>71</ele>
        <time>2013-06-02T15:08:31Z</time>
      </trkpt>
      <trkpt lat="44.76044" lon="-0.35456">
        <ele>70</ele>
        <time>2013-06-02T15:08:41Z</time>
      </trkpt>
      <trkpt lat="44.76046" lon="-0.35452">
        <ele>70</ele>
        <time>2013-06-02T15:08:43Z</time>
      </trkpt>
      <trkpt lat="44.76062" lon="-0.35416">
        <ele>68</ele>
        <time>2013-06-02T15:08:52Z</time>
      </trkpt>
      <trkpt lat="44.76068" lon="-0.35385">
        <ele>65</ele>
        <time>2013-06-02T15:09:00Z</time>
      </trkpt>
      <trkpt lat="44.76076" lon="-0.35363">
        <ele>62</ele>
        <time>2013-06-02T15:09:09Z</time>
      </trkpt>
      <trkpt lat="44.76075" lon="-0.35359">
        <ele>62</ele>
        <time>2013-06-02T15:09:11Z</time>
      </trkpt>
      <trkpt lat="44.76071" lon="-0.3535">
        <ele>61</ele>
        <time>2013-06-02T15:09:15Z</time>
      </trkpt>
      <trkpt lat="44.76071" lon="-0.35341">
        <ele>61</ele>
        <time>2013-06-02T15:09:19Z</time>
      </trkpt>
      <trkpt lat="44.76053" lon="-0.35322">
        <ele>59</ele>
        <time>2013-06-02T15:09:29Z</time>
      </trkpt>
      <trkpt lat="44.76029" lon="-0.35305">
        <ele>58</ele>
        <time>2013-06-02T15:09:38Z</time>
      </trkpt>
      <trkpt lat="44.76016" lon="-0.35289">
        <ele>57</ele>
        <time>2013-06-02T15:09:45Z</time>
      </trkpt>
      <trkpt lat="44.75996" lon="-0.35272">
        <ele>56</ele>
        <time>2013-06-02T15:09:53Z</time>
      </trkpt>
      <trkpt lat="44.7597" lon="-0.35258">
        <ele>56</ele>
        <time>2013-06-02T15:10:00Z</time>
      </trkpt>
      <trkpt lat="44.75935" lon="-0.35245">
        <ele>55</ele>
        <time>2013-06-02T15:10:08Z</time>
      </trkpt>
      <trkpt lat="44.75921" lon="-0.35234">
        <ele>54</ele>
        <time>2013-06-02T15:10:12Z</time>
      </trkpt>
      <trkpt lat="44.75917" lon="-0.35216">
        <ele>53</ele>
        <time>2013-06-02T15:10:16Z</time>
      </trkpt>
      <trkpt lat="44.75931" lon="-0.35203">
        <ele>53</ele>
        <time>2013-06-02T15:10:23Z</time>
      </trkpt>
      <trkpt lat="44.75935" lon="-0.35199">
        <ele>54</ele>
        <time>2013-06-02T15:10:25Z</time>
      </trkpt>
      <trkpt lat="44.75936" lon="-0.35187">
        <ele>54</ele>
        <time>2013-06-02T15:10:29Z</time>
      </trkpt>
      <trkpt lat="44.75937" lon="-0.3518">
        <ele>54</ele>
        <time>2013-06-02T15:10:35Z</time>
      </trkpt>
      <trkpt lat="44.75936" lon="-0.35178">
        <ele>54</ele>
        <time>2013-06-02T15:10:44Z</time>
      </trkpt>
      <trkpt lat="44.75935" lon="-0.35177">
        <ele>54</ele>
        <time>2013-06-02T15:10:45Z</time>
      </trkpt>
      <trkpt lat="44.75937" lon="-0.35168">
        <ele>54</ele>
        <time>2013-06-02T15:10:53Z</time>
      </trkpt>
      <trkpt lat="44.75937" lon="-0.35167">
        <ele>54</ele>
        <time>2013-06-02T15:10:59Z</time>
      </trkpt>
      <trkpt lat="44.75925" lon="-0.35161">
        <ele>53</ele>
        <time>2013-06-02T15:11:05Z</time>
      </trkpt>
      <trkpt lat="44.75917" lon="-0.35159">
        <ele>53</ele>
        <time>2013-06-02T15:11:12Z</time>
      </trkpt>
      <trkpt lat="44.75916" lon="-0.35158">
        <ele>53</ele>
        <time>2013-06-02T15:11:13Z</time>
      </trkpt>
      <trkpt lat="44.75914" lon="-0.35143">
        <ele>53</ele>
        <time>2013-06-02T15:11:21Z</time>
      </trkpt>
      <trkpt lat="44.75918" lon="-0.35115">
        <ele>53</ele>
        <time>2013-06-02T15:11:27Z</time>
      </trkpt>
      <trkpt lat="44.75925" lon="-0.3508">
        <ele>54</ele>
        <time>2013-06-02T15:11:34Z</time>
      </trkpt>
      <trkpt lat="44.75931" lon="-0.35041">
        <ele>56</ele>
        <time>2013-06-02T15:11:43Z</time>
      </trkpt>
      <trkpt lat="44.75931" lon="-0.35009">
        <ele>57</ele>
        <time>2013-06-02T15:11:51Z</time>
      </trkpt>
      <trkpt lat="44.75935" lon="-0.34986">
        <ele>58</ele>
        <time>2013-06-02T15:12:00Z</time>
      </trkpt>
      <trkpt lat="44.75941" lon="-0.34964">
        <ele>59</ele>
        <time>2013-06-02T15:12:10Z</time>
      </trkpt>
      <trkpt lat="44.75947" lon="-0.34947">
        <ele>60</ele>
        <time>2013-06-02T15:12:19Z</time>
      </trkpt>
      <trkpt lat="44.75951" lon="-0.34933">
        <ele>61</ele>
        <time>2013-06-02T15:12:26Z</time>
      </trkpt>
      <trkpt lat="44.75952" lon="-0.34912">
        <ele>61</ele>
        <time>2013-06-02T15:12:34Z</time>
      </trkpt>
      <trkpt lat="44.75952" lon="-0.34891">
        <ele>60</ele>
        <time>2013-06-02T15:12:41Z</time>
      </trkpt>
      <trkpt lat="44.75954" lon="-0.34851">
        <ele>59</ele>
        <time>2013-06-02T15:12:52Z</time>
      </trkpt>
      <trkpt lat="44.7596" lon="-0.34823">
        <ele>59</ele>
        <time>2013-06-02T15:13:00Z</time>
      </trkpt>
      <trkpt lat="44.75969" lon="-0.34807">
        <ele>59</ele>
        <time>2013-06-02T15:13:06Z</time>
      </trkpt>
      <trkpt lat="44.75981" lon="-0.34789">
        <ele>59</ele>
        <time>2013-06-02T15:13:14Z</time>
      </trkpt>
      <trkpt lat="44.75989" lon="-0.34781">
        <ele>59</ele>
        <time>2013-06-02T15:13:22Z</time>
      </trkpt>
      <trkpt lat="44.75994" lon="-0.34772">
        <ele>60</ele>
        <time>2013-06-02T15:13:30Z</time>
      </trkpt>
      <trkpt lat="44.76003" lon="-0.34757">
        <ele>60</ele>
        <time>2013-06-02T15:13:37Z</time>
      </trkpt>
      <trkpt lat="44.76013" lon="-0.34735">
        <ele>60</ele>
        <time>2013-06-02T15:13:45Z</time>
      </trkpt>
      <trkpt lat="44.7603" lon="-0.34713">
        <ele>59</ele>
        <time>2013-06-02T15:13:54Z</time>
      </trkpt>
      <trkpt lat="44.76039" lon="-0.34699">
        <ele>60</ele>
        <time>2013-06-02T15:14:02Z</time>
      </trkpt>
      <trkpt lat="44.76048" lon="-0.34693">
        <ele>60</ele>
        <time>2013-06-02T15:14:12Z</time>
      </trkpt>
      <trkpt lat="44.76051" lon="-0.3469">
        <ele>60</ele>
        <time>2013-06-02T15:14:21Z</time>
      </trkpt>
      <trkpt lat="44.76052" lon="-0.34689">
        <ele>60</ele>
        <time>2013-06-02T15:14:30Z</time>
      </trkpt>
      <trkpt lat="44.76053" lon="-0.34688">
        <ele>60</ele>
        <time>2013-06-02T15:14:39Z</time>
      </trkpt>
      <trkpt lat="44.76054" lon="-0.34685">
        <ele>60</ele>
        <time>2013-06-02T15:14:48Z</time>
      </trkpt>
      <trkpt lat="44.76054" lon="-0.34683">
        <ele>60</ele>
        <time>2013-06-02T15:14:55Z</time>
      </trkpt>
      <trkpt lat="44.76055" lon="-0.34683">
        <ele>60</ele>
        <time>2013-06-02T15:15:04Z</time>
      </trkpt>
      <trkpt lat="44.76055" lon="-0.34681">
        <ele>60</ele>
        <time>2013-06-02T15:15:12Z</time>
      </trkpt>
      <trkpt lat="44.76056" lon="-0.34682">
        <ele>60</ele>
        <time>2013-06-02T15:15:23Z</time>
      </trkpt>
      <trkpt lat="44.76055" lon="-0.34681">
        <ele>60</ele>
        <time>2013-06-02T15:15:33Z</time>
      </trkpt>
      <trkpt lat="44.76054" lon="-0.3468">
        <ele>60</ele>
        <time>2013-06-02T15:15:45Z</time>
      </trkpt>
      <trkpt lat="44.76053" lon="-0.34679">
        <ele>60</ele>
        <time>2013-06-02T15:15:59Z</time>
      </trkpt>
      <trkpt lat="44.7605" lon="-0.34677">
        <ele>60</ele>
        <time>2013-06-02T15:16:15Z</time>
      </trkpt>
      <trkpt lat="44.76049" lon="-0.34676">
        <ele>61</ele>
        <time>2013-06-02T15:16:29Z</time>
      </trkpt>
      <trkpt lat="44.76049" lon="-0.34676">
        <ele>61</ele>
        <time>2013-06-02T15:16:38Z</time>
      </trkpt>
      <trkpt lat="44.7605" lon="-0.34676">
        <ele>61</ele>
        <time>2013-06-02T15:16:47Z</time>
      </trkpt>
      <trkpt lat="44.76049" lon="-0.34676">
        <ele>61</ele>
        <time>2013-06-02T15:16:59Z</time>
      </trkpt>
      <trkpt lat="44.76049" lon="-0.34675">
        <ele>61</ele>
        <time>2013-06-02T15:17:10Z</time>
      </trkpt>
      <trkpt lat="44.76048" lon="-0.34675">
        <ele>61</ele>
        <time>2013-06-02T15:17:20Z</time>
      </trkpt>
      <trkpt lat="44.76047" lon="-0.34675">
        <ele>61</ele>
        <time>2013-06-02T15:17:27Z</time>
      </trkpt>
      <trkpt lat="44.76047" lon="-0.34675">
        <ele>61</ele>
        <time>2013-06-02T15:17:40Z</time>
      </trkpt>
      <trkpt lat="44.76045" lon="-0.34672">
        <ele>61</ele>
        <time>2013-06-02T15:17:54Z</time>
      </trkpt>
      <trkpt lat="44.76045" lon="-0.34671">
        <ele>61</ele>
        <time>2013-06-02T15:18:08Z</time>
      </trkpt>
      <trkpt lat="44.76045" lon="-0.3467">
        <ele>61</ele>
        <time>2013-06-02T15:18:22Z</time>
      </trkpt>
      <trkpt lat="44.76045" lon="-0.3467">
        <ele>61</ele>
        <time>2013-06-02T15:18:36Z</time>
      </trkpt>
      <trkpt lat="44.76044" lon="-0.34667">
        <ele>61</ele>
        <time>2013-06-02T15:18:45Z</time>
      </trkpt>
      <trkpt lat="44.76042" lon="-0.34659">
        <ele>62</ele>
        <time>2013-06-02T15:18:54Z</time>
      </trkpt>
      <trkpt lat="44.76041" lon="-0.34652">
        <ele>62</ele>
        <time>2013-06-02T15:19:06Z</time>
      </trkpt>
      <trkpt lat="44.76047" lon="-0.34639">
        <ele>63</ele>
        <time>2013-06-02T15:19:14Z</time>
      </trkpt>
      <trkpt lat="44.76058" lon="-0.34618">
        <ele>64</ele>
        <time>2013-06-02T15:19:24Z</time>
      </trkpt>
      <trkpt lat="44.76069" lon="-0.34594">
        <ele>65</ele>
        <time>2013-06-02T15:19:33Z</time>
      </trkpt>
      <trkpt lat="44.76079" lon="-0.34576">
        <ele>65</ele>
        <time>2013-06-02T15:19:41Z</time>
      </trkpt>
      <trkpt lat="44.76085" lon="-0.34558">
        <ele>66</ele>
        <time>2013-06-02T15:19:50Z</time>
      </trkpt>
      <trkpt lat="44.76091" lon="-0.34541">
        <ele>67</ele>
        <time>2013-06-02T15:19:58Z</time>
      </trkpt>
      <trkpt lat="44.76096" lon="-0.34522">
        <ele>67</ele>
        <time>2013-06-02T15:20:07Z</time>
      </trkpt>
      <trkpt lat="44.76097" lon="-0.34519">
        <ele>67</ele>
        <time>2013-06-02T15:20:08Z</time>
      </trkpt>
      <trkpt lat="44.76101" lon="-0.345">
        <ele>67</ele>
        <time>2013-06-02T15:20:17Z</time>
      </trkpt>
      <trkpt lat="44.76106" lon="-0.34485">
        <ele>67</ele>
        <time>2013-06-02T15:20:25Z</time>
      </trkpt>
      <trkpt lat="44.76109" lon="-0.34472">
        <ele>68</ele>
        <time>2013-06-02T15:20:34Z</time>
      </trkpt>
      <trkpt lat="44.76111" lon="-0.34457">
        <ele>68</ele>
        <time>2013-06-02T15:20:41Z</time>
      </trkpt>
      <trkpt lat="44.76111" lon="-0.34431">
        <ele>68</ele>
        <time>2013-06-02T15:20:51Z</time>
      </trkpt>
      <trkpt lat="44.76111" lon="-0.3441">
        <ele>69</ele>
        <time>2013-06-02T15:20:59Z</time>
      </trkpt>
      <trkpt lat="44.76113" lon="-0.34389">
        <ele>69</ele>
        <time>2013-06-02T15:21:06Z</time>
      </trkpt>
      <trkpt lat="44.76119" lon="-0.34368">
        <ele>68</ele>
        <time>2013-06-02T15:21:16Z</time>
      </trkpt>
      <trkpt lat="44.76123" lon="-0.34348">
        <ele>69</ele>
        <time>2013-06-02T15:21:24Z</time>
      </trkpt>
      <trkpt lat="44.76127" lon="-0.34326">
        <ele>68</ele>
        <time>2013-06-02T15:21:33Z</time>
      </trkpt>
      <trkpt lat="44.7613" lon="-0.34316">
        <ele>68</ele>
        <time>2013-06-02T15:21:38Z</time>
      </trkpt>
      <trkpt lat="44.76137" lon="-0.34307">
        <ele>68</ele>
        <time>2013-06-02T15:21:43Z</time>
      </trkpt>
      <trkpt lat="44.76156" lon="-0.34297">
        <ele>66</ele>
        <time>2013-06-02T15:21:51Z</time>
      </trkpt>
      <trkpt lat="44.76178" lon="-0.34294">
        <ele>65</ele>
        <time>2013-06-02T15:22:00Z</time>
      </trkpt>
      <trkpt lat="44.76196" lon="-0.34293">
        <ele>65</ele>
        <time>2013-06-02T15:22:10Z</time>
      </trkpt>
      <trkpt lat="44.76212" lon="-0.34289">
        <ele>65</ele>
        <time>2013-06-02T15:22:20Z</time>
      </trkpt>
      <trkpt lat="44.76226" lon="-0.34286">
        <ele>66</ele>
        <time>2013-06-02T15:22:29Z</time>
      </trkpt>
      <trkpt lat="44.76238" lon="-0.34284">
        <ele>67</ele>
        <time>2013-06-02T15:22:37Z</time>
      </trkpt>
      <trkpt lat="44.76249" lon="-0.34283">
        <ele>67</ele>
        <time>2013-06-02T15:22:45Z</time>
      </trkpt>
      <trkpt lat="44.76258" lon="-0.34281">
        <ele>68</ele>
        <time>2013-06-02T15:22:53Z</time>
      </trkpt>
      <trkpt lat="44.7626" lon="-0.34282">
        <ele>68</ele>
        <time>2013-06-02T15:22:55Z</time>
      </trkpt>
      <trkpt lat="44.76263" lon="-0.34297">
        <ele>69</ele>
        <time>2013-06-02T15:23:04Z</time>
      </trkpt>
      <trkpt lat="44.76269" lon="-0.34307">
        <ele>70</ele>
        <time>2013-06-02T15:23:10Z</time>
      </trkpt>
      <trkpt lat="44.76279" lon="-0.34314">
        <ele>72</ele>
        <time>2013-06-02T15:23:20Z</time>
      </trkpt>
      <trkpt lat="44.76285" lon="-0.34319">
        <ele>73</ele>
        <time>2013-06-02T15:23:28Z</time>
      </trkpt>
      <trkpt lat="44.76291" lon="-0.34323">
        <ele>73</ele>
        <time>2013-06-02T15:23:35Z</time>
      </trkpt>
      <trkpt lat="44.76292" lon="-0.34323">
        <ele>73</ele>
        <time>2013-06-02T15:23:37Z</time>
      </trkpt>
      <trkpt lat="44.76297" lon="-0.34329">
        <ele>74</ele>
        <time>2013-06-02T15:23:43Z</time>
      </trkpt>
      <trkpt lat="44.76296" lon="-0.34336">
        <ele>75</ele>
        <time>2013-06-02T15:23:48Z</time>
      </trkpt>
      <trkpt lat="44.76296" lon="-0.34349">
        <ele>76</ele>
        <time>2013-06-02T15:23:58Z</time>
      </trkpt>
      <trkpt lat="44.76295" lon="-0.34362">
        <ele>77</ele>
        <time>2013-06-02T15:24:07Z</time>
      </trkpt>
      <trkpt lat="44.76295" lon="-0.3437">
        <ele>78</ele>
        <time>2013-06-02T15:24:14Z</time>
      </trkpt>
      <trkpt lat="44.76294" lon="-0.34381">
        <ele>79</ele>
        <time>2013-06-02T15:24:22Z</time>
      </trkpt>
      <trkpt lat="44.76294" lon="-0.34382">
        <ele>79</ele>
        <time>2013-06-02T15:24:23Z</time>
      </trkpt>
      <trkpt lat="44.76294" lon="-0.34394">
        <ele>80</ele>
        <time>2013-06-02T15:24:32Z</time>
      </trkpt>
      <trkpt lat="44.76294" lon="-0.34404">
        <ele>81</ele>
        <time>2013-06-02T15:24:40Z</time>
      </trkpt>
      <trkpt lat="44.76295" lon="-0.34412">
        <ele>82</ele>
        <time>2013-06-02T15:24:46Z</time>
      </trkpt>
      <trkpt lat="44.76304" lon="-0.34413">
        <ele>84</ele>
        <time>2013-06-02T15:24:55Z</time>
      </trkpt>
      <trkpt lat="44.76312" lon="-0.34413">
        <ele>85</ele>
        <time>2013-06-02T15:25:03Z</time>
      </trkpt>
      <trkpt lat="44.76321" lon="-0.34413">
        <ele>87</ele>
        <time>2013-06-02T15:25:13Z</time>
      </trkpt>
      <trkpt lat="44.76327" lon="-0.34414">
        <ele>89</ele>
        <time>2013-06-02T15:25:21Z</time>
      </trkpt>
      <trkpt lat="44.76336" lon="-0.34417">
        <ele>90</ele>
        <time>2013-06-02T15:25:30Z</time>
      </trkpt>
      <trkpt lat="44.76341" lon="-0.34419">
        <ele>92</ele>
        <time>2013-06-02T15:25:38Z</time>
      </trkpt>
      <trkpt lat="44.76342" lon="-0.34419">
        <ele>92</ele>
        <time>2013-06-02T15:25:45Z</time>
      </trkpt>
      <trkpt lat="44.76345" lon="-0.34419">
        <ele>92</ele>
        <time>2013-06-02T15:25:48Z</time>
      </trkpt>
      <trkpt lat="44.76357" lon="-0.34415">
        <ele>93</ele>
        <time>2013-06-02T15:25:58Z</time>
      </trkpt>
      <trkpt lat="44.76361" lon="-0.34415">
        <ele>94</ele>
        <time>2013-06-02T15:26:04Z</time>
      </trkpt>
      <trkpt lat="44.76367" lon="-0.34413">
        <ele>94</ele>
        <time>2013-06-02T15:26:16Z</time>
      </trkpt>
      <trkpt lat="44.76379" lon="-0.34409">
        <ele>95</ele>
        <time>2013-06-02T15:26:25Z</time>
      </trkpt>
      <trkpt lat="44.76391" lon="-0.34404">
        <ele>95</ele>
        <time>2013-06-02T15:26:33Z</time>
      </trkpt>
      <trkpt lat="44.76405" lon="-0.34398">
        <ele>95</ele>
        <time>2013-06-02T15:26:42Z</time>
      </trkpt>
      <trkpt lat="44.76409" lon="-0.344">
        <ele>96</ele>
        <time>2013-06-02T15:26:47Z</time>
      </trkpt>
      <trkpt lat="44.76409" lon="-0.34399">
        <ele>95</ele>
        <time>2013-06-02T15:26:54Z</time>
      </trkpt>
      <trkpt lat="44.76412" lon="-0.34397">
        <ele>95</ele>
        <time>2013-06-02T15:27:03Z</time>
      </trkpt>
      <trkpt lat="44.76414" lon="-0.34397">
        <ele>96</ele>
        <time>2013-06-02T15:27:13Z</time>
      </trkpt>
      <trkpt lat="44.76415" lon="-0.34397">
        <ele>96</ele>
        <time>2013-06-02T15:27:31Z</time>
      </trkpt>
      <trkpt lat="44.76415" lon="-0.34397">
        <ele>96</ele>
        <time>2013-06-02T15:27:47Z</time>
      </trkpt>
      <trkpt lat="44.76415" lon="-0.34396">
        <ele>95</ele>
        <time>2013-06-02T15:28:02Z</time>
      </trkpt>
      <trkpt lat="44.76414" lon="-0.34396">
        <ele>95</ele>
        <time>2013-06-02T15:28:16Z</time>
      </trkpt>
      <trkpt lat="44.76414" lon="-0.34396">
        <ele>95</ele>
        <time>2013-06-02T15:28:25Z</time>
      </trkpt>
      <trkpt lat="44.76414" lon="-0.34396">
        <ele>95</ele>
        <time>2013-06-02T15:28:38Z</time>
      </trkpt>
      <trkpt lat="44.76414" lon="-0.34396">
        <ele>95</ele>
        <time>2013-06-02T15:28:47Z</time>
      </trkpt>
      <trkpt lat="44.76414" lon="-0.34395">
        <ele>95</ele>
        <time>2013-06-02T15:28:55Z</time>
      </trkpt>
      <trkpt lat="44.76416" lon="-0.34392">
        <ele>95</ele>
        <time>2013-06-02T15:28:57Z</time>
      </trkpt>
      <trkpt lat="44.76422" lon="-0.34387">
        <ele>95</ele>
        <time>2013-06-02T15:29:02Z</time>
      </trkpt>
      <trkpt lat="44.76443" lon="-0.34376">
        <ele>95</ele>
        <time>2013-06-02T15:29:12Z</time>
      </trkpt>
      <trkpt lat="44.76461" lon="-0.34365">
        <ele>95</ele>
        <time>2013-06-02T15:29:19Z</time>
      </trkpt>
      <trkpt lat="44.76485" lon="-0.3435">
        <ele>96</ele>
        <time>2013-06-02T15:29:27Z</time>
      </trkpt>
      <trkpt lat="44.76513" lon="-0.34332">
        <ele>96</ele>
        <time>2013-06-02T15:29:37Z</time>
      </trkpt>
      <trkpt lat="44.76534" lon="-0.34319">
        <ele>97</ele>
        <time>2013-06-02T15:29:46Z</time>
      </trkpt>
      <trkpt lat="44.76549" lon="-0.34312">
        <ele>98</ele>
        <time>2013-06-02T15:29:53Z</time>
      </trkpt>
      <trkpt lat="44.76552" lon="-0.3433">
        <ele>98</ele>
        <time>2013-06-02T15:29:58Z</time>
      </trkpt>
      <trkpt lat="44.7655" lon="-0.34356">
        <ele>98</ele>
        <time>2013-06-02T15:30:05Z</time>
      </trkpt>
      <trkpt lat="44.76551" lon="-0.34372">
        <ele>97</ele>
        <time>2013-06-02T15:30:10Z</time>
      </trkpt>
      <trkpt lat="44.76571" lon="-0.34388">
        <ele>97</ele>
        <time>2013-06-02T15:30:18Z</time>
      </trkpt>
      <trkpt lat="44.76595" lon="-0.34404">
        <ele>96</ele>
        <time>2013-06-02T15:30:27Z</time>
      </trkpt>
      <trkpt lat="44.76618" lon="-0.34414">
        <ele>97</ele>
        <time>2013-06-02T15:30:35Z</time>
      </trkpt>
      <trkpt lat="44.76645" lon="-0.34428">
        <ele>97</ele>
        <time>2013-06-02T15:30:45Z</time>
      </trkpt>
      <trkpt lat="44.76662" lon="-0.34434">
        <ele>98</ele>
        <time>2013-06-02T15:30:53Z</time>
      </trkpt>
      <trkpt lat="44.76664" lon="-0.34433">
        <ele>98</ele>
        <time>2013-06-02T15:30:54Z</time>
      </trkpt>
      <trkpt lat="44.76667" lon="-0.34413">
        <ele>99</ele>
        <time>2013-06-02T15:31:01Z</time>
      </trkpt>
      <trkpt lat="44.76669" lon="-0.34402">
        <ele>99</ele>
        <time>2013-06-02T15:31:05Z</time>
      </trkpt>
      <trkpt lat="44.76677" lon="-0.34399">
        <ele>100</ele>
        <time>2013-06-02T15:31:09Z</time>
      </trkpt>
      <trkpt lat="44.76693" lon="-0.34406">
        <ele>100</ele>
        <time>2013-06-02T15:31:18Z</time>
      </trkpt>
      <trkpt lat="44.76705" lon="-0.34413">
        <ele>100</ele>
        <time>2013-06-02T15:31:26Z</time>
      </trkpt>
      <trkpt lat="44.76713" lon="-0.34415">
        <ele>101</ele>
        <time>2013-06-02T15:31:31Z</time>
      </trkpt>
      <trkpt lat="44.7672" lon="-0.34401">
        <ele>101</ele>
        <time>2013-06-02T15:31:38Z</time>
      </trkpt>
      <trkpt lat="44.76723" lon="-0.34376">
        <ele>102</ele>
        <time>2013-06-02T15:31:47Z</time>
      </trkpt>
      <trkpt lat="44.76727" lon="-0.34341">
        <ele>102</ele>
        <time>2013-06-02T15:31:58Z</time>
      </trkpt>
      <trkpt lat="44.76731" lon="-0.34308">
        <ele>103</ele>
        <time>2013-06-02T15:32:07Z</time>
      </trkpt>
      <trkpt lat="44.76736" lon="-0.34279">
        <ele>103</ele>
        <time>2013-06-02T15:32:17Z</time>
      </trkpt>
      <trkpt lat="44.76737" lon="-0.34271">
        <ele>103</ele>
        <time>2013-06-02T15:32:20Z</time>
      </trkpt>
      <trkpt lat="44.76727" lon="-0.34266">
        <ele>103</ele>
        <time>2013-06-02T15:32:26Z</time>
      </trkpt>
      <trkpt lat="44.76725" lon="-0.34265">
        <ele>103</ele>
        <time>2013-06-02T15:32:27Z</time>
      </trkpt>
      <trkpt lat="44.7671" lon="-0.34255">
        <ele>103</ele>
        <time>2013-06-02T15:32:36Z</time>
      </trkpt>
      <trkpt lat="44.76701" lon="-0.34247">
        <ele>103</ele>
        <time>2013-06-02T15:32:43Z</time>
      </trkpt>
      <trkpt lat="44.76704" lon="-0.34229">
        <ele>103</ele>
        <time>2013-06-02T15:32:50Z</time>
      </trkpt>
      <trkpt lat="44.76716" lon="-0.34188">
        <ele>101</ele>
        <time>2013-06-02T15:32:59Z</time>
      </trkpt>
      <trkpt lat="44.76727" lon="-0.34155">
        <ele>99</ele>
        <time>2013-06-02T15:33:07Z</time>
      </trkpt>
      <trkpt lat="44.76736" lon="-0.34122">
        <ele>98</ele>
        <time>2013-06-02T15:33:16Z</time>
      </trkpt>
      <trkpt lat="44.7674" lon="-0.34097">
        <ele>96</ele>
        <time>2013-06-02T15:33:21Z</time>
      </trkpt>
      <trkpt lat="44.76748" lon="-0.34041">
        <ele>94</ele>
        <time>2013-06-02T15:33:28Z</time>
      </trkpt>
      <trkpt lat="44.76752" lon="-0.33993">
        <ele>90</ele>
        <time>2013-06-02T15:33:34Z</time>
      </trkpt>
      <trkpt lat="44.76751" lon="-0.33968">
        <ele>87</ele>
        <time>2013-06-02T15:33:40Z</time>
      </trkpt>
      <trkpt lat="44.76736" lon="-0.33961">
        <ele>86</ele>
        <time>2013-06-02T15:33:47Z</time>
      </trkpt>
      <trkpt lat="44.76712" lon="-0.33956">
        <ele>86</ele>
        <time>2013-06-02T15:33:55Z</time>
      </trkpt>
      <trkpt lat="44.76686" lon="-0.33953">
        <ele>87</ele>
        <time>2013-06-02T15:34:02Z</time>
      </trkpt>
      <trkpt lat="44.76662" lon="-0.33948">
        <ele>87</ele>
        <time>2013-06-02T15:34:09Z</time>
      </trkpt>
      <trkpt lat="44.76632" lon="-0.33942">
        <ele>87</ele>
        <time>2013-06-02T15:34:18Z</time>
      </trkpt>
      <trkpt lat="44.76618" lon="-0.33933">
        <ele>86</ele>
        <time>2013-06-02T15:34:22Z</time>
      </trkpt>
      <trkpt lat="44.76588" lon="-0.33915">
        <ele>85</ele>
        <time>2013-06-02T15:34:31Z</time>
      </trkpt>
      <trkpt lat="44.76562" lon="-0.33901">
        <ele>84</ele>
        <time>2013-06-02T15:34:40Z</time>
      </trkpt>
      <trkpt lat="44.76536" lon="-0.33885">
        <ele>83</ele>
        <time>2013-06-02T15:34:49Z</time>
      </trkpt>
      <trkpt lat="44.76527" lon="-0.33877">
        <ele>82</ele>
        <time>2013-06-02T15:34:54Z</time>
      </trkpt>
      <trkpt lat="44.76524" lon="-0.3387">
        <ele>81</ele>
        <time>2013-06-02T15:34:57Z</time>
      </trkpt>
      <trkpt lat="44.7653" lon="-0.33845">
        <ele>78</ele>
        <time>2013-06-02T15:35:05Z</time>
      </trkpt>
      <trkpt lat="44.76536" lon="-0.33824">
        <ele>77</ele>
        <time>2013-06-02T15:35:11Z</time>
      </trkpt>
      <trkpt lat="44.76527" lon="-0.33818">
        <ele>76</ele>
        <time>2013-06-02T15:35:15Z</time>
      </trkpt>
      <trkpt lat="44.765" lon="-0.33822">
        <ele>76</ele>
        <time>2013-06-02T15:35:24Z</time>
      </trkpt>
      <trkpt lat="44.76482" lon="-0.33821">
        <ele>76</ele>
        <time>2013-06-02T15:35:32Z</time>
      </trkpt>
      <trkpt lat="44.76466" lon="-0.33814">
        <ele>75</ele>
        <time>2013-06-02T15:35:41Z</time>
      </trkpt>
      <trkpt lat="44.76441" lon="-0.33821">
        <ele>75</ele>
        <time>2013-06-02T15:35:49Z</time>
      </trkpt>
      <trkpt lat="44.76415" lon="-0.33834">
        <ele>74</ele>
        <time>2013-06-02T15:35:59Z</time>
      </trkpt>
      <trkpt lat="44.76397" lon="-0.33841">
        <ele>73</ele>
        <time>2013-06-02T15:36:06Z</time>
      </trkpt>
      <trkpt lat="44.76361" lon="-0.33871">
        <ele>72</ele>
        <time>2013-06-02T15:36:15Z</time>
      </trkpt>
      <trkpt lat="44.76338" lon="-0.33889">
        <ele>71</ele>
        <time>2013-06-02T15:36:23Z</time>
      </trkpt>
      <trkpt lat="44.7632" lon="-0.33906">
        <ele>70</ele>
        <time>2013-06-02T15:36:32Z</time>
      </trkpt>
      <trkpt lat="44.76304" lon="-0.33923">
        <ele>69</ele>
        <time>2013-06-02T15:36:40Z</time>
      </trkpt>
      <trkpt lat="44.76284" lon="-0.3394">
        <ele>69</ele>
        <time>2013-06-02T15:36:48Z</time>
      </trkpt>
      <trkpt lat="44.76257" lon="-0.33967">
        <ele>69</ele>
        <time>2013-06-02T15:36:58Z</time>
      </trkpt>
      <trkpt lat="44.76255" lon="-0.33969">
        <ele>69</ele>
        <time>2013-06-02T15:36:59Z</time>
      </trkpt>
      <trkpt lat="44.7624" lon="-0.33962">
        <ele>68</ele>
        <time>2013-06-02T15:37:06Z</time>
      </trkpt>
      <trkpt lat="44.76234" lon="-0.33954">
        <ele>68</ele>
        <time>2013-06-02T15:37:10Z</time>
      </trkpt>
      <trkpt lat="44.76224" lon="-0.33929">
        <ele>68</ele>
        <time>2013-06-02T15:37:20Z</time>
      </trkpt>
      <trkpt lat="44.7621" lon="-0.33901">
        <ele>69</ele>
        <time>2013-06-02T15:37:30Z</time>
      </trkpt>
      <trkpt lat="44.76201" lon="-0.33883">
        <ele>71</ele>
        <time>2013-06-02T15:37:38Z</time>
      </trkpt>
      <trkpt lat="44.76187" lon="-0.33867">
        <ele>72</ele>
        <time>2013-06-02T15:37:48Z</time>
      </trkpt>
      <trkpt lat="44.76181" lon="-0.33847">
        <ele>73</ele>
        <time>2013-06-02T15:37:56Z</time>
      </trkpt>
      <trkpt lat="44.76178" lon="-0.33829">
        <ele>73</ele>
        <time>2013-06-02T15:38:05Z</time>
      </trkpt>
      <trkpt lat="44.76175" lon="-0.33809">
        <ele>74</ele>
        <time>2013-06-02T15:38:14Z</time>
      </trkpt>
      <trkpt lat="44.76171" lon="-0.33787">
        <ele>75</ele>
        <time>2013-06-02T15:38:25Z</time>
      </trkpt>
      <trkpt lat="44.76167" lon="-0.33776">
        <ele>75</ele>
        <time>2013-06-02T15:38:31Z</time>
      </trkpt>
      <trkpt lat="44.7616" lon="-0.33767">
        <ele>76</ele>
        <time>2013-06-02T15:38:39Z</time>
      </trkpt>
      <trkpt lat="44.76157" lon="-0.33764">
        <ele>77</ele>
        <time>2013-06-02T15:38:43Z</time>
      </trkpt>
      <trkpt lat="44.76138" lon="-0.33754">
        <ele>79</ele>
        <time>2013-06-02T15:38:53Z</time>
      </trkpt>
      <trkpt lat="44.76126" lon="-0.33752">
        <ele>81</ele>
        <time>2013-06-02T15:39:03Z</time>
      </trkpt>
      <trkpt lat="44.76114" lon="-0.33751">
        <ele>83</ele>
        <time>2013-06-02T15:39:14Z</time>
      </trkpt>
      <trkpt lat="44.76101" lon="-0.33754">
        <ele>85</ele>
        <time>2013-06-02T15:39:25Z</time>
      </trkpt>
      <trkpt lat="44.76089" lon="-0.33754">
        <ele>87</ele>
        <time>2013-06-02T15:39:37Z</time>
      </trkpt>
      <trkpt lat="44.76081" lon="-0.33753">
        <ele>89</ele>
        <time>2013-06-02T15:39:47Z</time>
      </trkpt>
      <trkpt lat="44.76067" lon="-0.33749">
        <ele>91</ele>
        <time>2013-06-02T15:39:58Z</time>
      </trkpt>
      <trkpt lat="44.76058" lon="-0.3375">
        <ele>92</ele>
        <time>2013-06-02T15:40:07Z</time>
      </trkpt>
      <trkpt lat="44.76047" lon="-0.33756">
        <ele>94</ele>
        <time>2013-06-02T15:40:17Z</time>
      </trkpt>
      <trkpt lat="44.76041" lon="-0.33759">
        <ele>94</ele>
        <time>2013-06-02T15:40:25Z</time>
      </trkpt>
      <trkpt lat="44.7603" lon="-0.33763">
        <ele>95</ele>
        <time>2013-06-02T15:40:34Z</time>
      </trkpt>
      <trkpt lat="44.76029" lon="-0.33763">
        <ele>95</ele>
        <time>2013-06-02T15:40:35Z</time>
      </trkpt>
      <trkpt lat="44.76019" lon="-0.33763">
        <ele>96</ele>
        <time>2013-06-02T15:40:44Z</time>
      </trkpt>
      <trkpt lat="44.76007" lon="-0.33762">
        <ele>97</ele>
        <time>2013-06-02T15:40:54Z</time>
      </trkpt>
      <trkpt lat="44.75992" lon="-0.33763">
        <ele>97</ele>
        <time>2013-06-02T15:41:04Z</time>
      </trkpt>
      <trkpt lat="44.75973" lon="-0.33768">
        <ele>98</ele>
        <time>2013-06-02T15:41:14Z</time>
      </trkpt>
      <trkpt lat="44.75955" lon="-0.33772">
        <ele>98</ele>
        <time>2013-06-02T15:41:23Z</time>
      </trkpt>
      <trkpt lat="44.75941" lon="-0.33768">
        <ele>97</ele>
        <time>2013-06-02T15:41:31Z</time>
      </trkpt>
      <trkpt lat="44.75939" lon="-0.33768">
        <ele>97</ele>
        <time>2013-06-02T15:41:32Z</time>
      </trkpt>
      <trkpt lat="44.75934" lon="-0.33762">
        <ele>97</ele>
        <time>2013-06-02T15:41:39Z</time>
      </trkpt>
      <trkpt lat="44.75935" lon="-0.33762">
        <ele>97</ele>
        <time>2013-06-02T15:41:54Z</time>
      </trkpt>
      <trkpt lat="44.75934" lon="-0.33762">
        <ele>97</ele>
        <time>2013-06-02T15:42:08Z</time>
      </trkpt>
      <trkpt lat="44.75934" lon="-0.33762">
        <ele>97</ele>
        <time>2013-06-02T15:42:23Z</time>
      </trkpt>
      <trkpt lat="44.75934" lon="-0.33762">
        <ele>97</ele>
        <time>2013-06-02T15:42:37Z</time>
      </trkpt>
      <trkpt lat="44.75935" lon="-0.33763">
        <ele>97</ele>
        <time>2013-06-02T15:42:55Z</time>
      </trkpt>
      <trkpt lat="44.75935" lon="-0.33763">
        <ele>97</ele>
        <time>2013-06-02T15:43:08Z</time>
      </trkpt>
      <trkpt lat="44.75935" lon="-0.33762">
        <ele>97</ele>
        <time>2013-06-02T15:43:23Z</time>
      </trkpt>
      <trkpt lat="44.75935" lon="-0.33759">
        <ele>97</ele>
        <time>2013-06-02T15:43:31Z</time>
      </trkpt>
      <trkpt lat="44.75935" lon="-0.33757">
        <ele>97</ele>
        <time>2013-06-02T15:43:34Z</time>
      </trkpt>
      <trkpt lat="44.75937" lon="-0.33754">
        <ele>97</ele>
        <time>2013-06-02T15:43:36Z</time>
      </trkpt>
      <trkpt lat="44.75941" lon="-0.33743">
        <ele>98</ele>
        <time>2013-06-02T15:43:41Z</time>
      </trkpt>
      <trkpt lat="44.75939" lon="-0.33721">
        <ele>98</ele>
        <time>2013-06-02T15:43:48Z</time>
      </trkpt>
      <trkpt lat="44.75937" lon="-0.33677">
        <ele>99</ele>
        <time>2013-06-02T15:43:56Z</time>
      </trkpt>
      <trkpt lat="44.75941" lon="-0.33631">
        <ele>100</ele>
        <time>2013-06-02T15:44:04Z</time>
      </trkpt>
      <trkpt lat="44.75943" lon="-0.33589">
        <ele>100</ele>
        <time>2013-06-02T15:44:12Z</time>
      </trkpt>
      <trkpt lat="44.75946" lon="-0.33543">
        <ele>101</ele>
        <time>2013-06-02T15:44:21Z</time>
      </trkpt>
      <trkpt lat="44.75954" lon="-0.33494">
        <ele>101</ele>
        <time>2013-06-02T15:44:31Z</time>
      </trkpt>
      <trkpt lat="44.75956" lon="-0.33453">
        <ele>102</ele>
        <time>2013-06-02T15:44:39Z</time>
      </trkpt>
      <trkpt lat="44.75956" lon="-0.33415">
        <ele>103</ele>
        <time>2013-06-02T15:44:46Z</time>
      </trkpt>
      <trkpt lat="44.75955" lon="-0.3336">
        <ele>104</ele>
        <time>2013-06-02T15:44:56Z</time>
      </trkpt>
      <trkpt lat="44.75954" lon="-0.33318">
        <ele>105</ele>
        <time>2013-06-02T15:45:04Z</time>
      </trkpt>
      <trkpt lat="44.75955" lon="-0.33275">
        <ele>105</ele>
        <time>2013-06-02T15:45:13Z</time>
      </trkpt>
      <trkpt lat="44.75946" lon="-0.33236">
        <ele>105</ele>
        <time>2013-06-02T15:45:21Z</time>
      </trkpt>
      <trkpt lat="44.75935" lon="-0.332">
        <ele>105</ele>
        <time>2013-06-02T15:45:29Z</time>
      </trkpt>
      <trkpt lat="44.75927" lon="-0.33169">
        <ele>105</ele>
        <time>2013-06-02T15:45:36Z</time>
      </trkpt>
      <trkpt lat="44.75919" lon="-0.33139">
        <ele>106</ele>
        <time>2013-06-02T15:45:43Z</time>
      </trkpt>
      <trkpt lat="44.75905" lon="-0.33109">
        <ele>106</ele>
        <time>2013-06-02T15:45:51Z</time>
      </trkpt>
      <trkpt lat="44.75886" lon="-0.33081">
        <ele>106</ele>
        <time>2013-06-02T15:45:59Z</time>
      </trkpt>
      <trkpt lat="44.75867" lon="-0.33059">
        <ele>106</ele>
        <time>2013-06-02T15:46:06Z</time>
      </trkpt>
      <trkpt lat="44.7585" lon="-0.3304">
        <ele>106</ele>
        <time>2013-06-02T15:46:13Z</time>
      </trkpt>
      <trkpt lat="44.75832" lon="-0.33026">
        <ele>106</ele>
        <time>2013-06-02T15:46:20Z</time>
      </trkpt>
      <trkpt lat="44.75826" lon="-0.32998">
        <ele>107</ele>
        <time>2013-06-02T15:46:28Z</time>
      </trkpt>
      <trkpt lat="44.75818" lon="-0.32959">
        <ele>107</ele>
        <time>2013-06-02T15:46:38Z</time>
      </trkpt>
      <trkpt lat="44.75812" lon="-0.32935">
        <ele>107</ele>
        <time>2013-06-02T15:46:46Z</time>
      </trkpt>
      <trkpt lat="44.75811" lon="-0.3293">
        <ele>107</ele>
        <time>2013-06-02T15:46:52Z</time>
      </trkpt>
      <trkpt lat="44.7581" lon="-0.3293">
        <ele>107</ele>
        <time>2013-06-02T15:46:55Z</time>
      </trkpt>
      <trkpt lat="44.75807" lon="-0.32928">
        <ele>107</ele>
        <time>2013-06-02T15:46:58Z</time>
      </trkpt>
      <trkpt lat="44.75805" lon="-0.32928">
        <ele>107</ele>
        <time>2013-06-02T15:46:59Z</time>
      </trkpt>
      <trkpt lat="44.75804" lon="-0.32928">
        <ele>107</ele>
        <time>2013-06-02T15:47:00Z</time>
      </trkpt>
      <trkpt lat="44.75802" lon="-0.32928">
        <ele>107</ele>
        <time>2013-06-02T15:47:01Z</time>
      </trkpt>
      <trkpt lat="44.758" lon="-0.32928">
        <ele>107</ele>
        <time>2013-06-02T15:47:02Z</time>
      </trkpt>
      <trkpt lat="44.75797" lon="-0.32927">
        <ele>107</ele>
        <time>2013-06-02T15:47:03Z</time>
      </trkpt>
      <trkpt lat="44.7578" lon="-0.32925">
        <ele>107</ele>
        <time>2013-06-02T15:47:10Z</time>
      </trkpt>
      <trkpt lat="44.75745" lon="-0.32911">
        <ele>107</ele>
        <time>2013-06-02T15:47:21Z</time>
      </trkpt>
      <trkpt lat="44.75713" lon="-0.32878">
        <ele>107</ele>
        <time>2013-06-02T15:47:30Z</time>
      </trkpt>
      <trkpt lat="44.75682" lon="-0.32845">
        <ele>107</ele>
        <time>2013-06-02T15:47:40Z</time>
      </trkpt>
      <trkpt lat="44.75678" lon="-0.3283">
        <ele>107</ele>
        <time>2013-06-02T15:47:43Z</time>
      </trkpt>
      <trkpt lat="44.75679" lon="-0.32825">
        <ele>107</ele>
        <time>2013-06-02T15:47:44Z</time>
      </trkpt>
      <trkpt lat="44.75681" lon="-0.32819">
        <ele>106</ele>
        <time>2013-06-02T15:47:45Z</time>
      </trkpt>
      <trkpt lat="44.75684" lon="-0.32815">
        <ele>106</ele>
        <time>2013-06-02T15:47:46Z</time>
      </trkpt>
      <trkpt lat="44.75688" lon="-0.32811">
        <ele>106</ele>
        <time>2013-06-02T15:47:47Z</time>
      </trkpt>
      <trkpt lat="44.75693" lon="-0.32808">
        <ele>106</ele>
        <time>2013-06-02T15:47:48Z</time>
      </trkpt>
      <trkpt lat="44.75698" lon="-0.32804">
        <ele>105</ele>
        <time>2013-06-02T15:47:49Z</time>
      </trkpt>
      <trkpt lat="44.75737" lon="-0.32766">
        <ele>103</ele>
        <time>2013-06-02T15:47:57Z</time>
      </trkpt>
      <trkpt lat="44.75762" lon="-0.32715">
        <ele>101</ele>
        <time>2013-06-02T15:48:04Z</time>
      </trkpt>
      <trkpt lat="44.7579" lon="-0.32631">
        <ele>101</ele>
        <time>2013-06-02T15:48:14Z</time>
      </trkpt>
      <trkpt lat="44.75821" lon="-0.32541">
        <ele>104</ele>
        <time>2013-06-02T15:48:25Z</time>
      </trkpt>
      <trkpt lat="44.75843" lon="-0.32459">
        <ele>105</ele>
        <time>2013-06-02T15:48:35Z</time>
      </trkpt>
      <trkpt lat="44.75862" lon="-0.32359">
        <ele>105</ele>
        <time>2013-06-02T15:48:46Z</time>
      </trkpt>
      <trkpt lat="44.75884" lon="-0.3227">
        <ele>107</ele>
        <time>2013-06-02T15:48:56Z</time>
      </trkpt>
      <trkpt lat="44.7591" lon="-0.322">
        <ele>107</ele>
        <time>2013-06-02T15:49:05Z</time>
      </trkpt>
      <trkpt lat="44.75922" lon="-0.32131">
        <ele>107</ele>
        <time>2013-06-02T15:49:13Z</time>
      </trkpt>
      <trkpt lat="44.75929" lon="-0.32035">
        <ele>107</ele>
        <time>2013-06-02T15:49:24Z</time>
      </trkpt>
      <trkpt lat="44.7593" lon="-0.31928">
        <ele>107</ele>
        <time>2013-06-02T15:49:36Z</time>
      </trkpt>
      <trkpt lat="44.75927" lon="-0.31837">
        <ele>107</ele>
        <time>2013-06-02T15:49:46Z</time>
      </trkpt>
      <trkpt lat="44.75938" lon="-0.31762">
        <ele>108</ele>
        <time>2013-06-02T15:49:54Z</time>
      </trkpt>
      <trkpt lat="44.75954" lon="-0.31701">
        <ele>109</ele>
        <time>2013-06-02T15:50:01Z</time>
      </trkpt>
      <trkpt lat="44.75957" lon="-0.31693">
        <ele>109</ele>
        <time>2013-06-02T15:50:02Z</time>
      </trkpt>
      <trkpt lat="44.75961" lon="-0.31686">
        <ele>109</ele>
        <time>2013-06-02T15:50:03Z</time>
      </trkpt>
      <trkpt lat="44.75982" lon="-0.31651">
        <ele>108</ele>
        <time>2013-06-02T15:50:08Z</time>
      </trkpt>
      <trkpt lat="44.75986" lon="-0.31643">
        <ele>108</ele>
        <time>2013-06-02T15:50:09Z</time>
      </trkpt>
      <trkpt lat="44.75989" lon="-0.31635">
        <ele>108</ele>
        <time>2013-06-02T15:50:10Z</time>
      </trkpt>
      <trkpt lat="44.75991" lon="-0.31627">
        <ele>108</ele>
        <time>2013-06-02T15:50:11Z</time>
      </trkpt>
      <trkpt lat="44.75993" lon="-0.31618">
        <ele>108</ele>
        <time>2013-06-02T15:50:12Z</time>
      </trkpt>
      <trkpt lat="44.75994" lon="-0.31609">
        <ele>108</ele>
        <time>2013-06-02T15:50:13Z</time>
      </trkpt>
      <trkpt lat="44.76003" lon="-0.3153">
        <ele>107</ele>
        <time>2013-06-02T15:50:22Z</time>
      </trkpt>
      <trkpt lat="44.76014" lon="-0.31434">
        <ele>108</ele>
        <time>2013-06-02T15:50:33Z</time>
      </trkpt>
      <trkpt lat="44.7602" lon="-0.31387">
        <ele>109</ele>
        <time>2013-06-02T15:50:39Z</time>
      </trkpt>
      <trkpt lat="44.7602" lon="-0.31379">
        <ele>110</ele>
        <time>2013-06-02T15:50:40Z</time>
      </trkpt>
      <trkpt lat="44.76018" lon="-0.31372">
        <ele>110</ele>
        <time>2013-06-02T15:50:41Z</time>
      </trkpt>
      <trkpt lat="44.76014" lon="-0.31366">
        <ele>110</ele>
        <time>2013-06-02T15:50:42Z</time>
      </trkpt>
      <trkpt lat="44.76009" lon="-0.31362">
        <ele>110</ele>
        <time>2013-06-02T15:50:43Z</time>
      </trkpt>
      <trkpt lat="44.76003" lon="-0.31359">
        <ele>110</ele>
        <time>2013-06-02T15:50:44Z</time>
      </trkpt>
      <trkpt lat="44.75996" lon="-0.31357">
        <ele>110</ele>
        <time>2013-06-02T15:50:45Z</time>
      </trkpt>
      <trkpt lat="44.75989" lon="-0.31356">
        <ele>110</ele>
        <time>2013-06-02T15:50:46Z</time>
      </trkpt>
      <trkpt lat="44.75983" lon="-0.31357">
        <ele>110</ele>
        <time>2013-06-02T15:50:47Z</time>
      </trkpt>
      <trkpt lat="44.75976" lon="-0.31357">
        <ele>110</ele>
        <time>2013-06-02T15:50:48Z</time>
      </trkpt>
      <trkpt lat="44.75911" lon="-0.31349">
        <ele>110</ele>
        <time>2013-06-02T15:50:57Z</time>
      </trkpt>
      <trkpt lat="44.7584" lon="-0.31336">
        <ele>109</ele>
        <time>2013-06-02T15:51:06Z</time>
      </trkpt>
      <trkpt lat="44.75755" lon="-0.31321">
        <ele>105</ele>
        <time>2013-06-02T15:51:16Z</time>
      </trkpt>
      <trkpt lat="44.75687" lon="-0.31311">
        <ele>103</ele>
        <time>2013-06-02T15:51:23Z</time>
      </trkpt>
      <trkpt lat="44.75648" lon="-0.31304">
        <ele>102</ele>
        <time>2013-06-02T15:51:27Z</time>
      </trkpt>
      <trkpt lat="44.75639" lon="-0.313">
        <ele>102</ele>
        <time>2013-06-02T15:51:28Z</time>
      </trkpt>
      <trkpt lat="44.7563" lon="-0.31294">
        <ele>102</ele>
        <time>2013-06-02T15:51:29Z</time>
      </trkpt>
    </trkseg>
  </trk>
</gpx>